<?xml version="1.0" encoding="UTF-8" standalone="no" ?>
<gpx xmlns="http://www.topografix.com/GPX/1/1" xmlns:xsi="http://www.w3.org/2001/XMLSchema-instance" xsi:schemaLocation="http://www.topografix.com/GPX/1/1 http://www.topografix.com/GPX/1/1/gpx.xsd" version="1.1" creator="VisuGPX - https://www.visugpx.com">
  <metadata>
    <name>10 février 2011 le bessat</name>
    <desc><![CDATA[10 février 2011 le bessat]]></desc>
  </metadata>
  <wpt lat="45.37061" lon="4.52848">
    <ele>1200</ele>
  </wpt>
  <wpt lat="45.36828" lon="4.5279">
    <ele>1205</ele>
  </wpt>
  <trk>
    <name><![CDATA[10 février 2011 le bessat_1]]></name>
    <trkseg>
      <trkpt lat="45.37061" lon="4.52848">
        <ele>1200</ele>
        <time>2011-02-10T07:49:03Z</time>
      </trkpt>
      <trkpt lat="45.37046" lon="4.52839">
        <ele>1201</ele>
        <time>2011-02-10T07:49:05Z</time>
      </trkpt>
      <trkpt lat="45.37058" lon="4.52848">
        <ele>1201</ele>
        <time>2011-02-10T07:49:06Z</time>
      </trkpt>
      <trkpt lat="45.36827" lon="4.52777">
        <ele>1205</ele>
        <time>2011-02-10T07:49:21Z</time>
      </trkpt>
      <trkpt lat="45.36821" lon="4.52788">
        <ele>1205</ele>
        <time>2011-02-10T07:52:49Z</time>
      </trkpt>
      <trkpt lat="45.36827" lon="4.52799">
        <ele>1205</ele>
        <time>2011-02-10T08:01:57Z</time>
      </trkpt>
      <trkpt lat="45.36825" lon="4.52811">
        <ele>1205</ele>
        <time>2011-02-10T08:06:20Z</time>
      </trkpt>
      <trkpt lat="45.36816" lon="4.52818">
        <ele>1205</ele>
        <time>2011-02-10T08:06:57Z</time>
      </trkpt>
      <trkpt lat="45.36808" lon="4.52826">
        <ele>1205</ele>
        <time>2011-02-10T08:07:04Z</time>
      </trkpt>
      <trkpt lat="45.36799" lon="4.52827">
        <ele>1205</ele>
        <time>2011-02-10T08:07:12Z</time>
      </trkpt>
      <trkpt lat="45.36792" lon="4.52837">
        <ele>1204</ele>
        <time>2011-02-10T08:07:51Z</time>
      </trkpt>
      <trkpt lat="45.36788" lon="4.5285">
        <ele>1204</ele>
        <time>2011-02-10T08:07:58Z</time>
      </trkpt>
      <trkpt lat="45.36783" lon="4.52861">
        <ele>1204</ele>
        <time>2011-02-10T08:08:05Z</time>
      </trkpt>
      <trkpt lat="45.36778" lon="4.52874">
        <ele>1204</ele>
        <time>2011-02-10T08:08:11Z</time>
      </trkpt>
      <trkpt lat="45.36775" lon="4.52887">
        <ele>1203</ele>
        <time>2011-02-10T08:08:18Z</time>
      </trkpt>
      <trkpt lat="45.36771" lon="4.52901">
        <ele>1203</ele>
        <time>2011-02-10T08:08:26Z</time>
      </trkpt>
      <trkpt lat="45.36768" lon="4.52915">
        <ele>1202</ele>
        <time>2011-02-10T08:08:47Z</time>
      </trkpt>
      <trkpt lat="45.36765" lon="4.52929">
        <ele>1203</ele>
        <time>2011-02-10T08:08:55Z</time>
      </trkpt>
      <trkpt lat="45.36761" lon="4.52942">
        <ele>1203</ele>
        <time>2011-02-10T08:09:03Z</time>
      </trkpt>
      <trkpt lat="45.36759" lon="4.52956">
        <ele>1204</ele>
        <time>2011-02-10T08:09:11Z</time>
      </trkpt>
      <trkpt lat="45.36755" lon="4.52968">
        <ele>1204</ele>
        <time>2011-02-10T08:09:18Z</time>
      </trkpt>
      <trkpt lat="45.36752" lon="4.52982">
        <ele>1204</ele>
        <time>2011-02-10T08:09:25Z</time>
      </trkpt>
      <trkpt lat="45.36747" lon="4.52993">
        <ele>1201</ele>
        <time>2011-02-10T08:09:34Z</time>
      </trkpt>
      <trkpt lat="45.36742" lon="4.53005">
        <ele>1200</ele>
        <time>2011-02-10T08:09:40Z</time>
      </trkpt>
      <trkpt lat="45.36739" lon="4.5302">
        <ele>1199</ele>
        <time>2011-02-10T08:09:47Z</time>
      </trkpt>
      <trkpt lat="45.36735" lon="4.53032">
        <ele>1198</ele>
        <time>2011-02-10T08:09:53Z</time>
      </trkpt>
      <trkpt lat="45.36731" lon="4.53046">
        <ele>1198</ele>
        <time>2011-02-10T08:10:00Z</time>
      </trkpt>
      <trkpt lat="45.3673" lon="4.53059">
        <ele>1199</ele>
        <time>2011-02-10T08:10:07Z</time>
      </trkpt>
      <trkpt lat="45.36727" lon="4.53073">
        <ele>1199</ele>
        <time>2011-02-10T08:10:14Z</time>
      </trkpt>
      <trkpt lat="45.36726" lon="4.53087">
        <ele>1199</ele>
        <time>2011-02-10T08:10:20Z</time>
      </trkpt>
      <trkpt lat="45.36727" lon="4.531">
        <ele>1199</ele>
        <time>2011-02-10T08:10:27Z</time>
      </trkpt>
      <trkpt lat="45.36728" lon="4.53114">
        <ele>1198</ele>
        <time>2011-02-10T08:10:34Z</time>
      </trkpt>
      <trkpt lat="45.36726" lon="4.53127">
        <ele>1198</ele>
        <time>2011-02-10T08:10:42Z</time>
      </trkpt>
      <trkpt lat="45.3673" lon="4.53141">
        <ele>1199</ele>
        <time>2011-02-10T08:10:50Z</time>
      </trkpt>
      <trkpt lat="45.36728" lon="4.53155">
        <ele>1200</ele>
        <time>2011-02-10T08:10:57Z</time>
      </trkpt>
      <trkpt lat="45.36721" lon="4.53166">
        <ele>1199</ele>
        <time>2011-02-10T08:11:04Z</time>
      </trkpt>
      <trkpt lat="45.3672" lon="4.53179">
        <ele>1198</ele>
        <time>2011-02-10T08:11:11Z</time>
      </trkpt>
      <trkpt lat="45.36719" lon="4.53194">
        <ele>1198</ele>
        <time>2011-02-10T08:11:18Z</time>
      </trkpt>
      <trkpt lat="45.36716" lon="4.53207">
        <ele>1197</ele>
        <time>2011-02-10T08:11:25Z</time>
      </trkpt>
      <trkpt lat="45.36712" lon="4.5322">
        <ele>1197</ele>
        <time>2011-02-10T08:11:31Z</time>
      </trkpt>
      <trkpt lat="45.3671" lon="4.53232">
        <ele>1197</ele>
        <time>2011-02-10T08:11:39Z</time>
      </trkpt>
      <trkpt lat="45.36712" lon="4.53247">
        <ele>1197</ele>
        <time>2011-02-10T08:11:46Z</time>
      </trkpt>
      <trkpt lat="45.36712" lon="4.53261">
        <ele>1199</ele>
        <time>2011-02-10T08:11:52Z</time>
      </trkpt>
      <trkpt lat="45.36707" lon="4.53274">
        <ele>1198</ele>
        <time>2011-02-10T08:11:59Z</time>
      </trkpt>
      <trkpt lat="45.36707" lon="4.53288">
        <ele>1198</ele>
        <time>2011-02-10T08:12:08Z</time>
      </trkpt>
      <trkpt lat="45.36707" lon="4.53302">
        <ele>1198</ele>
        <time>2011-02-10T08:12:15Z</time>
      </trkpt>
      <trkpt lat="45.36704" lon="4.53314">
        <ele>1198</ele>
        <time>2011-02-10T08:12:21Z</time>
      </trkpt>
      <trkpt lat="45.367" lon="4.53327">
        <ele>1197</ele>
        <time>2011-02-10T08:12:27Z</time>
      </trkpt>
      <trkpt lat="45.36699" lon="4.5334">
        <ele>1197</ele>
        <time>2011-02-10T08:12:33Z</time>
      </trkpt>
      <trkpt lat="45.36692" lon="4.53351">
        <ele>1196</ele>
        <time>2011-02-10T08:12:39Z</time>
      </trkpt>
      <trkpt lat="45.36686" lon="4.53363">
        <ele>1196</ele>
        <time>2011-02-10T08:12:46Z</time>
      </trkpt>
      <trkpt lat="45.36688" lon="4.53375">
        <ele>1197</ele>
        <time>2011-02-10T08:12:52Z</time>
      </trkpt>
      <trkpt lat="45.3669" lon="4.53391">
        <ele>1197</ele>
        <time>2011-02-10T08:13:00Z</time>
      </trkpt>
      <trkpt lat="45.36693" lon="4.53404">
        <ele>1197</ele>
        <time>2011-02-10T08:13:07Z</time>
      </trkpt>
      <trkpt lat="45.36688" lon="4.53417">
        <ele>1196</ele>
        <time>2011-02-10T08:13:14Z</time>
      </trkpt>
      <trkpt lat="45.3668" lon="4.53426">
        <ele>1195</ele>
        <time>2011-02-10T08:13:20Z</time>
      </trkpt>
      <trkpt lat="45.36674" lon="4.53437">
        <ele>1196</ele>
        <time>2011-02-10T08:13:27Z</time>
      </trkpt>
      <trkpt lat="45.36676" lon="4.53452">
        <ele>1198</ele>
        <time>2011-02-10T08:13:36Z</time>
      </trkpt>
      <trkpt lat="45.36677" lon="4.53465">
        <ele>1198</ele>
        <time>2011-02-10T08:13:43Z</time>
      </trkpt>
      <trkpt lat="45.3668" lon="4.53479">
        <ele>1198</ele>
        <time>2011-02-10T08:13:49Z</time>
      </trkpt>
      <trkpt lat="45.36677" lon="4.53491">
        <ele>1196</ele>
        <time>2011-02-10T08:13:56Z</time>
      </trkpt>
      <trkpt lat="45.36682" lon="4.53506">
        <ele>1198</ele>
        <time>2011-02-10T08:14:04Z</time>
      </trkpt>
      <trkpt lat="45.3668" lon="4.53518">
        <ele>1199</ele>
        <time>2011-02-10T08:14:14Z</time>
      </trkpt>
      <trkpt lat="45.36678" lon="4.53532">
        <ele>1201</ele>
        <time>2011-02-10T08:14:24Z</time>
      </trkpt>
      <trkpt lat="45.36675" lon="4.53544">
        <ele>1201</ele>
        <time>2011-02-10T08:14:31Z</time>
      </trkpt>
      <trkpt lat="45.36672" lon="4.53557">
        <ele>1200</ele>
        <time>2011-02-10T08:14:38Z</time>
      </trkpt>
      <trkpt lat="45.36669" lon="4.53569">
        <ele>1197</ele>
        <time>2011-02-10T08:14:44Z</time>
      </trkpt>
      <trkpt lat="45.36667" lon="4.53582">
        <ele>1192</ele>
        <time>2011-02-10T08:14:51Z</time>
      </trkpt>
      <trkpt lat="45.36668" lon="4.53595">
        <ele>1197</ele>
        <time>2011-02-10T08:14:58Z</time>
      </trkpt>
      <trkpt lat="45.36666" lon="4.53609">
        <ele>1183</ele>
        <time>2011-02-10T08:15:06Z</time>
      </trkpt>
      <trkpt lat="45.36669" lon="4.53621">
        <ele>1201</ele>
        <time>2011-02-10T08:15:14Z</time>
      </trkpt>
      <trkpt lat="45.36668" lon="4.53635">
        <ele>1200</ele>
        <time>2011-02-10T08:15:22Z</time>
      </trkpt>
      <trkpt lat="45.36669" lon="4.53649">
        <ele>1198</ele>
        <time>2011-02-10T08:15:30Z</time>
      </trkpt>
      <trkpt lat="45.36668" lon="4.53663">
        <ele>1193</ele>
        <time>2011-02-10T08:15:38Z</time>
      </trkpt>
      <trkpt lat="45.36669" lon="4.53678">
        <ele>1195</ele>
        <time>2011-02-10T08:15:46Z</time>
      </trkpt>
      <trkpt lat="45.36671" lon="4.53692">
        <ele>1198</ele>
        <time>2011-02-10T08:15:53Z</time>
      </trkpt>
      <trkpt lat="45.36671" lon="4.53708">
        <ele>1199</ele>
        <time>2011-02-10T08:16:03Z</time>
      </trkpt>
      <trkpt lat="45.36674" lon="4.53721">
        <ele>1198</ele>
        <time>2011-02-10T08:16:11Z</time>
      </trkpt>
      <trkpt lat="45.36677" lon="4.53735">
        <ele>1197</ele>
        <time>2011-02-10T08:16:19Z</time>
      </trkpt>
      <trkpt lat="45.3668" lon="4.5375">
        <ele>1195</ele>
        <time>2011-02-10T08:16:28Z</time>
      </trkpt>
      <trkpt lat="45.36684" lon="4.53762">
        <ele>1194</ele>
        <time>2011-02-10T08:16:35Z</time>
      </trkpt>
      <trkpt lat="45.36688" lon="4.53775">
        <ele>1195</ele>
        <time>2011-02-10T08:16:45Z</time>
      </trkpt>
      <trkpt lat="45.3669" lon="4.53788">
        <ele>1195</ele>
        <time>2011-02-10T08:16:53Z</time>
      </trkpt>
      <trkpt lat="45.36697" lon="4.53797">
        <ele>1195</ele>
        <time>2011-02-10T08:17:01Z</time>
      </trkpt>
      <trkpt lat="45.36701" lon="4.53809">
        <ele>1195</ele>
        <time>2011-02-10T08:17:08Z</time>
      </trkpt>
      <trkpt lat="45.36705" lon="4.53822">
        <ele>1195</ele>
        <time>2011-02-10T08:17:19Z</time>
      </trkpt>
      <trkpt lat="45.3671" lon="4.53835">
        <ele>1190</ele>
        <time>2011-02-10T08:17:30Z</time>
      </trkpt>
      <trkpt lat="45.36717" lon="4.53844">
        <ele>1192</ele>
        <time>2011-02-10T08:17:38Z</time>
      </trkpt>
      <trkpt lat="45.36725" lon="4.53853">
        <ele>1192</ele>
        <time>2011-02-10T08:17:44Z</time>
      </trkpt>
      <trkpt lat="45.36731" lon="4.53866">
        <ele>1192</ele>
        <time>2011-02-10T08:17:53Z</time>
      </trkpt>
      <trkpt lat="45.3674" lon="4.53875">
        <ele>1192</ele>
        <time>2011-02-10T08:18:01Z</time>
      </trkpt>
      <trkpt lat="45.36748" lon="4.53882">
        <ele>1193</ele>
        <time>2011-02-10T08:18:10Z</time>
      </trkpt>
      <trkpt lat="45.36753" lon="4.53894">
        <ele>1206</ele>
        <time>2011-02-10T08:18:20Z</time>
      </trkpt>
      <trkpt lat="45.36754" lon="4.53911">
        <ele>1201</ele>
        <time>2011-02-10T08:18:36Z</time>
      </trkpt>
      <trkpt lat="45.36762" lon="4.53922">
        <ele>1201</ele>
        <time>2011-02-10T08:18:39Z</time>
      </trkpt>
      <trkpt lat="45.36769" lon="4.53933">
        <ele>1203</ele>
        <time>2011-02-10T08:18:46Z</time>
      </trkpt>
      <trkpt lat="45.36775" lon="4.53944">
        <ele>1204</ele>
        <time>2011-02-10T08:18:56Z</time>
      </trkpt>
      <trkpt lat="45.36781" lon="4.53956">
        <ele>1205</ele>
        <time>2011-02-10T08:19:04Z</time>
      </trkpt>
      <trkpt lat="45.36785" lon="4.53969">
        <ele>1205</ele>
        <time>2011-02-10T08:19:14Z</time>
      </trkpt>
      <trkpt lat="45.36793" lon="4.53979">
        <ele>1205</ele>
        <time>2011-02-10T08:19:17Z</time>
      </trkpt>
      <trkpt lat="45.36794" lon="4.53992">
        <ele>1205</ele>
        <time>2011-02-10T08:19:27Z</time>
      </trkpt>
      <trkpt lat="45.36798" lon="4.54005">
        <ele>1203</ele>
        <time>2011-02-10T08:19:34Z</time>
      </trkpt>
      <trkpt lat="45.36802" lon="4.54018">
        <ele>1203</ele>
        <time>2011-02-10T08:19:43Z</time>
      </trkpt>
      <trkpt lat="45.36809" lon="4.54029">
        <ele>1203</ele>
        <time>2011-02-10T08:19:51Z</time>
      </trkpt>
      <trkpt lat="45.36811" lon="4.54044">
        <ele>1203</ele>
        <time>2011-02-10T08:20:01Z</time>
      </trkpt>
      <trkpt lat="45.36818" lon="4.54054">
        <ele>1204</ele>
        <time>2011-02-10T08:20:09Z</time>
      </trkpt>
      <trkpt lat="45.36818" lon="4.54067">
        <ele>1204</ele>
        <time>2011-02-10T08:20:17Z</time>
      </trkpt>
      <trkpt lat="45.36819" lon="4.5408">
        <ele>1205</ele>
        <time>2011-02-10T08:20:28Z</time>
      </trkpt>
      <trkpt lat="45.36819" lon="4.54094">
        <ele>1202</ele>
        <time>2011-02-10T08:20:35Z</time>
      </trkpt>
      <trkpt lat="45.36823" lon="4.54106">
        <ele>1201</ele>
        <time>2011-02-10T08:20:47Z</time>
      </trkpt>
      <trkpt lat="45.36829" lon="4.54116">
        <ele>1200</ele>
        <time>2011-02-10T08:20:53Z</time>
      </trkpt>
      <trkpt lat="45.36835" lon="4.54128">
        <ele>1211</ele>
        <time>2011-02-10T08:21:00Z</time>
      </trkpt>
      <trkpt lat="45.36842" lon="4.54138">
        <ele>1210</ele>
        <time>2011-02-10T08:21:06Z</time>
      </trkpt>
      <trkpt lat="45.36849" lon="4.54148">
        <ele>1210</ele>
        <time>2011-02-10T08:21:20Z</time>
      </trkpt>
      <trkpt lat="45.36856" lon="4.54158">
        <ele>1210</ele>
        <time>2011-02-10T08:21:29Z</time>
      </trkpt>
      <trkpt lat="45.36864" lon="4.54164">
        <ele>1211</ele>
        <time>2011-02-10T08:21:38Z</time>
      </trkpt>
      <trkpt lat="45.36871" lon="4.54172">
        <ele>1209</ele>
        <time>2011-02-10T08:21:49Z</time>
      </trkpt>
      <trkpt lat="45.36881" lon="4.54183">
        <ele>1210</ele>
        <time>2011-02-10T08:21:58Z</time>
      </trkpt>
      <trkpt lat="45.36889" lon="4.54191">
        <ele>1211</ele>
        <time>2011-02-10T08:22:09Z</time>
      </trkpt>
      <trkpt lat="45.36895" lon="4.542">
        <ele>1211</ele>
        <time>2011-02-10T08:22:19Z</time>
      </trkpt>
      <trkpt lat="45.36904" lon="4.54207">
        <ele>1212</ele>
        <time>2011-02-10T08:22:29Z</time>
      </trkpt>
      <trkpt lat="45.36914" lon="4.54218">
        <ele>1212</ele>
        <time>2011-02-10T08:22:36Z</time>
      </trkpt>
      <trkpt lat="45.36922" lon="4.54226">
        <ele>1218</ele>
        <time>2011-02-10T08:22:41Z</time>
      </trkpt>
      <trkpt lat="45.36931" lon="4.54231">
        <ele>1218</ele>
        <time>2011-02-10T08:23:05Z</time>
      </trkpt>
      <trkpt lat="45.3694" lon="4.54238">
        <ele>1219</ele>
        <time>2011-02-10T08:23:13Z</time>
      </trkpt>
      <trkpt lat="45.36949" lon="4.54243">
        <ele>1219</ele>
        <time>2011-02-10T08:23:24Z</time>
      </trkpt>
      <trkpt lat="45.36958" lon="4.54249">
        <ele>1220</ele>
        <time>2011-02-10T08:23:39Z</time>
      </trkpt>
      <trkpt lat="45.36965" lon="4.54258">
        <ele>1220</ele>
        <time>2011-02-10T08:23:48Z</time>
      </trkpt>
      <trkpt lat="45.36971" lon="4.5427">
        <ele>1220</ele>
        <time>2011-02-10T08:23:58Z</time>
      </trkpt>
      <trkpt lat="45.36978" lon="4.5428">
        <ele>1220</ele>
        <time>2011-02-10T08:24:03Z</time>
      </trkpt>
      <trkpt lat="45.36987" lon="4.54281">
        <ele>1221</ele>
        <time>2011-02-10T08:24:28Z</time>
      </trkpt>
      <trkpt lat="45.36977" lon="4.54278">
        <ele>1220</ele>
        <time>2011-02-10T08:24:46Z</time>
      </trkpt>
      <trkpt lat="45.36984" lon="4.54287">
        <ele>1220</ele>
        <time>2011-02-10T08:25:02Z</time>
      </trkpt>
      <trkpt lat="45.36985" lon="4.54302">
        <ele>1221</ele>
        <time>2011-02-10T08:25:14Z</time>
      </trkpt>
      <trkpt lat="45.36979" lon="4.54317">
        <ele>1221</ele>
        <time>2011-02-10T08:25:20Z</time>
      </trkpt>
      <trkpt lat="45.36978" lon="4.54331">
        <ele>1221</ele>
        <time>2011-02-10T08:25:31Z</time>
      </trkpt>
      <trkpt lat="45.36971" lon="4.54342">
        <ele>1223</ele>
        <time>2011-02-10T08:25:39Z</time>
      </trkpt>
      <trkpt lat="45.36964" lon="4.5435">
        <ele>1223</ele>
        <time>2011-02-10T08:25:44Z</time>
      </trkpt>
      <trkpt lat="45.36961" lon="4.54363">
        <ele>1224</ele>
        <time>2011-02-10T08:25:53Z</time>
      </trkpt>
      <trkpt lat="45.36954" lon="4.54375">
        <ele>1224</ele>
        <time>2011-02-10T08:26:03Z</time>
      </trkpt>
      <trkpt lat="45.36949" lon="4.54387">
        <ele>1225</ele>
        <time>2011-02-10T08:26:15Z</time>
      </trkpt>
      <trkpt lat="45.36944" lon="4.54398">
        <ele>1225</ele>
        <time>2011-02-10T08:26:25Z</time>
      </trkpt>
      <trkpt lat="45.36937" lon="4.54407">
        <ele>1226</ele>
        <time>2011-02-10T08:26:30Z</time>
      </trkpt>
      <trkpt lat="45.36933" lon="4.54419">
        <ele>1231</ele>
        <time>2011-02-10T08:26:39Z</time>
      </trkpt>
      <trkpt lat="45.36924" lon="4.54425">
        <ele>1231</ele>
        <time>2011-02-10T08:26:44Z</time>
      </trkpt>
      <trkpt lat="45.36921" lon="4.54437">
        <ele>1232</ele>
        <time>2011-02-10T08:26:58Z</time>
      </trkpt>
      <trkpt lat="45.36913" lon="4.54444">
        <ele>1232</ele>
        <time>2011-02-10T08:27:09Z</time>
      </trkpt>
      <trkpt lat="45.36902" lon="4.54451">
        <ele>1232</ele>
        <time>2011-02-10T08:27:22Z</time>
      </trkpt>
      <trkpt lat="45.36893" lon="4.54454">
        <ele>1232</ele>
        <time>2011-02-10T08:27:27Z</time>
      </trkpt>
      <trkpt lat="45.36884" lon="4.54461">
        <ele>1233</ele>
        <time>2011-02-10T08:27:32Z</time>
      </trkpt>
      <trkpt lat="45.36875" lon="4.54465">
        <ele>1233</ele>
        <time>2011-02-10T08:27:41Z</time>
      </trkpt>
      <trkpt lat="45.36865" lon="4.54464">
        <ele>1232</ele>
        <time>2011-02-10T08:27:48Z</time>
      </trkpt>
      <trkpt lat="45.36856" lon="4.54463">
        <ele>1232</ele>
        <time>2011-02-10T08:27:59Z</time>
      </trkpt>
      <trkpt lat="45.36845" lon="4.54466">
        <ele>1232</ele>
        <time>2011-02-10T08:28:11Z</time>
      </trkpt>
      <trkpt lat="45.36835" lon="4.54472">
        <ele>1233</ele>
        <time>2011-02-10T08:28:17Z</time>
      </trkpt>
      <trkpt lat="45.36826" lon="4.54478">
        <ele>1229</ele>
        <time>2011-02-10T08:28:34Z</time>
      </trkpt>
      <trkpt lat="45.36816" lon="4.54474">
        <ele>1228</ele>
        <time>2011-02-10T08:28:39Z</time>
      </trkpt>
      <trkpt lat="45.36806" lon="4.54481">
        <ele>1228</ele>
        <time>2011-02-10T08:28:45Z</time>
      </trkpt>
      <trkpt lat="45.36798" lon="4.54487">
        <ele>1228</ele>
        <time>2011-02-10T08:28:54Z</time>
      </trkpt>
      <trkpt lat="45.36787" lon="4.54492">
        <ele>1227</ele>
        <time>2011-02-10T08:29:01Z</time>
      </trkpt>
      <trkpt lat="45.36778" lon="4.54498">
        <ele>1227</ele>
        <time>2011-02-10T08:29:12Z</time>
      </trkpt>
      <trkpt lat="45.36771" lon="4.54506">
        <ele>1235</ele>
        <time>2011-02-10T08:29:31Z</time>
      </trkpt>
      <trkpt lat="45.36759" lon="4.54511">
        <ele>1234</ele>
        <time>2011-02-10T08:29:39Z</time>
      </trkpt>
      <trkpt lat="45.3675" lon="4.54513">
        <ele>1231</ele>
        <time>2011-02-10T08:29:52Z</time>
      </trkpt>
      <trkpt lat="45.36741" lon="4.54518">
        <ele>1232</ele>
        <time>2011-02-10T08:29:59Z</time>
      </trkpt>
      <trkpt lat="45.3673" lon="4.54521">
        <ele>1232</ele>
        <time>2011-02-10T08:30:06Z</time>
      </trkpt>
      <trkpt lat="45.36715" lon="4.54524">
        <ele>1233</ele>
        <time>2011-02-10T08:30:12Z</time>
      </trkpt>
      <trkpt lat="45.36711" lon="4.54536">
        <ele>1233</ele>
        <time>2011-02-10T08:30:26Z</time>
      </trkpt>
      <trkpt lat="45.36701" lon="4.54537">
        <ele>1233</ele>
        <time>2011-02-10T08:30:33Z</time>
      </trkpt>
      <trkpt lat="45.36692" lon="4.5454">
        <ele>1233</ele>
        <time>2011-02-10T08:30:41Z</time>
      </trkpt>
      <trkpt lat="45.36682" lon="4.54539">
        <ele>1233</ele>
        <time>2011-02-10T08:30:49Z</time>
      </trkpt>
      <trkpt lat="45.36678" lon="4.54552">
        <ele>1235</ele>
        <time>2011-02-10T08:31:02Z</time>
      </trkpt>
      <trkpt lat="45.36669" lon="4.54557">
        <ele>1236</ele>
        <time>2011-02-10T08:31:11Z</time>
      </trkpt>
      <trkpt lat="45.36663" lon="4.54569">
        <ele>1235</ele>
        <time>2011-02-10T08:31:22Z</time>
      </trkpt>
      <trkpt lat="45.36651" lon="4.54572">
        <ele>1234</ele>
        <time>2011-02-10T08:31:29Z</time>
      </trkpt>
      <trkpt lat="45.36643" lon="4.54578">
        <ele>1233</ele>
        <time>2011-02-10T08:31:36Z</time>
      </trkpt>
      <trkpt lat="45.36634" lon="4.54583">
        <ele>1232</ele>
        <time>2011-02-10T08:31:50Z</time>
      </trkpt>
      <trkpt lat="45.36628" lon="4.54593">
        <ele>1242</ele>
        <time>2011-02-10T08:31:59Z</time>
      </trkpt>
      <trkpt lat="45.36619" lon="4.54601">
        <ele>1242</ele>
        <time>2011-02-10T08:32:09Z</time>
      </trkpt>
      <trkpt lat="45.3661" lon="4.54602">
        <ele>1242</ele>
        <time>2011-02-10T08:32:15Z</time>
      </trkpt>
      <trkpt lat="45.366" lon="4.5461">
        <ele>1242</ele>
        <time>2011-02-10T08:32:27Z</time>
      </trkpt>
      <trkpt lat="45.36593" lon="4.54619">
        <ele>1242</ele>
        <time>2011-02-10T08:32:36Z</time>
      </trkpt>
      <trkpt lat="45.36585" lon="4.54627">
        <ele>1243</ele>
        <time>2011-02-10T08:32:45Z</time>
      </trkpt>
      <trkpt lat="45.36576" lon="4.54631">
        <ele>1234</ele>
        <time>2011-02-10T08:32:52Z</time>
      </trkpt>
      <trkpt lat="45.36567" lon="4.54637">
        <ele>1234</ele>
        <time>2011-02-10T08:33:00Z</time>
      </trkpt>
      <trkpt lat="45.36566" lon="4.54651">
        <ele>1236</ele>
        <time>2011-02-10T08:33:12Z</time>
      </trkpt>
      <trkpt lat="45.36558" lon="4.54661">
        <ele>1235</ele>
        <time>2011-02-10T08:33:20Z</time>
      </trkpt>
      <trkpt lat="45.36548" lon="4.54668">
        <ele>1240</ele>
        <time>2011-02-10T08:33:32Z</time>
      </trkpt>
      <trkpt lat="45.36542" lon="4.54678">
        <ele>1239</ele>
        <time>2011-02-10T08:33:40Z</time>
      </trkpt>
      <trkpt lat="45.36536" lon="4.5469">
        <ele>1239</ele>
        <time>2011-02-10T08:33:50Z</time>
      </trkpt>
      <trkpt lat="45.36536" lon="4.54704">
        <ele>1240</ele>
        <time>2011-02-10T08:33:59Z</time>
      </trkpt>
      <trkpt lat="45.36533" lon="4.54716">
        <ele>1241</ele>
        <time>2011-02-10T08:34:06Z</time>
      </trkpt>
      <trkpt lat="45.36526" lon="4.54727">
        <ele>1240</ele>
        <time>2011-02-10T08:34:15Z</time>
      </trkpt>
      <trkpt lat="45.36519" lon="4.54737">
        <ele>1239</ele>
        <time>2011-02-10T08:34:26Z</time>
      </trkpt>
      <trkpt lat="45.36515" lon="4.54749">
        <ele>1239</ele>
        <time>2011-02-10T08:34:35Z</time>
      </trkpt>
      <trkpt lat="45.36507" lon="4.54758">
        <ele>1241</ele>
        <time>2011-02-10T08:34:43Z</time>
      </trkpt>
      <trkpt lat="45.36498" lon="4.54768">
        <ele>1231</ele>
        <time>2011-02-10T08:34:56Z</time>
      </trkpt>
      <trkpt lat="45.36492" lon="4.54781">
        <ele>1230</ele>
        <time>2011-02-10T08:35:07Z</time>
      </trkpt>
      <trkpt lat="45.36485" lon="4.54792">
        <ele>1230</ele>
        <time>2011-02-10T08:35:14Z</time>
      </trkpt>
      <trkpt lat="45.36478" lon="4.54803">
        <ele>1229</ele>
        <time>2011-02-10T08:35:23Z</time>
      </trkpt>
      <trkpt lat="45.36481" lon="4.54815">
        <ele>1231</ele>
        <time>2011-02-10T08:35:31Z</time>
      </trkpt>
      <trkpt lat="45.3648" lon="4.5483">
        <ele>1233</ele>
        <time>2011-02-10T08:35:38Z</time>
      </trkpt>
      <trkpt lat="45.36474" lon="4.54842">
        <ele>1234</ele>
        <time>2011-02-10T08:35:47Z</time>
      </trkpt>
      <trkpt lat="45.36466" lon="4.54851">
        <ele>1232</ele>
        <time>2011-02-10T08:35:54Z</time>
      </trkpt>
      <trkpt lat="45.36464" lon="4.54866">
        <ele>1232</ele>
        <time>2011-02-10T08:36:02Z</time>
      </trkpt>
      <trkpt lat="45.36462" lon="4.5488">
        <ele>1232</ele>
        <time>2011-02-10T08:36:11Z</time>
      </trkpt>
      <trkpt lat="45.36457" lon="4.54893">
        <ele>1231</ele>
        <time>2011-02-10T08:36:18Z</time>
      </trkpt>
      <trkpt lat="45.36452" lon="4.54905">
        <ele>1230</ele>
        <time>2011-02-10T08:36:27Z</time>
      </trkpt>
      <trkpt lat="45.36447" lon="4.54918">
        <ele>1231</ele>
        <time>2011-02-10T08:36:37Z</time>
      </trkpt>
      <trkpt lat="45.36443" lon="4.54929">
        <ele>1231</ele>
        <time>2011-02-10T08:36:43Z</time>
      </trkpt>
      <trkpt lat="45.36441" lon="4.54944">
        <ele>1232</ele>
        <time>2011-02-10T08:36:51Z</time>
      </trkpt>
      <trkpt lat="45.36441" lon="4.54959">
        <ele>1232</ele>
        <time>2011-02-10T08:36:58Z</time>
      </trkpt>
      <trkpt lat="45.3644" lon="4.54973">
        <ele>1232</ele>
        <time>2011-02-10T08:37:07Z</time>
      </trkpt>
      <trkpt lat="45.36436" lon="4.54986">
        <ele>1231</ele>
        <time>2011-02-10T08:37:15Z</time>
      </trkpt>
      <trkpt lat="45.36428" lon="4.54997">
        <ele>1228</ele>
        <time>2011-02-10T08:37:22Z</time>
      </trkpt>
      <trkpt lat="45.36423" lon="4.55009">
        <ele>1229</ele>
        <time>2011-02-10T08:37:29Z</time>
      </trkpt>
      <trkpt lat="45.36423" lon="4.55024">
        <ele>1232</ele>
        <time>2011-02-10T08:37:37Z</time>
      </trkpt>
      <trkpt lat="45.36419" lon="4.55037">
        <ele>1233</ele>
        <time>2011-02-10T08:37:47Z</time>
      </trkpt>
      <trkpt lat="45.36419" lon="4.55051">
        <ele>1233</ele>
        <time>2011-02-10T08:37:55Z</time>
      </trkpt>
      <trkpt lat="45.36418" lon="4.55064">
        <ele>1232</ele>
        <time>2011-02-10T08:38:03Z</time>
      </trkpt>
      <trkpt lat="45.36415" lon="4.55077">
        <ele>1222</ele>
        <time>2011-02-10T08:38:10Z</time>
      </trkpt>
      <trkpt lat="45.36419" lon="4.5509">
        <ele>1229</ele>
        <time>2011-02-10T08:38:19Z</time>
      </trkpt>
      <trkpt lat="45.36419" lon="4.55104">
        <ele>1233</ele>
        <time>2011-02-10T08:38:27Z</time>
      </trkpt>
      <trkpt lat="45.36414" lon="4.55115">
        <ele>1217</ele>
        <time>2011-02-10T08:38:34Z</time>
      </trkpt>
      <trkpt lat="45.36409" lon="4.55129">
        <ele>1217</ele>
        <time>2011-02-10T08:38:40Z</time>
      </trkpt>
      <trkpt lat="45.36405" lon="4.5514">
        <ele>1217</ele>
        <time>2011-02-10T08:38:47Z</time>
      </trkpt>
      <trkpt lat="45.364" lon="4.55152">
        <ele>1217</ele>
        <time>2011-02-10T08:38:53Z</time>
      </trkpt>
      <trkpt lat="45.36394" lon="4.55165">
        <ele>1217</ele>
        <time>2011-02-10T08:38:59Z</time>
      </trkpt>
      <trkpt lat="45.36391" lon="4.55177">
        <ele>1217</ele>
        <time>2011-02-10T08:39:07Z</time>
      </trkpt>
      <trkpt lat="45.36388" lon="4.5519">
        <ele>1216</ele>
        <time>2011-02-10T08:39:16Z</time>
      </trkpt>
      <trkpt lat="45.36391" lon="4.55204">
        <ele>1216</ele>
        <time>2011-02-10T08:39:24Z</time>
      </trkpt>
      <trkpt lat="45.36383" lon="4.55215">
        <ele>1215</ele>
        <time>2011-02-10T08:39:33Z</time>
      </trkpt>
      <trkpt lat="45.36375" lon="4.55221">
        <ele>1214</ele>
        <time>2011-02-10T08:39:57Z</time>
      </trkpt>
      <trkpt lat="45.36374" lon="4.55235">
        <ele>1214</ele>
        <time>2011-02-10T08:43:30Z</time>
      </trkpt>
      <trkpt lat="45.36376" lon="4.55248">
        <ele>1214</ele>
        <time>2011-02-10T08:43:43Z</time>
      </trkpt>
      <trkpt lat="45.36378" lon="4.55263">
        <ele>1215</ele>
        <time>2011-02-10T08:43:55Z</time>
      </trkpt>
      <trkpt lat="45.36381" lon="4.55277">
        <ele>1216</ele>
        <time>2011-02-10T08:44:09Z</time>
      </trkpt>
      <trkpt lat="45.36382" lon="4.55291">
        <ele>1216</ele>
        <time>2011-02-10T08:44:20Z</time>
      </trkpt>
      <trkpt lat="45.36388" lon="4.55302">
        <ele>1217</ele>
        <time>2011-02-10T08:44:29Z</time>
      </trkpt>
      <trkpt lat="45.36393" lon="4.55315">
        <ele>1218</ele>
        <time>2011-02-10T08:44:39Z</time>
      </trkpt>
      <trkpt lat="45.36393" lon="4.55328">
        <ele>1218</ele>
        <time>2011-02-10T08:44:51Z</time>
      </trkpt>
      <trkpt lat="45.36399" lon="4.55339">
        <ele>1221</ele>
        <time>2011-02-10T08:45:01Z</time>
      </trkpt>
      <trkpt lat="45.36402" lon="4.55354">
        <ele>1221</ele>
        <time>2011-02-10T08:45:16Z</time>
      </trkpt>
      <trkpt lat="45.36402" lon="4.55368">
        <ele>1221</ele>
        <time>2011-02-10T08:45:30Z</time>
      </trkpt>
      <trkpt lat="45.36409" lon="4.55378">
        <ele>1221</ele>
        <time>2011-02-10T08:45:39Z</time>
      </trkpt>
      <trkpt lat="45.36414" lon="4.5539">
        <ele>1223</ele>
        <time>2011-02-10T08:45:47Z</time>
      </trkpt>
      <trkpt lat="45.36422" lon="4.55399">
        <ele>1235</ele>
        <time>2011-02-10T08:45:57Z</time>
      </trkpt>
      <trkpt lat="45.36419" lon="4.55412">
        <ele>1232</ele>
        <time>2011-02-10T08:46:12Z</time>
      </trkpt>
      <trkpt lat="45.36425" lon="4.55426">
        <ele>1234</ele>
        <time>2011-02-10T08:46:22Z</time>
      </trkpt>
      <trkpt lat="45.36431" lon="4.55437">
        <ele>1237</ele>
        <time>2011-02-10T08:46:31Z</time>
      </trkpt>
      <trkpt lat="45.36437" lon="4.55448">
        <ele>1238</ele>
        <time>2011-02-10T08:46:44Z</time>
      </trkpt>
      <trkpt lat="45.36443" lon="4.55458">
        <ele>1239</ele>
        <time>2011-02-10T08:46:53Z</time>
      </trkpt>
      <trkpt lat="45.3645" lon="4.5547">
        <ele>1240</ele>
        <time>2011-02-10T08:47:06Z</time>
      </trkpt>
      <trkpt lat="45.36455" lon="4.55485">
        <ele>1240</ele>
        <time>2011-02-10T08:47:14Z</time>
      </trkpt>
      <trkpt lat="45.36459" lon="4.55497">
        <ele>1241</ele>
        <time>2011-02-10T08:47:24Z</time>
      </trkpt>
      <trkpt lat="45.36466" lon="4.55507">
        <ele>1242</ele>
        <time>2011-02-10T08:47:38Z</time>
      </trkpt>
      <trkpt lat="45.36472" lon="4.55517">
        <ele>1243</ele>
        <time>2011-02-10T08:47:47Z</time>
      </trkpt>
      <trkpt lat="45.36476" lon="4.55529">
        <ele>1243</ele>
        <time>2011-02-10T08:48:01Z</time>
      </trkpt>
      <trkpt lat="45.36483" lon="4.55539">
        <ele>1244</ele>
        <time>2011-02-10T08:48:11Z</time>
      </trkpt>
      <trkpt lat="45.3649" lon="4.55549">
        <ele>1245</ele>
        <time>2011-02-10T08:48:19Z</time>
      </trkpt>
      <trkpt lat="45.36497" lon="4.55559">
        <ele>1246</ele>
        <time>2011-02-10T08:48:29Z</time>
      </trkpt>
      <trkpt lat="45.36508" lon="4.55563">
        <ele>1256</ele>
        <time>2011-02-10T08:48:48Z</time>
      </trkpt>
      <trkpt lat="45.36515" lon="4.55572">
        <ele>1256</ele>
        <time>2011-02-10T08:48:57Z</time>
      </trkpt>
      <trkpt lat="45.36523" lon="4.5558">
        <ele>1257</ele>
        <time>2011-02-10T08:49:06Z</time>
      </trkpt>
      <trkpt lat="45.36531" lon="4.55587">
        <ele>1255</ele>
        <time>2011-02-10T08:49:22Z</time>
      </trkpt>
      <trkpt lat="45.36538" lon="4.55597">
        <ele>1256</ele>
        <time>2011-02-10T08:49:33Z</time>
      </trkpt>
      <trkpt lat="45.36547" lon="4.55603">
        <ele>1257</ele>
        <time>2011-02-10T08:49:48Z</time>
      </trkpt>
      <trkpt lat="45.36555" lon="4.5561">
        <ele>1257</ele>
        <time>2011-02-10T08:50:04Z</time>
      </trkpt>
      <trkpt lat="45.36563" lon="4.55617">
        <ele>1257</ele>
        <time>2011-02-10T08:50:13Z</time>
      </trkpt>
      <trkpt lat="45.36572" lon="4.55623">
        <ele>1258</ele>
        <time>2011-02-10T08:50:20Z</time>
      </trkpt>
      <trkpt lat="45.36579" lon="4.55632">
        <ele>1257</ele>
        <time>2011-02-10T08:50:37Z</time>
      </trkpt>
      <trkpt lat="45.36587" lon="4.55641">
        <ele>1268</ele>
        <time>2011-02-10T08:50:46Z</time>
      </trkpt>
      <trkpt lat="45.36596" lon="4.55646">
        <ele>1268</ele>
        <time>2011-02-10T08:51:05Z</time>
      </trkpt>
      <trkpt lat="45.36604" lon="4.55654">
        <ele>1269</ele>
        <time>2011-02-10T08:51:18Z</time>
      </trkpt>
      <trkpt lat="45.36612" lon="4.55661">
        <ele>1270</ele>
        <time>2011-02-10T08:51:25Z</time>
      </trkpt>
      <trkpt lat="45.36623" lon="4.55661">
        <ele>1273</ele>
        <time>2011-02-10T08:51:40Z</time>
      </trkpt>
      <trkpt lat="45.36632" lon="4.55666">
        <ele>1274</ele>
        <time>2011-02-10T08:51:50Z</time>
      </trkpt>
      <trkpt lat="45.3664" lon="4.55673">
        <ele>1268</ele>
        <time>2011-02-10T08:51:58Z</time>
      </trkpt>
      <trkpt lat="45.3665" lon="4.55678">
        <ele>1271</ele>
        <time>2011-02-10T08:52:14Z</time>
      </trkpt>
      <trkpt lat="45.36659" lon="4.55681">
        <ele>1272</ele>
        <time>2011-02-10T08:52:27Z</time>
      </trkpt>
      <trkpt lat="45.36668" lon="4.55687">
        <ele>1282</ele>
        <time>2011-02-10T08:52:39Z</time>
      </trkpt>
      <trkpt lat="45.36678" lon="4.55692">
        <ele>1282</ele>
        <time>2011-02-10T08:53:00Z</time>
      </trkpt>
      <trkpt lat="45.36687" lon="4.55696">
        <ele>1282</ele>
        <time>2011-02-10T08:53:14Z</time>
      </trkpt>
      <trkpt lat="45.36696" lon="4.55698">
        <ele>1283</ele>
        <time>2011-02-10T08:53:25Z</time>
      </trkpt>
      <trkpt lat="45.36705" lon="4.55703">
        <ele>1283</ele>
        <time>2011-02-10T08:53:34Z</time>
      </trkpt>
      <trkpt lat="45.36712" lon="4.55711">
        <ele>1283</ele>
        <time>2011-02-10T08:53:58Z</time>
      </trkpt>
      <trkpt lat="45.36722" lon="4.55716">
        <ele>1284</ele>
        <time>2011-02-10T08:54:16Z</time>
      </trkpt>
      <trkpt lat="45.36731" lon="4.55722">
        <ele>1284</ele>
        <time>2011-02-10T08:54:33Z</time>
      </trkpt>
      <trkpt lat="45.36739" lon="4.5573">
        <ele>1284</ele>
        <time>2011-02-10T08:54:46Z</time>
      </trkpt>
      <trkpt lat="45.36747" lon="4.55738">
        <ele>1285</ele>
        <time>2011-02-10T08:54:54Z</time>
      </trkpt>
      <trkpt lat="45.36756" lon="4.55744">
        <ele>1290</ele>
        <time>2011-02-10T08:55:07Z</time>
      </trkpt>
      <trkpt lat="45.36764" lon="4.5575">
        <ele>1285</ele>
        <time>2011-02-10T08:55:19Z</time>
      </trkpt>
      <trkpt lat="45.36775" lon="4.55752">
        <ele>1285</ele>
        <time>2011-02-10T08:55:28Z</time>
      </trkpt>
      <trkpt lat="45.36782" lon="4.55761">
        <ele>1285</ele>
        <time>2011-02-10T08:55:34Z</time>
      </trkpt>
      <trkpt lat="45.36792" lon="4.55761">
        <ele>1287</ele>
        <time>2011-02-10T08:55:53Z</time>
      </trkpt>
      <trkpt lat="45.36801" lon="4.55766">
        <ele>1288</ele>
        <time>2011-02-10T08:56:03Z</time>
      </trkpt>
      <trkpt lat="45.36811" lon="4.55764">
        <ele>1290</ele>
        <time>2011-02-10T08:56:12Z</time>
      </trkpt>
      <trkpt lat="45.3682" lon="4.55759">
        <ele>1293</ele>
        <time>2011-02-10T08:56:25Z</time>
      </trkpt>
      <trkpt lat="45.3683" lon="4.55758">
        <ele>1297</ele>
        <time>2011-02-10T08:56:40Z</time>
      </trkpt>
      <trkpt lat="45.36838" lon="4.55762">
        <ele>1299</ele>
        <time>2011-02-10T08:56:59Z</time>
      </trkpt>
      <trkpt lat="45.36849" lon="4.55762">
        <ele>1299</ele>
        <time>2011-02-10T08:57:09Z</time>
      </trkpt>
      <trkpt lat="45.36858" lon="4.55762">
        <ele>1299</ele>
        <time>2011-02-10T08:57:17Z</time>
      </trkpt>
      <trkpt lat="45.36868" lon="4.55762">
        <ele>1299</ele>
        <time>2011-02-10T08:57:30Z</time>
      </trkpt>
      <trkpt lat="45.36877" lon="4.55762">
        <ele>1299</ele>
        <time>2011-02-10T08:57:39Z</time>
      </trkpt>
      <trkpt lat="45.36887" lon="4.55764">
        <ele>1300</ele>
        <time>2011-02-10T08:57:49Z</time>
      </trkpt>
      <trkpt lat="45.36896" lon="4.55767">
        <ele>1301</ele>
        <time>2011-02-10T08:57:58Z</time>
      </trkpt>
      <trkpt lat="45.36905" lon="4.55772">
        <ele>1301</ele>
        <time>2011-02-10T08:58:13Z</time>
      </trkpt>
      <trkpt lat="45.36915" lon="4.55765">
        <ele>1304</ele>
        <time>2011-02-10T08:58:24Z</time>
      </trkpt>
      <trkpt lat="45.36923" lon="4.55775">
        <ele>1306</ele>
        <time>2011-02-10T08:58:34Z</time>
      </trkpt>
      <trkpt lat="45.36932" lon="4.55782">
        <ele>1305</ele>
        <time>2011-02-10T08:58:51Z</time>
      </trkpt>
      <trkpt lat="45.3694" lon="4.5579">
        <ele>1305</ele>
        <time>2011-02-10T08:59:07Z</time>
      </trkpt>
      <trkpt lat="45.36949" lon="4.55796">
        <ele>1304</ele>
        <time>2011-02-10T08:59:14Z</time>
      </trkpt>
      <trkpt lat="45.36956" lon="4.55805">
        <ele>1304</ele>
        <time>2011-02-10T08:59:24Z</time>
      </trkpt>
      <trkpt lat="45.36968" lon="4.55811">
        <ele>1305</ele>
        <time>2011-02-10T08:59:37Z</time>
      </trkpt>
      <trkpt lat="45.36975" lon="4.5582">
        <ele>1305</ele>
        <time>2011-02-10T08:59:42Z</time>
      </trkpt>
      <trkpt lat="45.36982" lon="4.55829">
        <ele>1305</ele>
        <time>2011-02-10T08:59:51Z</time>
      </trkpt>
      <trkpt lat="45.3699" lon="4.55837">
        <ele>1302</ele>
        <time>2011-02-10T09:00:03Z</time>
      </trkpt>
      <trkpt lat="45.36999" lon="4.55847">
        <ele>1302</ele>
        <time>2011-02-10T09:00:11Z</time>
      </trkpt>
      <trkpt lat="45.37005" lon="4.55857">
        <ele>1307</ele>
        <time>2011-02-10T09:00:20Z</time>
      </trkpt>
      <trkpt lat="45.37011" lon="4.55868">
        <ele>1307</ele>
        <time>2011-02-10T09:00:27Z</time>
      </trkpt>
      <trkpt lat="45.37018" lon="4.5588">
        <ele>1307</ele>
        <time>2011-02-10T09:00:35Z</time>
      </trkpt>
      <trkpt lat="45.37024" lon="4.55891">
        <ele>1306</ele>
        <time>2011-02-10T09:00:50Z</time>
      </trkpt>
      <trkpt lat="45.37034" lon="4.55898">
        <ele>1307</ele>
        <time>2011-02-10T09:01:01Z</time>
      </trkpt>
      <trkpt lat="45.37043" lon="4.55905">
        <ele>1308</ele>
        <time>2011-02-10T09:01:13Z</time>
      </trkpt>
      <trkpt lat="45.37048" lon="4.55917">
        <ele>1308</ele>
        <time>2011-02-10T09:01:25Z</time>
      </trkpt>
      <trkpt lat="45.37058" lon="4.55917">
        <ele>1309</ele>
        <time>2011-02-10T09:01:34Z</time>
      </trkpt>
      <trkpt lat="45.37069" lon="4.55924">
        <ele>1308</ele>
        <time>2011-02-10T09:01:45Z</time>
      </trkpt>
      <trkpt lat="45.37078" lon="4.55929">
        <ele>1309</ele>
        <time>2011-02-10T09:01:53Z</time>
      </trkpt>
      <trkpt lat="45.37085" lon="4.55937">
        <ele>1312</ele>
        <time>2011-02-10T09:02:07Z</time>
      </trkpt>
      <trkpt lat="45.37094" lon="4.55943">
        <ele>1312</ele>
        <time>2011-02-10T09:02:20Z</time>
      </trkpt>
      <trkpt lat="45.37103" lon="4.55948">
        <ele>1312</ele>
        <time>2011-02-10T09:02:30Z</time>
      </trkpt>
      <trkpt lat="45.37113" lon="4.55953">
        <ele>1311</ele>
        <time>2011-02-10T09:02:37Z</time>
      </trkpt>
      <trkpt lat="45.37125" lon="4.55954">
        <ele>1312</ele>
        <time>2011-02-10T09:02:49Z</time>
      </trkpt>
      <trkpt lat="45.37134" lon="4.55958">
        <ele>1312</ele>
        <time>2011-02-10T09:03:04Z</time>
      </trkpt>
      <trkpt lat="45.37144" lon="4.55962">
        <ele>1312</ele>
        <time>2011-02-10T09:03:22Z</time>
      </trkpt>
      <trkpt lat="45.3715" lon="4.55973">
        <ele>1312</ele>
        <time>2011-02-10T09:03:31Z</time>
      </trkpt>
      <trkpt lat="45.37159" lon="4.5598">
        <ele>1312</ele>
        <time>2011-02-10T09:03:38Z</time>
      </trkpt>
      <trkpt lat="45.37168" lon="4.55984">
        <ele>1310</ele>
        <time>2011-02-10T09:03:52Z</time>
      </trkpt>
      <trkpt lat="45.37177" lon="4.55991">
        <ele>1310</ele>
        <time>2011-02-10T09:04:08Z</time>
      </trkpt>
      <trkpt lat="45.37185" lon="4.55998">
        <ele>1310</ele>
        <time>2011-02-10T09:04:18Z</time>
      </trkpt>
      <trkpt lat="45.37193" lon="4.56008">
        <ele>1308</ele>
        <time>2011-02-10T09:04:39Z</time>
      </trkpt>
      <trkpt lat="45.37201" lon="4.56016">
        <ele>1308</ele>
        <time>2011-02-10T09:04:56Z</time>
      </trkpt>
      <trkpt lat="45.3721" lon="4.56022">
        <ele>1307</ele>
        <time>2011-02-10T09:05:13Z</time>
      </trkpt>
      <trkpt lat="45.3722" lon="4.56031">
        <ele>1306</ele>
        <time>2011-02-10T09:05:26Z</time>
      </trkpt>
      <trkpt lat="45.37227" lon="4.56041">
        <ele>1306</ele>
        <time>2011-02-10T09:05:31Z</time>
      </trkpt>
      <trkpt lat="45.37235" lon="4.56047">
        <ele>1306</ele>
        <time>2011-02-10T09:05:40Z</time>
      </trkpt>
      <trkpt lat="45.37239" lon="4.56059">
        <ele>1306</ele>
        <time>2011-02-10T09:09:15Z</time>
      </trkpt>
      <trkpt lat="45.37246" lon="4.56069">
        <ele>1306</ele>
        <time>2011-02-10T09:09:37Z</time>
      </trkpt>
      <trkpt lat="45.37253" lon="4.5608">
        <ele>1304</ele>
        <time>2011-02-10T09:09:46Z</time>
      </trkpt>
      <trkpt lat="45.37259" lon="4.56091">
        <ele>1303</ele>
        <time>2011-02-10T09:09:55Z</time>
      </trkpt>
      <trkpt lat="45.37265" lon="4.56101">
        <ele>1302</ele>
        <time>2011-02-10T09:10:10Z</time>
      </trkpt>
      <trkpt lat="45.37272" lon="4.56112">
        <ele>1301</ele>
        <time>2011-02-10T09:10:20Z</time>
      </trkpt>
      <trkpt lat="45.37278" lon="4.56123">
        <ele>1300</ele>
        <time>2011-02-10T09:10:36Z</time>
      </trkpt>
      <trkpt lat="45.37284" lon="4.56133">
        <ele>1300</ele>
        <time>2011-02-10T09:10:51Z</time>
      </trkpt>
      <trkpt lat="45.37291" lon="4.56143">
        <ele>1300</ele>
        <time>2011-02-10T09:11:00Z</time>
      </trkpt>
      <trkpt lat="45.37298" lon="4.56152">
        <ele>1300</ele>
        <time>2011-02-10T09:11:08Z</time>
      </trkpt>
      <trkpt lat="45.37305" lon="4.56162">
        <ele>1300</ele>
        <time>2011-02-10T09:11:17Z</time>
      </trkpt>
      <trkpt lat="45.37312" lon="4.56173">
        <ele>1299</ele>
        <time>2011-02-10T09:11:25Z</time>
      </trkpt>
      <trkpt lat="45.37317" lon="4.56185">
        <ele>1299</ele>
        <time>2011-02-10T09:11:36Z</time>
      </trkpt>
      <trkpt lat="45.37322" lon="4.56196">
        <ele>1299</ele>
        <time>2011-02-10T09:11:44Z</time>
      </trkpt>
      <trkpt lat="45.37326" lon="4.56209">
        <ele>1299</ele>
        <time>2011-02-10T09:11:52Z</time>
      </trkpt>
      <trkpt lat="45.37329" lon="4.56223">
        <ele>1299</ele>
        <time>2011-02-10T09:12:06Z</time>
      </trkpt>
      <trkpt lat="45.3733" lon="4.56237">
        <ele>1299</ele>
        <time>2011-02-10T09:12:17Z</time>
      </trkpt>
      <trkpt lat="45.37335" lon="4.56253">
        <ele>1301</ele>
        <time>2011-02-10T09:12:35Z</time>
      </trkpt>
      <trkpt lat="45.37337" lon="4.56265">
        <ele>1303</ele>
        <time>2011-02-10T09:12:42Z</time>
      </trkpt>
      <trkpt lat="45.37343" lon="4.56279">
        <ele>1304</ele>
        <time>2011-02-10T09:12:56Z</time>
      </trkpt>
      <trkpt lat="45.37344" lon="4.56293">
        <ele>1305</ele>
        <time>2011-02-10T09:13:06Z</time>
      </trkpt>
      <trkpt lat="45.37348" lon="4.56306">
        <ele>1305</ele>
        <time>2011-02-10T09:13:22Z</time>
      </trkpt>
      <trkpt lat="45.3735" lon="4.56319">
        <ele>1305</ele>
        <time>2011-02-10T09:13:28Z</time>
      </trkpt>
      <trkpt lat="45.37348" lon="4.56333">
        <ele>1304</ele>
        <time>2011-02-10T09:13:38Z</time>
      </trkpt>
      <trkpt lat="45.37348" lon="4.56348">
        <ele>1305</ele>
        <time>2011-02-10T09:13:46Z</time>
      </trkpt>
      <trkpt lat="45.37346" lon="4.56361">
        <ele>1306</ele>
        <time>2011-02-10T09:13:58Z</time>
      </trkpt>
      <trkpt lat="45.37347" lon="4.56375">
        <ele>1306</ele>
        <time>2011-02-10T09:14:10Z</time>
      </trkpt>
      <trkpt lat="45.37348" lon="4.56389">
        <ele>1306</ele>
        <time>2011-02-10T09:14:31Z</time>
      </trkpt>
      <trkpt lat="45.37341" lon="4.56401">
        <ele>1305</ele>
        <time>2011-02-10T09:14:45Z</time>
      </trkpt>
      <trkpt lat="45.37333" lon="4.56409">
        <ele>1300</ele>
        <time>2011-02-10T09:14:56Z</time>
      </trkpt>
      <trkpt lat="45.37336" lon="4.56421">
        <ele>1304</ele>
        <time>2011-02-10T09:15:08Z</time>
      </trkpt>
      <trkpt lat="45.37336" lon="4.56436">
        <ele>1307</ele>
        <time>2011-02-10T09:15:23Z</time>
      </trkpt>
      <trkpt lat="45.37338" lon="4.56449">
        <ele>1309</ele>
        <time>2011-02-10T09:15:34Z</time>
      </trkpt>
      <trkpt lat="45.37338" lon="4.56464">
        <ele>1310</ele>
        <time>2011-02-10T09:15:43Z</time>
      </trkpt>
      <trkpt lat="45.3733" lon="4.56471">
        <ele>1301</ele>
        <time>2011-02-10T09:15:55Z</time>
      </trkpt>
      <trkpt lat="45.37332" lon="4.56484">
        <ele>1303</ele>
        <time>2011-02-10T09:16:05Z</time>
      </trkpt>
      <trkpt lat="45.37329" lon="4.56498">
        <ele>1305</ele>
        <time>2011-02-10T09:16:16Z</time>
      </trkpt>
      <trkpt lat="45.37332" lon="4.56511">
        <ele>1306</ele>
        <time>2011-02-10T09:16:23Z</time>
      </trkpt>
      <trkpt lat="45.37332" lon="4.56526">
        <ele>1305</ele>
        <time>2011-02-10T09:16:39Z</time>
      </trkpt>
      <trkpt lat="45.37336" lon="4.56539">
        <ele>1315</ele>
        <time>2011-02-10T09:16:49Z</time>
      </trkpt>
      <trkpt lat="45.37337" lon="4.56553">
        <ele>1315</ele>
        <time>2011-02-10T09:16:56Z</time>
      </trkpt>
      <trkpt lat="45.37329" lon="4.56561">
        <ele>1307</ele>
        <time>2011-02-10T09:17:06Z</time>
      </trkpt>
      <trkpt lat="45.37326" lon="4.56574">
        <ele>1309</ele>
        <time>2011-02-10T09:17:13Z</time>
      </trkpt>
      <trkpt lat="45.3732" lon="4.56586">
        <ele>1311</ele>
        <time>2011-02-10T09:17:21Z</time>
      </trkpt>
      <trkpt lat="45.37318" lon="4.56599">
        <ele>1310</ele>
        <time>2011-02-10T09:17:29Z</time>
      </trkpt>
      <trkpt lat="45.37315" lon="4.56614">
        <ele>1309</ele>
        <time>2011-02-10T09:17:40Z</time>
      </trkpt>
      <trkpt lat="45.37312" lon="4.56631">
        <ele>1309</ele>
        <time>2011-02-10T09:17:50Z</time>
      </trkpt>
      <trkpt lat="45.3731" lon="4.56646">
        <ele>1310</ele>
        <time>2011-02-10T09:18:05Z</time>
      </trkpt>
      <trkpt lat="45.37312" lon="4.5666">
        <ele>1311</ele>
        <time>2011-02-10T09:18:11Z</time>
      </trkpt>
      <trkpt lat="45.37316" lon="4.56675">
        <ele>1311</ele>
        <time>2011-02-10T09:18:21Z</time>
      </trkpt>
      <trkpt lat="45.37308" lon="4.56683">
        <ele>1310</ele>
        <time>2011-02-10T09:18:26Z</time>
      </trkpt>
      <trkpt lat="45.37306" lon="4.56698">
        <ele>1309</ele>
        <time>2011-02-10T09:18:35Z</time>
      </trkpt>
      <trkpt lat="45.37305" lon="4.56712">
        <ele>1308</ele>
        <time>2011-02-10T09:18:46Z</time>
      </trkpt>
      <trkpt lat="45.37308" lon="4.56724">
        <ele>1308</ele>
        <time>2011-02-10T09:18:54Z</time>
      </trkpt>
      <trkpt lat="45.37315" lon="4.56737">
        <ele>1309</ele>
        <time>2011-02-10T09:19:06Z</time>
      </trkpt>
      <trkpt lat="45.37322" lon="4.56749">
        <ele>1310</ele>
        <time>2011-02-10T09:19:12Z</time>
      </trkpt>
      <trkpt lat="45.3733" lon="4.56761">
        <ele>1307</ele>
        <time>2011-02-10T09:19:23Z</time>
      </trkpt>
      <trkpt lat="45.37336" lon="4.56772">
        <ele>1311</ele>
        <time>2011-02-10T09:19:31Z</time>
      </trkpt>
      <trkpt lat="45.37342" lon="4.56783">
        <ele>1310</ele>
        <time>2011-02-10T09:19:39Z</time>
      </trkpt>
      <trkpt lat="45.37348" lon="4.56794">
        <ele>1309</ele>
        <time>2011-02-10T09:19:50Z</time>
      </trkpt>
      <trkpt lat="45.37356" lon="4.56803">
        <ele>1309</ele>
        <time>2011-02-10T09:19:58Z</time>
      </trkpt>
      <trkpt lat="45.37363" lon="4.56813">
        <ele>1309</ele>
        <time>2011-02-10T09:20:07Z</time>
      </trkpt>
      <trkpt lat="45.37367" lon="4.56826">
        <ele>1308</ele>
        <time>2011-02-10T09:20:21Z</time>
      </trkpt>
      <trkpt lat="45.37376" lon="4.56827">
        <ele>1310</ele>
        <time>2011-02-10T09:20:41Z</time>
      </trkpt>
      <trkpt lat="45.37384" lon="4.56836">
        <ele>1303</ele>
        <time>2011-02-10T09:21:09Z</time>
      </trkpt>
      <trkpt lat="45.3739" lon="4.56846">
        <ele>1303</ele>
        <time>2011-02-10T09:21:24Z</time>
      </trkpt>
      <trkpt lat="45.37399" lon="4.56853">
        <ele>1304</ele>
        <time>2011-02-10T09:21:32Z</time>
      </trkpt>
      <trkpt lat="45.37408" lon="4.56862">
        <ele>1304</ele>
        <time>2011-02-10T09:21:45Z</time>
      </trkpt>
      <trkpt lat="45.37417" lon="4.56869">
        <ele>1303</ele>
        <time>2011-02-10T09:21:54Z</time>
      </trkpt>
      <trkpt lat="45.37424" lon="4.56877">
        <ele>1313</ele>
        <time>2011-02-10T09:22:02Z</time>
      </trkpt>
      <trkpt lat="45.37432" lon="4.56885">
        <ele>1313</ele>
        <time>2011-02-10T09:22:10Z</time>
      </trkpt>
      <trkpt lat="45.37441" lon="4.56892">
        <ele>1313</ele>
        <time>2011-02-10T09:22:20Z</time>
      </trkpt>
      <trkpt lat="45.3745" lon="4.56901">
        <ele>1313</ele>
        <time>2011-02-10T09:22:39Z</time>
      </trkpt>
      <trkpt lat="45.37454" lon="4.56913">
        <ele>1313</ele>
        <time>2011-02-10T09:22:46Z</time>
      </trkpt>
      <trkpt lat="45.37459" lon="4.56926">
        <ele>1308</ele>
        <time>2011-02-10T09:22:54Z</time>
      </trkpt>
      <trkpt lat="45.37465" lon="4.56937">
        <ele>1309</ele>
        <time>2011-02-10T09:23:00Z</time>
      </trkpt>
      <trkpt lat="45.3747" lon="4.56949">
        <ele>1309</ele>
        <time>2011-02-10T09:23:10Z</time>
      </trkpt>
      <trkpt lat="45.37474" lon="4.56961">
        <ele>1308</ele>
        <time>2011-02-10T09:23:24Z</time>
      </trkpt>
      <trkpt lat="45.3748" lon="4.56975">
        <ele>1308</ele>
        <time>2011-02-10T09:23:32Z</time>
      </trkpt>
      <trkpt lat="45.37485" lon="4.56987">
        <ele>1309</ele>
        <time>2011-02-10T09:23:42Z</time>
      </trkpt>
      <trkpt lat="45.37482" lon="4.57004">
        <ele>1306</ele>
        <time>2011-02-10T09:23:49Z</time>
      </trkpt>
      <trkpt lat="45.37485" lon="4.57018">
        <ele>1306</ele>
        <time>2011-02-10T09:23:59Z</time>
      </trkpt>
      <trkpt lat="45.37489" lon="4.57034">
        <ele>1305</ele>
        <time>2011-02-10T09:24:11Z</time>
      </trkpt>
      <trkpt lat="45.37487" lon="4.57048">
        <ele>1305</ele>
        <time>2011-02-10T09:24:18Z</time>
      </trkpt>
      <trkpt lat="45.37484" lon="4.57062">
        <ele>1305</ele>
        <time>2011-02-10T09:24:32Z</time>
      </trkpt>
      <trkpt lat="45.37484" lon="4.57075">
        <ele>1306</ele>
        <time>2011-02-10T09:24:39Z</time>
      </trkpt>
      <trkpt lat="45.37487" lon="4.5709">
        <ele>1305</ele>
        <time>2011-02-10T09:24:49Z</time>
      </trkpt>
      <trkpt lat="45.37484" lon="4.57102">
        <ele>1304</ele>
        <time>2011-02-10T09:24:57Z</time>
      </trkpt>
      <trkpt lat="45.37487" lon="4.57115">
        <ele>1303</ele>
        <time>2011-02-10T09:25:06Z</time>
      </trkpt>
      <trkpt lat="45.37489" lon="4.57128">
        <ele>1303</ele>
        <time>2011-02-10T09:25:17Z</time>
      </trkpt>
      <trkpt lat="45.37489" lon="4.57142">
        <ele>1303</ele>
        <time>2011-02-10T09:25:30Z</time>
      </trkpt>
      <trkpt lat="45.37493" lon="4.57155">
        <ele>1304</ele>
        <time>2011-02-10T09:25:40Z</time>
      </trkpt>
      <trkpt lat="45.37496" lon="4.5717">
        <ele>1305</ele>
        <time>2011-02-10T09:25:46Z</time>
      </trkpt>
      <trkpt lat="45.37498" lon="4.57183">
        <ele>1302</ele>
        <time>2011-02-10T09:25:54Z</time>
      </trkpt>
      <trkpt lat="45.37494" lon="4.57197">
        <ele>1299</ele>
        <time>2011-02-10T09:26:03Z</time>
      </trkpt>
      <trkpt lat="45.37495" lon="4.5721">
        <ele>1298</ele>
        <time>2011-02-10T09:26:21Z</time>
      </trkpt>
      <trkpt lat="45.37498" lon="4.57225">
        <ele>1298</ele>
        <time>2011-02-10T09:26:29Z</time>
      </trkpt>
      <trkpt lat="45.37499" lon="4.57238">
        <ele>1298</ele>
        <time>2011-02-10T09:26:40Z</time>
      </trkpt>
      <trkpt lat="45.37501" lon="4.57252">
        <ele>1299</ele>
        <time>2011-02-10T09:26:54Z</time>
      </trkpt>
      <trkpt lat="45.37501" lon="4.57266">
        <ele>1299</ele>
        <time>2011-02-10T09:27:07Z</time>
      </trkpt>
      <trkpt lat="45.37506" lon="4.57278">
        <ele>1298</ele>
        <time>2011-02-10T09:27:13Z</time>
      </trkpt>
      <trkpt lat="45.3751" lon="4.5729">
        <ele>1297</ele>
        <time>2011-02-10T09:27:26Z</time>
      </trkpt>
      <trkpt lat="45.37519" lon="4.57297">
        <ele>1297</ele>
        <time>2011-02-10T09:27:33Z</time>
      </trkpt>
      <trkpt lat="45.37527" lon="4.57305">
        <ele>1297</ele>
        <time>2011-02-10T09:27:43Z</time>
      </trkpt>
      <trkpt lat="45.37536" lon="4.57313">
        <ele>1297</ele>
        <time>2011-02-10T09:27:55Z</time>
      </trkpt>
      <trkpt lat="45.37544" lon="4.5732">
        <ele>1298</ele>
        <time>2011-02-10T09:28:06Z</time>
      </trkpt>
      <trkpt lat="45.37551" lon="4.57328">
        <ele>1298</ele>
        <time>2011-02-10T09:28:13Z</time>
      </trkpt>
      <trkpt lat="45.37562" lon="4.57329">
        <ele>1299</ele>
        <time>2011-02-10T09:28:27Z</time>
      </trkpt>
      <trkpt lat="45.3757" lon="4.57337">
        <ele>1294</ele>
        <time>2011-02-10T09:28:36Z</time>
      </trkpt>
      <trkpt lat="45.37577" lon="4.57347">
        <ele>1293</ele>
        <time>2011-02-10T09:28:44Z</time>
      </trkpt>
      <trkpt lat="45.37586" lon="4.57353">
        <ele>1299</ele>
        <time>2011-02-10T09:28:51Z</time>
      </trkpt>
      <trkpt lat="45.37588" lon="4.57366">
        <ele>1298</ele>
        <time>2011-02-10T09:28:58Z</time>
      </trkpt>
      <trkpt lat="45.37599" lon="4.5737">
        <ele>1298</ele>
        <time>2011-02-10T09:29:06Z</time>
      </trkpt>
      <trkpt lat="45.37608" lon="4.57376">
        <ele>1297</ele>
        <time>2011-02-10T09:29:14Z</time>
      </trkpt>
      <trkpt lat="45.37617" lon="4.57379">
        <ele>1298</ele>
        <time>2011-02-10T09:29:23Z</time>
      </trkpt>
      <trkpt lat="45.37626" lon="4.57385">
        <ele>1298</ele>
        <time>2011-02-10T09:29:33Z</time>
      </trkpt>
      <trkpt lat="45.37635" lon="4.57387">
        <ele>1298</ele>
        <time>2011-02-10T09:29:46Z</time>
      </trkpt>
      <trkpt lat="45.37643" lon="4.57395">
        <ele>1298</ele>
        <time>2011-02-10T09:29:56Z</time>
      </trkpt>
      <trkpt lat="45.37651" lon="4.57406">
        <ele>1297</ele>
        <time>2011-02-10T09:30:02Z</time>
      </trkpt>
      <trkpt lat="45.37658" lon="4.57418">
        <ele>1292</ele>
        <time>2011-02-10T09:30:10Z</time>
      </trkpt>
      <trkpt lat="45.37666" lon="4.57424">
        <ele>1293</ele>
        <time>2011-02-10T09:30:23Z</time>
      </trkpt>
      <trkpt lat="45.37676" lon="4.57429">
        <ele>1296</ele>
        <time>2011-02-10T09:30:32Z</time>
      </trkpt>
      <trkpt lat="45.37681" lon="4.57442">
        <ele>1296</ele>
        <time>2011-02-10T09:30:38Z</time>
      </trkpt>
      <trkpt lat="45.37688" lon="4.57452">
        <ele>1296</ele>
        <time>2011-02-10T09:30:47Z</time>
      </trkpt>
      <trkpt lat="45.37695" lon="4.57464">
        <ele>1295</ele>
        <time>2011-02-10T09:30:56Z</time>
      </trkpt>
      <trkpt lat="45.37703" lon="4.57472">
        <ele>1296</ele>
        <time>2011-02-10T09:31:02Z</time>
      </trkpt>
      <trkpt lat="45.37712" lon="4.57478">
        <ele>1296</ele>
        <time>2011-02-10T09:31:11Z</time>
      </trkpt>
      <trkpt lat="45.37723" lon="4.57478">
        <ele>1297</ele>
        <time>2011-02-10T09:31:15Z</time>
      </trkpt>
      <trkpt lat="45.37732" lon="4.57482">
        <ele>1297</ele>
        <time>2011-02-10T09:31:24Z</time>
      </trkpt>
      <trkpt lat="45.3774" lon="4.5749">
        <ele>1298</ele>
        <time>2011-02-10T09:31:34Z</time>
      </trkpt>
      <trkpt lat="45.37747" lon="4.57499">
        <ele>1298</ele>
        <time>2011-02-10T09:31:47Z</time>
      </trkpt>
      <trkpt lat="45.37755" lon="4.57506">
        <ele>1300</ele>
        <time>2011-02-10T09:31:54Z</time>
      </trkpt>
      <trkpt lat="45.37763" lon="4.57514">
        <ele>1302</ele>
        <time>2011-02-10T09:32:01Z</time>
      </trkpt>
      <trkpt lat="45.37769" lon="4.57529">
        <ele>1303</ele>
        <time>2011-02-10T09:32:14Z</time>
      </trkpt>
      <trkpt lat="45.37767" lon="4.57543">
        <ele>1303</ele>
        <time>2011-02-10T09:32:24Z</time>
      </trkpt>
      <trkpt lat="45.37764" lon="4.57556">
        <ele>1302</ele>
        <time>2011-02-10T09:32:32Z</time>
      </trkpt>
      <trkpt lat="45.37756" lon="4.57548">
        <ele>1302</ele>
        <time>2011-02-10T09:33:05Z</time>
      </trkpt>
      <trkpt lat="45.3775" lon="4.57536">
        <ele>1302</ele>
        <time>2011-02-10T09:44:24Z</time>
      </trkpt>
      <trkpt lat="45.37755" lon="4.57548">
        <ele>1302</ele>
        <time>2011-02-10T09:45:12Z</time>
      </trkpt>
      <trkpt lat="45.37746" lon="4.57549">
        <ele>1291</ele>
        <time>2011-02-10T09:48:53Z</time>
      </trkpt>
      <trkpt lat="45.37736" lon="4.57554">
        <ele>1290</ele>
        <time>2011-02-10T09:49:02Z</time>
      </trkpt>
      <trkpt lat="45.37727" lon="4.57562">
        <ele>1290</ele>
        <time>2011-02-10T09:49:22Z</time>
      </trkpt>
      <trkpt lat="45.3772" lon="4.57571">
        <ele>1289</ele>
        <time>2011-02-10T09:49:32Z</time>
      </trkpt>
      <trkpt lat="45.37712" lon="4.57578">
        <ele>1288</ele>
        <time>2011-02-10T09:49:37Z</time>
      </trkpt>
      <trkpt lat="45.37705" lon="4.57588">
        <ele>1289</ele>
        <time>2011-02-10T09:49:43Z</time>
      </trkpt>
      <trkpt lat="45.37699" lon="4.57599">
        <ele>1289</ele>
        <time>2011-02-10T09:49:52Z</time>
      </trkpt>
      <trkpt lat="45.37691" lon="4.57609">
        <ele>1289</ele>
        <time>2011-02-10T09:50:03Z</time>
      </trkpt>
      <trkpt lat="45.37683" lon="4.5762">
        <ele>1290</ele>
        <time>2011-02-10T09:50:11Z</time>
      </trkpt>
      <trkpt lat="45.37677" lon="4.5763">
        <ele>1290</ele>
        <time>2011-02-10T09:50:24Z</time>
      </trkpt>
      <trkpt lat="45.37668" lon="4.5764">
        <ele>1291</ele>
        <time>2011-02-10T09:50:34Z</time>
      </trkpt>
      <trkpt lat="45.3766" lon="4.57649">
        <ele>1283</ele>
        <time>2011-02-10T09:50:41Z</time>
      </trkpt>
      <trkpt lat="45.37658" lon="4.57662">
        <ele>1286</ele>
        <time>2011-02-10T09:50:50Z</time>
      </trkpt>
      <trkpt lat="45.37654" lon="4.57679">
        <ele>1289</ele>
        <time>2011-02-10T09:51:00Z</time>
      </trkpt>
      <trkpt lat="45.37648" lon="4.57691">
        <ele>1289</ele>
        <time>2011-02-10T09:51:08Z</time>
      </trkpt>
      <trkpt lat="45.37641" lon="4.57702">
        <ele>1289</ele>
        <time>2011-02-10T09:51:18Z</time>
      </trkpt>
      <trkpt lat="45.37635" lon="4.57712">
        <ele>1289</ele>
        <time>2011-02-10T09:51:25Z</time>
      </trkpt>
      <trkpt lat="45.37627" lon="4.57728">
        <ele>1290</ele>
        <time>2011-02-10T09:51:32Z</time>
      </trkpt>
      <trkpt lat="45.37631" lon="4.57741">
        <ele>1291</ele>
        <time>2011-02-10T09:51:34Z</time>
      </trkpt>
      <trkpt lat="45.37638" lon="4.57749">
        <ele>1293</ele>
        <time>2011-02-10T09:51:48Z</time>
      </trkpt>
      <trkpt lat="45.37628" lon="4.57755">
        <ele>1298</ele>
        <time>2011-02-10T09:52:01Z</time>
      </trkpt>
      <trkpt lat="45.37619" lon="4.57763">
        <ele>1297</ele>
        <time>2011-02-10T09:52:11Z</time>
      </trkpt>
      <trkpt lat="45.3761" lon="4.57773">
        <ele>1297</ele>
        <time>2011-02-10T09:52:13Z</time>
      </trkpt>
      <trkpt lat="45.37605" lon="4.57783">
        <ele>1297</ele>
        <time>2011-02-10T09:52:26Z</time>
      </trkpt>
      <trkpt lat="45.37598" lon="4.57792">
        <ele>1297</ele>
        <time>2011-02-10T09:52:40Z</time>
      </trkpt>
      <trkpt lat="45.37594" lon="4.57805">
        <ele>1298</ele>
        <time>2011-02-10T09:52:47Z</time>
      </trkpt>
      <trkpt lat="45.37586" lon="4.57813">
        <ele>1298</ele>
        <time>2011-02-10T09:52:56Z</time>
      </trkpt>
      <trkpt lat="45.37579" lon="4.57823">
        <ele>1293</ele>
        <time>2011-02-10T09:53:03Z</time>
      </trkpt>
      <trkpt lat="45.37575" lon="4.57836">
        <ele>1296</ele>
        <time>2011-02-10T09:53:10Z</time>
      </trkpt>
      <trkpt lat="45.37569" lon="4.57848">
        <ele>1295</ele>
        <time>2011-02-10T09:53:20Z</time>
      </trkpt>
      <trkpt lat="45.37558" lon="4.57852">
        <ele>1295</ele>
        <time>2011-02-10T09:53:25Z</time>
      </trkpt>
      <trkpt lat="45.3755" lon="4.57861">
        <ele>1294</ele>
        <time>2011-02-10T09:53:34Z</time>
      </trkpt>
      <trkpt lat="45.37543" lon="4.5787">
        <ele>1294</ele>
        <time>2011-02-10T09:53:43Z</time>
      </trkpt>
      <trkpt lat="45.37536" lon="4.57881">
        <ele>1294</ele>
        <time>2011-02-10T09:53:52Z</time>
      </trkpt>
      <trkpt lat="45.37524" lon="4.57888">
        <ele>1293</ele>
        <time>2011-02-10T09:54:00Z</time>
      </trkpt>
      <trkpt lat="45.37521" lon="4.57901">
        <ele>1293</ele>
        <time>2011-02-10T09:54:07Z</time>
      </trkpt>
      <trkpt lat="45.3751" lon="4.57914">
        <ele>1291</ele>
        <time>2011-02-10T09:54:24Z</time>
      </trkpt>
      <trkpt lat="45.375" lon="4.57926">
        <ele>1292</ele>
        <time>2011-02-10T09:54:32Z</time>
      </trkpt>
      <trkpt lat="45.37492" lon="4.57932">
        <ele>1288</ele>
        <time>2011-02-10T09:54:47Z</time>
      </trkpt>
      <trkpt lat="45.37491" lon="4.57946">
        <ele>1288</ele>
        <time>2011-02-10T09:55:09Z</time>
      </trkpt>
      <trkpt lat="45.37493" lon="4.57959">
        <ele>1288</ele>
        <time>2011-02-10T09:55:18Z</time>
      </trkpt>
      <trkpt lat="45.37496" lon="4.57972">
        <ele>1289</ele>
        <time>2011-02-10T09:55:32Z</time>
      </trkpt>
      <trkpt lat="45.37501" lon="4.57986">
        <ele>1295</ele>
        <time>2011-02-10T09:55:46Z</time>
      </trkpt>
      <trkpt lat="45.37503" lon="4.58001">
        <ele>1294</ele>
        <time>2011-02-10T09:55:57Z</time>
      </trkpt>
      <trkpt lat="45.37503" lon="4.58014">
        <ele>1296</ele>
        <time>2011-02-10T09:56:09Z</time>
      </trkpt>
      <trkpt lat="45.37508" lon="4.58029">
        <ele>1298</ele>
        <time>2011-02-10T09:56:17Z</time>
      </trkpt>
      <trkpt lat="45.37513" lon="4.58041">
        <ele>1299</ele>
        <time>2011-02-10T09:56:27Z</time>
      </trkpt>
      <trkpt lat="45.37518" lon="4.58054">
        <ele>1299</ele>
        <time>2011-02-10T09:56:39Z</time>
      </trkpt>
      <trkpt lat="45.3752" lon="4.58067">
        <ele>1299</ele>
        <time>2011-02-10T09:56:51Z</time>
      </trkpt>
      <trkpt lat="45.37525" lon="4.58079">
        <ele>1299</ele>
        <time>2011-02-10T09:57:02Z</time>
      </trkpt>
      <trkpt lat="45.37531" lon="4.5809">
        <ele>1299</ele>
        <time>2011-02-10T09:57:12Z</time>
      </trkpt>
      <trkpt lat="45.37534" lon="4.58103">
        <ele>1300</ele>
        <time>2011-02-10T09:57:26Z</time>
      </trkpt>
      <trkpt lat="45.37538" lon="4.58117">
        <ele>1300</ele>
        <time>2011-02-10T09:57:38Z</time>
      </trkpt>
      <trkpt lat="45.37543" lon="4.58128">
        <ele>1301</ele>
        <time>2011-02-10T09:57:44Z</time>
      </trkpt>
      <trkpt lat="45.37548" lon="4.5814">
        <ele>1301</ele>
        <time>2011-02-10T09:58:00Z</time>
      </trkpt>
      <trkpt lat="45.37551" lon="4.58153">
        <ele>1302</ele>
        <time>2011-02-10T09:58:16Z</time>
      </trkpt>
      <trkpt lat="45.37553" lon="4.58168">
        <ele>1301</ele>
        <time>2011-02-10T09:58:26Z</time>
      </trkpt>
      <trkpt lat="45.3756" lon="4.58177">
        <ele>1302</ele>
        <time>2011-02-10T09:58:31Z</time>
      </trkpt>
      <trkpt lat="45.37566" lon="4.58187">
        <ele>1303</ele>
        <time>2011-02-10T09:58:44Z</time>
      </trkpt>
      <trkpt lat="45.3757" lon="4.58198">
        <ele>1302</ele>
        <time>2011-02-10T09:58:57Z</time>
      </trkpt>
      <trkpt lat="45.37572" lon="4.58212">
        <ele>1302</ele>
        <time>2011-02-10T09:59:07Z</time>
      </trkpt>
      <trkpt lat="45.37574" lon="4.58225">
        <ele>1303</ele>
        <time>2011-02-10T09:59:16Z</time>
      </trkpt>
      <trkpt lat="45.37581" lon="4.58238">
        <ele>1305</ele>
        <time>2011-02-10T09:59:24Z</time>
      </trkpt>
      <trkpt lat="45.37589" lon="4.58249">
        <ele>1311</ele>
        <time>2011-02-10T09:59:33Z</time>
      </trkpt>
      <trkpt lat="45.37596" lon="4.58259">
        <ele>1314</ele>
        <time>2011-02-10T09:59:47Z</time>
      </trkpt>
      <trkpt lat="45.37598" lon="4.58274">
        <ele>1316</ele>
        <time>2011-02-10T09:59:54Z</time>
      </trkpt>
      <trkpt lat="45.37596" lon="4.58286">
        <ele>1316</ele>
        <time>2011-02-10T10:00:02Z</time>
      </trkpt>
      <trkpt lat="45.37599" lon="4.58299">
        <ele>1316</ele>
        <time>2011-02-10T10:00:13Z</time>
      </trkpt>
      <trkpt lat="45.37597" lon="4.58313">
        <ele>1315</ele>
        <time>2011-02-10T10:00:20Z</time>
      </trkpt>
      <trkpt lat="45.37596" lon="4.58327">
        <ele>1314</ele>
        <time>2011-02-10T10:00:37Z</time>
      </trkpt>
      <trkpt lat="45.37594" lon="4.5834">
        <ele>1313</ele>
        <time>2011-02-10T10:00:42Z</time>
      </trkpt>
      <trkpt lat="45.37593" lon="4.58354">
        <ele>1314</ele>
        <time>2011-02-10T10:00:50Z</time>
      </trkpt>
      <trkpt lat="45.37599" lon="4.58365">
        <ele>1316</ele>
        <time>2011-02-10T10:01:00Z</time>
      </trkpt>
      <trkpt lat="45.37605" lon="4.58375">
        <ele>1317</ele>
        <time>2011-02-10T10:01:16Z</time>
      </trkpt>
      <trkpt lat="45.3761" lon="4.58387">
        <ele>1317</ele>
        <time>2011-02-10T10:01:37Z</time>
      </trkpt>
      <trkpt lat="45.37619" lon="4.5839">
        <ele>1318</ele>
        <time>2011-02-10T10:01:45Z</time>
      </trkpt>
      <trkpt lat="45.37629" lon="4.58393">
        <ele>1319</ele>
        <time>2011-02-10T10:01:54Z</time>
      </trkpt>
      <trkpt lat="45.37638" lon="4.58394">
        <ele>1320</ele>
        <time>2011-02-10T10:02:07Z</time>
      </trkpt>
      <trkpt lat="45.37648" lon="4.58398">
        <ele>1321</ele>
        <time>2011-02-10T10:02:22Z</time>
      </trkpt>
      <trkpt lat="45.37658" lon="4.58401">
        <ele>1322</ele>
        <time>2011-02-10T10:02:31Z</time>
      </trkpt>
      <trkpt lat="45.37664" lon="4.58412">
        <ele>1324</ele>
        <time>2011-02-10T10:02:43Z</time>
      </trkpt>
      <trkpt lat="45.37674" lon="4.58413">
        <ele>1328</ele>
        <time>2011-02-10T10:02:53Z</time>
      </trkpt>
      <trkpt lat="45.37684" lon="4.58409">
        <ele>1331</ele>
        <time>2011-02-10T10:03:09Z</time>
      </trkpt>
      <trkpt lat="45.37693" lon="4.58406">
        <ele>1333</ele>
        <time>2011-02-10T10:03:18Z</time>
      </trkpt>
      <trkpt lat="45.37701" lon="4.58409">
        <ele>1335</ele>
        <time>2011-02-10T10:03:28Z</time>
      </trkpt>
      <trkpt lat="45.37712" lon="4.58412">
        <ele>1336</ele>
        <time>2011-02-10T10:03:42Z</time>
      </trkpt>
      <trkpt lat="45.37722" lon="4.58408">
        <ele>1338</ele>
        <time>2011-02-10T10:03:59Z</time>
      </trkpt>
      <trkpt lat="45.37732" lon="4.5841">
        <ele>1339</ele>
        <time>2011-02-10T10:04:09Z</time>
      </trkpt>
      <trkpt lat="45.37739" lon="4.58418">
        <ele>1337</ele>
        <time>2011-02-10T10:04:22Z</time>
      </trkpt>
      <trkpt lat="45.37749" lon="4.58423">
        <ele>1339</ele>
        <time>2011-02-10T10:04:32Z</time>
      </trkpt>
      <trkpt lat="45.37758" lon="4.58422">
        <ele>1343</ele>
        <time>2011-02-10T10:04:54Z</time>
      </trkpt>
      <trkpt lat="45.37769" lon="4.58418">
        <ele>1343</ele>
        <time>2011-02-10T10:05:03Z</time>
      </trkpt>
      <trkpt lat="45.37778" lon="4.58415">
        <ele>1351</ele>
        <time>2011-02-10T10:05:24Z</time>
      </trkpt>
      <trkpt lat="45.37787" lon="4.58419">
        <ele>1344</ele>
        <time>2011-02-10T10:05:38Z</time>
      </trkpt>
      <trkpt lat="45.37796" lon="4.58416">
        <ele>1353</ele>
        <time>2011-02-10T10:05:48Z</time>
      </trkpt>
      <trkpt lat="45.37806" lon="4.58418">
        <ele>1347</ele>
        <time>2011-02-10T10:06:07Z</time>
      </trkpt>
      <trkpt lat="45.37812" lon="4.58408">
        <ele>1355</ele>
        <time>2011-02-10T10:06:21Z</time>
      </trkpt>
      <trkpt lat="45.37821" lon="4.58411">
        <ele>1356</ele>
        <time>2011-02-10T10:06:34Z</time>
      </trkpt>
      <trkpt lat="45.37831" lon="4.58415">
        <ele>1357</ele>
        <time>2011-02-10T10:06:42Z</time>
      </trkpt>
      <trkpt lat="45.37841" lon="4.58413">
        <ele>1360</ele>
        <time>2011-02-10T10:07:02Z</time>
      </trkpt>
      <trkpt lat="45.3785" lon="4.58419">
        <ele>1357</ele>
        <time>2011-02-10T10:07:14Z</time>
      </trkpt>
      <trkpt lat="45.37858" lon="4.58423">
        <ele>1357</ele>
        <time>2011-02-10T10:07:26Z</time>
      </trkpt>
      <trkpt lat="45.37869" lon="4.58423">
        <ele>1358</ele>
        <time>2011-02-10T10:07:45Z</time>
      </trkpt>
      <trkpt lat="45.37881" lon="4.58426">
        <ele>1360</ele>
        <time>2011-02-10T10:08:01Z</time>
      </trkpt>
      <trkpt lat="45.3789" lon="4.58427">
        <ele>1361</ele>
        <time>2011-02-10T10:08:08Z</time>
      </trkpt>
      <trkpt lat="45.379" lon="4.58425">
        <ele>1363</ele>
        <time>2011-02-10T10:08:24Z</time>
      </trkpt>
      <trkpt lat="45.3791" lon="4.58423">
        <ele>1366</ele>
        <time>2011-02-10T10:08:33Z</time>
      </trkpt>
      <trkpt lat="45.37918" lon="4.5843">
        <ele>1370</ele>
        <time>2011-02-10T10:08:55Z</time>
      </trkpt>
      <trkpt lat="45.37928" lon="4.58431">
        <ele>1370</ele>
        <time>2011-02-10T10:09:11Z</time>
      </trkpt>
      <trkpt lat="45.37938" lon="4.58433">
        <ele>1370</ele>
        <time>2011-02-10T10:09:23Z</time>
      </trkpt>
      <trkpt lat="45.37946" lon="4.58429">
        <ele>1371</ele>
        <time>2011-02-10T10:09:30Z</time>
      </trkpt>
      <trkpt lat="45.37953" lon="4.58419">
        <ele>1372</ele>
        <time>2011-02-10T10:09:42Z</time>
      </trkpt>
      <trkpt lat="45.37963" lon="4.58423">
        <ele>1373</ele>
        <time>2011-02-10T10:09:58Z</time>
      </trkpt>
      <trkpt lat="45.37972" lon="4.58425">
        <ele>1374</ele>
        <time>2011-02-10T10:10:10Z</time>
      </trkpt>
      <trkpt lat="45.37981" lon="4.58418">
        <ele>1375</ele>
        <time>2011-02-10T10:10:18Z</time>
      </trkpt>
      <trkpt lat="45.37991" lon="4.58416">
        <ele>1381</ele>
        <time>2011-02-10T10:10:31Z</time>
      </trkpt>
      <trkpt lat="45.38002" lon="4.58419">
        <ele>1381</ele>
        <time>2011-02-10T10:10:47Z</time>
      </trkpt>
      <trkpt lat="45.38011" lon="4.58421">
        <ele>1381</ele>
        <time>2011-02-10T10:10:53Z</time>
      </trkpt>
      <trkpt lat="45.3802" lon="4.58427">
        <ele>1381</ele>
        <time>2011-02-10T10:11:08Z</time>
      </trkpt>
      <trkpt lat="45.38029" lon="4.58432">
        <ele>1381</ele>
        <time>2011-02-10T10:11:22Z</time>
      </trkpt>
      <trkpt lat="45.38038" lon="4.58434">
        <ele>1381</ele>
        <time>2011-02-10T10:11:31Z</time>
      </trkpt>
      <trkpt lat="45.38048" lon="4.58434">
        <ele>1382</ele>
        <time>2011-02-10T10:11:44Z</time>
      </trkpt>
      <trkpt lat="45.38058" lon="4.58438">
        <ele>1382</ele>
        <time>2011-02-10T10:11:56Z</time>
      </trkpt>
      <trkpt lat="45.38067" lon="4.58435">
        <ele>1383</ele>
        <time>2011-02-10T10:12:10Z</time>
      </trkpt>
      <trkpt lat="45.38077" lon="4.5844">
        <ele>1383</ele>
        <time>2011-02-10T10:12:22Z</time>
      </trkpt>
      <trkpt lat="45.38085" lon="4.58433">
        <ele>1387</ele>
        <time>2011-02-10T10:12:34Z</time>
      </trkpt>
      <trkpt lat="45.38095" lon="4.58435">
        <ele>1387</ele>
        <time>2011-02-10T10:12:46Z</time>
      </trkpt>
      <trkpt lat="45.38104" lon="4.58439">
        <ele>1386</ele>
        <time>2011-02-10T10:12:58Z</time>
      </trkpt>
      <trkpt lat="45.38114" lon="4.58439">
        <ele>1386</ele>
        <time>2011-02-10T10:14:40Z</time>
      </trkpt>
      <trkpt lat="45.38123" lon="4.58441">
        <ele>1386</ele>
        <time>2011-02-10T10:14:59Z</time>
      </trkpt>
      <trkpt lat="45.38132" lon="4.58444">
        <ele>1386</ele>
        <time>2011-02-10T10:15:12Z</time>
      </trkpt>
      <trkpt lat="45.3814" lon="4.58453">
        <ele>1386</ele>
        <time>2011-02-10T10:15:34Z</time>
      </trkpt>
      <trkpt lat="45.38147" lon="4.58464">
        <ele>1385</ele>
        <time>2011-02-10T10:16:06Z</time>
      </trkpt>
      <trkpt lat="45.38157" lon="4.58465">
        <ele>1385</ele>
        <time>2011-02-10T10:16:19Z</time>
      </trkpt>
      <trkpt lat="45.38166" lon="4.58462">
        <ele>1386</ele>
        <time>2011-02-10T10:16:46Z</time>
      </trkpt>
      <trkpt lat="45.38176" lon="4.58464">
        <ele>1386</ele>
        <time>2011-02-10T10:18:01Z</time>
      </trkpt>
      <trkpt lat="45.38185" lon="4.58462">
        <ele>1386</ele>
        <time>2011-02-10T10:18:32Z</time>
      </trkpt>
      <trkpt lat="45.38194" lon="4.58467">
        <ele>1386</ele>
        <time>2011-02-10T10:18:49Z</time>
      </trkpt>
      <trkpt lat="45.38204" lon="4.58465">
        <ele>1386</ele>
        <time>2011-02-10T10:19:03Z</time>
      </trkpt>
      <trkpt lat="45.38212" lon="4.58472">
        <ele>1386</ele>
        <time>2011-02-10T10:19:16Z</time>
      </trkpt>
      <trkpt lat="45.38221" lon="4.58471">
        <ele>1386</ele>
        <time>2011-02-10T10:19:47Z</time>
      </trkpt>
      <trkpt lat="45.38232" lon="4.58472">
        <ele>1386</ele>
        <time>2011-02-10T10:19:54Z</time>
      </trkpt>
      <trkpt lat="45.3824" lon="4.58486">
        <ele>1385</ele>
        <time>2011-02-10T10:20:11Z</time>
      </trkpt>
      <trkpt lat="45.38249" lon="4.58481">
        <ele>1385</ele>
        <time>2011-02-10T10:20:31Z</time>
      </trkpt>
      <trkpt lat="45.3826" lon="4.5848">
        <ele>1384</ele>
        <time>2011-02-10T10:20:45Z</time>
      </trkpt>
      <trkpt lat="45.38266" lon="4.5849">
        <ele>1384</ele>
        <time>2011-02-10T10:21:01Z</time>
      </trkpt>
      <trkpt lat="45.38269" lon="4.58503">
        <ele>1380</ele>
        <time>2011-02-10T10:21:16Z</time>
      </trkpt>
      <trkpt lat="45.38273" lon="4.5849">
        <ele>1383</ele>
        <time>2011-02-10T10:21:28Z</time>
      </trkpt>
      <trkpt lat="45.38282" lon="4.58487">
        <ele>1383</ele>
        <time>2011-02-10T10:21:41Z</time>
      </trkpt>
      <trkpt lat="45.38291" lon="4.58482">
        <ele>1383</ele>
        <time>2011-02-10T10:21:49Z</time>
      </trkpt>
      <trkpt lat="45.38301" lon="4.5848">
        <ele>1383</ele>
        <time>2011-02-10T10:21:59Z</time>
      </trkpt>
      <trkpt lat="45.38311" lon="4.58484">
        <ele>1383</ele>
        <time>2011-02-10T10:22:08Z</time>
      </trkpt>
      <trkpt lat="45.38321" lon="4.58485">
        <ele>1382</ele>
        <time>2011-02-10T10:22:19Z</time>
      </trkpt>
      <trkpt lat="45.38331" lon="4.58491">
        <ele>1381</ele>
        <time>2011-02-10T10:22:29Z</time>
      </trkpt>
      <trkpt lat="45.38341" lon="4.5849">
        <ele>1379</ele>
        <time>2011-02-10T10:22:45Z</time>
      </trkpt>
      <trkpt lat="45.38355" lon="4.58494">
        <ele>1378</ele>
        <time>2011-02-10T10:23:04Z</time>
      </trkpt>
      <trkpt lat="45.38364" lon="4.58496">
        <ele>1377</ele>
        <time>2011-02-10T10:23:19Z</time>
      </trkpt>
      <trkpt lat="45.38371" lon="4.58486">
        <ele>1377</ele>
        <time>2011-02-10T10:23:33Z</time>
      </trkpt>
      <trkpt lat="45.3838" lon="4.58479">
        <ele>1377</ele>
        <time>2011-02-10T10:23:51Z</time>
      </trkpt>
      <trkpt lat="45.38383" lon="4.58466">
        <ele>1377</ele>
        <time>2011-02-10T10:24:12Z</time>
      </trkpt>
      <trkpt lat="45.38381" lon="4.58453">
        <ele>1377</ele>
        <time>2011-02-10T10:24:23Z</time>
      </trkpt>
      <trkpt lat="45.38378" lon="4.5844">
        <ele>1378</ele>
        <time>2011-02-10T10:24:32Z</time>
      </trkpt>
      <trkpt lat="45.38375" lon="4.58426">
        <ele>1378</ele>
        <time>2011-02-10T10:24:45Z</time>
      </trkpt>
      <trkpt lat="45.38373" lon="4.58411">
        <ele>1383</ele>
        <time>2011-02-10T10:25:03Z</time>
      </trkpt>
      <trkpt lat="45.38373" lon="4.58398">
        <ele>1383</ele>
        <time>2011-02-10T10:25:15Z</time>
      </trkpt>
      <trkpt lat="45.38368" lon="4.58386">
        <ele>1384</ele>
        <time>2011-02-10T10:25:35Z</time>
      </trkpt>
      <trkpt lat="45.38367" lon="4.58373">
        <ele>1384</ele>
        <time>2011-02-10T10:25:47Z</time>
      </trkpt>
      <trkpt lat="45.3837" lon="4.58359">
        <ele>1385</ele>
        <time>2011-02-10T10:25:56Z</time>
      </trkpt>
      <trkpt lat="45.38367" lon="4.58346">
        <ele>1386</ele>
        <time>2011-02-10T10:26:20Z</time>
      </trkpt>
      <trkpt lat="45.38369" lon="4.58329">
        <ele>1391</ele>
        <time>2011-02-10T10:26:27Z</time>
      </trkpt>
      <trkpt lat="45.38372" lon="4.58314">
        <ele>1391</ele>
        <time>2011-02-10T10:26:51Z</time>
      </trkpt>
      <trkpt lat="45.38378" lon="4.58304">
        <ele>1391</ele>
        <time>2011-02-10T10:27:03Z</time>
      </trkpt>
      <trkpt lat="45.38386" lon="4.58296">
        <ele>1392</ele>
        <time>2011-02-10T10:27:19Z</time>
      </trkpt>
      <trkpt lat="45.3839" lon="4.58284">
        <ele>1392</ele>
        <time>2011-02-10T10:27:26Z</time>
      </trkpt>
      <trkpt lat="45.38398" lon="4.5827">
        <ele>1392</ele>
        <time>2011-02-10T10:27:43Z</time>
      </trkpt>
      <trkpt lat="45.384" lon="4.58257">
        <ele>1393</ele>
        <time>2011-02-10T10:27:56Z</time>
      </trkpt>
      <trkpt lat="45.38407" lon="4.58247">
        <ele>1395</ele>
        <time>2011-02-10T10:28:14Z</time>
      </trkpt>
      <trkpt lat="45.38414" lon="4.58238">
        <ele>1395</ele>
        <time>2011-02-10T10:28:21Z</time>
      </trkpt>
      <trkpt lat="45.38424" lon="4.58228">
        <ele>1392</ele>
        <time>2011-02-10T10:28:33Z</time>
      </trkpt>
      <trkpt lat="45.3843" lon="4.58217">
        <ele>1392</ele>
        <time>2011-02-10T10:28:44Z</time>
      </trkpt>
      <trkpt lat="45.38435" lon="4.58206">
        <ele>1392</ele>
        <time>2011-02-10T10:28:57Z</time>
      </trkpt>
      <trkpt lat="45.38443" lon="4.58196">
        <ele>1393</ele>
        <time>2011-02-10T10:29:05Z</time>
      </trkpt>
      <trkpt lat="45.38448" lon="4.58183">
        <ele>1393</ele>
        <time>2011-02-10T10:29:15Z</time>
      </trkpt>
      <trkpt lat="45.38455" lon="4.58172">
        <ele>1393</ele>
        <time>2011-02-10T10:29:26Z</time>
      </trkpt>
      <trkpt lat="45.38461" lon="4.58162">
        <ele>1395</ele>
        <time>2011-02-10T10:29:37Z</time>
      </trkpt>
      <trkpt lat="45.38467" lon="4.58152">
        <ele>1395</ele>
        <time>2011-02-10T10:29:45Z</time>
      </trkpt>
      <trkpt lat="45.38471" lon="4.5814">
        <ele>1395</ele>
        <time>2011-02-10T10:29:53Z</time>
      </trkpt>
      <trkpt lat="45.38475" lon="4.58126">
        <ele>1396</ele>
        <time>2011-02-10T10:30:06Z</time>
      </trkpt>
      <trkpt lat="45.3848" lon="4.58115">
        <ele>1396</ele>
        <time>2011-02-10T10:30:15Z</time>
      </trkpt>
      <trkpt lat="45.38483" lon="4.58101">
        <ele>1396</ele>
        <time>2011-02-10T10:30:28Z</time>
      </trkpt>
      <trkpt lat="45.38486" lon="4.58089">
        <ele>1396</ele>
        <time>2011-02-10T10:30:37Z</time>
      </trkpt>
      <trkpt lat="45.38486" lon="4.58074">
        <ele>1397</ele>
        <time>2011-02-10T10:30:45Z</time>
      </trkpt>
      <trkpt lat="45.38489" lon="4.58062">
        <ele>1397</ele>
        <time>2011-02-10T10:30:51Z</time>
      </trkpt>
      <trkpt lat="45.38491" lon="4.58048">
        <ele>1398</ele>
        <time>2011-02-10T10:31:01Z</time>
      </trkpt>
      <trkpt lat="45.38491" lon="4.58034">
        <ele>1398</ele>
        <time>2011-02-10T10:31:11Z</time>
      </trkpt>
      <trkpt lat="45.38489" lon="4.5802">
        <ele>1397</ele>
        <time>2011-02-10T10:31:21Z</time>
      </trkpt>
      <trkpt lat="45.38488" lon="4.58007">
        <ele>1397</ele>
        <time>2011-02-10T10:31:31Z</time>
      </trkpt>
      <trkpt lat="45.38485" lon="4.57993">
        <ele>1397</ele>
        <time>2011-02-10T10:31:43Z</time>
      </trkpt>
      <trkpt lat="45.38486" lon="4.57978">
        <ele>1397</ele>
        <time>2011-02-10T10:31:55Z</time>
      </trkpt>
      <trkpt lat="45.38485" lon="4.57964">
        <ele>1397</ele>
        <time>2011-02-10T10:32:05Z</time>
      </trkpt>
      <trkpt lat="45.38483" lon="4.57949">
        <ele>1397</ele>
        <time>2011-02-10T10:32:15Z</time>
      </trkpt>
      <trkpt lat="45.38483" lon="4.57935">
        <ele>1396</ele>
        <time>2011-02-10T10:32:20Z</time>
      </trkpt>
      <trkpt lat="45.38481" lon="4.57921">
        <ele>1396</ele>
        <time>2011-02-10T10:32:30Z</time>
      </trkpt>
      <trkpt lat="45.3848" lon="4.57907">
        <ele>1395</ele>
        <time>2011-02-10T10:32:43Z</time>
      </trkpt>
      <trkpt lat="45.38475" lon="4.57895">
        <ele>1395</ele>
        <time>2011-02-10T10:33:03Z</time>
      </trkpt>
      <trkpt lat="45.38473" lon="4.57881">
        <ele>1395</ele>
        <time>2011-02-10T10:33:10Z</time>
      </trkpt>
      <trkpt lat="45.38467" lon="4.57869">
        <ele>1395</ele>
        <time>2011-02-10T10:33:21Z</time>
      </trkpt>
      <trkpt lat="45.38464" lon="4.57856">
        <ele>1395</ele>
        <time>2011-02-10T10:33:29Z</time>
      </trkpt>
      <trkpt lat="45.38462" lon="4.57844">
        <ele>1395</ele>
        <time>2011-02-10T10:33:41Z</time>
      </trkpt>
      <trkpt lat="45.38464" lon="4.5783">
        <ele>1392</ele>
        <time>2011-02-10T10:34:18Z</time>
      </trkpt>
      <trkpt lat="45.38459" lon="4.57819">
        <ele>1393</ele>
        <time>2011-02-10T10:34:50Z</time>
      </trkpt>
      <trkpt lat="45.38455" lon="4.57806">
        <ele>1393</ele>
        <time>2011-02-10T10:35:01Z</time>
      </trkpt>
      <trkpt lat="45.3845" lon="4.57794">
        <ele>1393</ele>
        <time>2011-02-10T10:35:14Z</time>
      </trkpt>
      <trkpt lat="45.3845" lon="4.57781">
        <ele>1392</ele>
        <time>2011-02-10T10:35:27Z</time>
      </trkpt>
      <trkpt lat="45.38448" lon="4.57767">
        <ele>1392</ele>
        <time>2011-02-10T10:35:37Z</time>
      </trkpt>
      <trkpt lat="45.38445" lon="4.57755">
        <ele>1393</ele>
        <time>2011-02-10T10:35:43Z</time>
      </trkpt>
      <trkpt lat="45.38444" lon="4.57739">
        <ele>1391</ele>
        <time>2011-02-10T10:35:51Z</time>
      </trkpt>
      <trkpt lat="45.38442" lon="4.57726">
        <ele>1390</ele>
        <time>2011-02-10T10:36:00Z</time>
      </trkpt>
      <trkpt lat="45.38437" lon="4.57714">
        <ele>1390</ele>
        <time>2011-02-10T10:36:13Z</time>
      </trkpt>
      <trkpt lat="45.38434" lon="4.577">
        <ele>1390</ele>
        <time>2011-02-10T10:36:35Z</time>
      </trkpt>
      <trkpt lat="45.38433" lon="4.57685">
        <ele>1391</ele>
        <time>2011-02-10T10:36:42Z</time>
      </trkpt>
      <trkpt lat="45.3843" lon="4.57672">
        <ele>1392</ele>
        <time>2011-02-10T10:36:52Z</time>
      </trkpt>
      <trkpt lat="45.38428" lon="4.57658">
        <ele>1390</ele>
        <time>2011-02-10T10:37:03Z</time>
      </trkpt>
      <trkpt lat="45.38428" lon="4.57645">
        <ele>1389</ele>
        <time>2011-02-10T10:37:09Z</time>
      </trkpt>
      <trkpt lat="45.38426" lon="4.57632">
        <ele>1388</ele>
        <time>2011-02-10T10:37:17Z</time>
      </trkpt>
      <trkpt lat="45.38424" lon="4.57618">
        <ele>1388</ele>
        <time>2011-02-10T10:37:25Z</time>
      </trkpt>
      <trkpt lat="45.38416" lon="4.57614">
        <ele>1394</ele>
        <time>2011-02-10T10:38:38Z</time>
      </trkpt>
      <trkpt lat="45.38407" lon="4.57607">
        <ele>1394</ele>
        <time>2011-02-10T10:38:49Z</time>
      </trkpt>
      <trkpt lat="45.38398" lon="4.57601">
        <ele>1394</ele>
        <time>2011-02-10T10:38:57Z</time>
      </trkpt>
      <trkpt lat="45.38407" lon="4.57605">
        <ele>1394</ele>
        <time>2011-02-10T10:39:38Z</time>
      </trkpt>
      <trkpt lat="45.38416" lon="4.57608">
        <ele>1394</ele>
        <time>2011-02-10T10:39:47Z</time>
      </trkpt>
      <trkpt lat="45.38423" lon="4.57599">
        <ele>1389</ele>
        <time>2011-02-10T10:40:19Z</time>
      </trkpt>
      <trkpt lat="45.38421" lon="4.57586">
        <ele>1390</ele>
        <time>2011-02-10T10:40:32Z</time>
      </trkpt>
      <trkpt lat="45.38421" lon="4.57571">
        <ele>1388</ele>
        <time>2011-02-10T10:40:51Z</time>
      </trkpt>
      <trkpt lat="45.38421" lon="4.57558">
        <ele>1387</ele>
        <time>2011-02-10T10:41:05Z</time>
      </trkpt>
      <trkpt lat="45.38421" lon="4.57544">
        <ele>1387</ele>
        <time>2011-02-10T10:41:14Z</time>
      </trkpt>
      <trkpt lat="45.38423" lon="4.57531">
        <ele>1387</ele>
        <time>2011-02-10T10:41:26Z</time>
      </trkpt>
      <trkpt lat="45.38423" lon="4.57517">
        <ele>1387</ele>
        <time>2011-02-10T10:41:37Z</time>
      </trkpt>
      <trkpt lat="45.38423" lon="4.57503">
        <ele>1389</ele>
        <time>2011-02-10T10:41:50Z</time>
      </trkpt>
      <trkpt lat="45.38428" lon="4.57491">
        <ele>1388</ele>
        <time>2011-02-10T10:42:07Z</time>
      </trkpt>
      <trkpt lat="45.3843" lon="4.57478">
        <ele>1388</ele>
        <time>2011-02-10T10:42:21Z</time>
      </trkpt>
      <trkpt lat="45.38432" lon="4.57462">
        <ele>1387</ele>
        <time>2011-02-10T10:42:34Z</time>
      </trkpt>
      <trkpt lat="45.38434" lon="4.57448">
        <ele>1388</ele>
        <time>2011-02-10T10:42:43Z</time>
      </trkpt>
      <trkpt lat="45.38436" lon="4.57435">
        <ele>1388</ele>
        <time>2011-02-10T10:42:52Z</time>
      </trkpt>
      <trkpt lat="45.38439" lon="4.57422">
        <ele>1389</ele>
        <time>2011-02-10T10:43:03Z</time>
      </trkpt>
      <trkpt lat="45.38441" lon="4.57409">
        <ele>1390</ele>
        <time>2011-02-10T10:43:30Z</time>
      </trkpt>
      <trkpt lat="45.38442" lon="4.57395">
        <ele>1390</ele>
        <time>2011-02-10T10:43:41Z</time>
      </trkpt>
      <trkpt lat="45.38444" lon="4.57382">
        <ele>1390</ele>
        <time>2011-02-10T10:43:52Z</time>
      </trkpt>
      <trkpt lat="45.38445" lon="4.57368">
        <ele>1390</ele>
        <time>2011-02-10T10:44:04Z</time>
      </trkpt>
      <trkpt lat="45.38448" lon="4.57352">
        <ele>1390</ele>
        <time>2011-02-10T10:44:13Z</time>
      </trkpt>
      <trkpt lat="45.3845" lon="4.57338">
        <ele>1390</ele>
        <time>2011-02-10T10:44:24Z</time>
      </trkpt>
      <trkpt lat="45.3845" lon="4.57324">
        <ele>1392</ele>
        <time>2011-02-10T10:44:35Z</time>
      </trkpt>
      <trkpt lat="45.38452" lon="4.57311">
        <ele>1391</ele>
        <time>2011-02-10T10:44:46Z</time>
      </trkpt>
      <trkpt lat="45.38452" lon="4.57297">
        <ele>1391</ele>
        <time>2011-02-10T10:44:53Z</time>
      </trkpt>
      <trkpt lat="45.38454" lon="4.57284">
        <ele>1392</ele>
        <time>2011-02-10T10:45:02Z</time>
      </trkpt>
      <trkpt lat="45.38456" lon="4.57269">
        <ele>1392</ele>
        <time>2011-02-10T10:45:13Z</time>
      </trkpt>
      <trkpt lat="45.38455" lon="4.57255">
        <ele>1392</ele>
        <time>2011-02-10T10:45:25Z</time>
      </trkpt>
      <trkpt lat="45.38456" lon="4.57242">
        <ele>1393</ele>
        <time>2011-02-10T10:45:35Z</time>
      </trkpt>
      <trkpt lat="45.38457" lon="4.57228">
        <ele>1393</ele>
        <time>2011-02-10T10:45:45Z</time>
      </trkpt>
      <trkpt lat="45.38459" lon="4.57215">
        <ele>1393</ele>
        <time>2011-02-10T10:45:53Z</time>
      </trkpt>
      <trkpt lat="45.38462" lon="4.57202">
        <ele>1393</ele>
        <time>2011-02-10T10:46:01Z</time>
      </trkpt>
      <trkpt lat="45.38462" lon="4.57188">
        <ele>1393</ele>
        <time>2011-02-10T10:46:11Z</time>
      </trkpt>
      <trkpt lat="45.38462" lon="4.57174">
        <ele>1393</ele>
        <time>2011-02-10T10:46:22Z</time>
      </trkpt>
      <trkpt lat="45.38462" lon="4.57161">
        <ele>1394</ele>
        <time>2011-02-10T10:46:35Z</time>
      </trkpt>
      <trkpt lat="45.38464" lon="4.57148">
        <ele>1394</ele>
        <time>2011-02-10T10:46:44Z</time>
      </trkpt>
      <trkpt lat="45.38464" lon="4.57135">
        <ele>1394</ele>
        <time>2011-02-10T10:46:53Z</time>
      </trkpt>
      <trkpt lat="45.38466" lon="4.57121">
        <ele>1394</ele>
        <time>2011-02-10T10:47:00Z</time>
      </trkpt>
      <trkpt lat="45.38465" lon="4.57107">
        <ele>1394</ele>
        <time>2011-02-10T10:47:11Z</time>
      </trkpt>
      <trkpt lat="45.38467" lon="4.57093">
        <ele>1394</ele>
        <time>2011-02-10T10:47:21Z</time>
      </trkpt>
      <trkpt lat="45.38467" lon="4.57078">
        <ele>1393</ele>
        <time>2011-02-10T10:47:28Z</time>
      </trkpt>
      <trkpt lat="45.38469" lon="4.57064">
        <ele>1393</ele>
        <time>2011-02-10T10:47:37Z</time>
      </trkpt>
      <trkpt lat="45.3847" lon="4.57049">
        <ele>1393</ele>
        <time>2011-02-10T10:47:46Z</time>
      </trkpt>
      <trkpt lat="45.38469" lon="4.57036">
        <ele>1393</ele>
        <time>2011-02-10T10:47:57Z</time>
      </trkpt>
      <trkpt lat="45.38469" lon="4.57022">
        <ele>1392</ele>
        <time>2011-02-10T10:48:07Z</time>
      </trkpt>
      <trkpt lat="45.38469" lon="4.57009">
        <ele>1392</ele>
        <time>2011-02-10T10:48:17Z</time>
      </trkpt>
      <trkpt lat="45.38467" lon="4.56995">
        <ele>1390</ele>
        <time>2011-02-10T10:48:26Z</time>
      </trkpt>
      <trkpt lat="45.38467" lon="4.56982">
        <ele>1390</ele>
        <time>2011-02-10T10:48:34Z</time>
      </trkpt>
      <trkpt lat="45.38463" lon="4.56969">
        <ele>1390</ele>
        <time>2011-02-10T10:48:47Z</time>
      </trkpt>
      <trkpt lat="45.38459" lon="4.56956">
        <ele>1390</ele>
        <time>2011-02-10T10:48:57Z</time>
      </trkpt>
      <trkpt lat="45.38455" lon="4.56943">
        <ele>1390</ele>
        <time>2011-02-10T10:49:08Z</time>
      </trkpt>
      <trkpt lat="45.3845" lon="4.56932">
        <ele>1390</ele>
        <time>2011-02-10T10:49:21Z</time>
      </trkpt>
      <trkpt lat="45.38443" lon="4.56924">
        <ele>1390</ele>
        <time>2011-02-10T10:49:31Z</time>
      </trkpt>
      <trkpt lat="45.38435" lon="4.56916">
        <ele>1388</ele>
        <time>2011-02-10T10:49:42Z</time>
      </trkpt>
      <trkpt lat="45.38427" lon="4.56907">
        <ele>1388</ele>
        <time>2011-02-10T10:49:54Z</time>
      </trkpt>
      <trkpt lat="45.38419" lon="4.569">
        <ele>1388</ele>
        <time>2011-02-10T10:50:04Z</time>
      </trkpt>
      <trkpt lat="45.3841" lon="4.56894">
        <ele>1388</ele>
        <time>2011-02-10T10:50:13Z</time>
      </trkpt>
      <trkpt lat="45.38402" lon="4.56887">
        <ele>1388</ele>
        <time>2011-02-10T10:50:27Z</time>
      </trkpt>
      <trkpt lat="45.38394" lon="4.56879">
        <ele>1387</ele>
        <time>2011-02-10T10:50:39Z</time>
      </trkpt>
      <trkpt lat="45.38385" lon="4.56881">
        <ele>1387</ele>
        <time>2011-02-10T10:50:50Z</time>
      </trkpt>
      <trkpt lat="45.38375" lon="4.56876">
        <ele>1387</ele>
        <time>2011-02-10T10:51:04Z</time>
      </trkpt>
      <trkpt lat="45.38366" lon="4.56872">
        <ele>1387</ele>
        <time>2011-02-10T10:51:16Z</time>
      </trkpt>
      <trkpt lat="45.38357" lon="4.56869">
        <ele>1386</ele>
        <time>2011-02-10T10:51:27Z</time>
      </trkpt>
      <trkpt lat="45.38347" lon="4.56863">
        <ele>1386</ele>
        <time>2011-02-10T10:51:38Z</time>
      </trkpt>
      <trkpt lat="45.38338" lon="4.5686">
        <ele>1386</ele>
        <time>2011-02-10T10:51:49Z</time>
      </trkpt>
      <trkpt lat="45.38328" lon="4.56851">
        <ele>1386</ele>
        <time>2011-02-10T10:52:02Z</time>
      </trkpt>
      <trkpt lat="45.38321" lon="4.56841">
        <ele>1385</ele>
        <time>2011-02-10T10:52:12Z</time>
      </trkpt>
      <trkpt lat="45.38312" lon="4.56836">
        <ele>1386</ele>
        <time>2011-02-10T10:52:23Z</time>
      </trkpt>
      <trkpt lat="45.38302" lon="4.56829">
        <ele>1382</ele>
        <time>2011-02-10T10:52:33Z</time>
      </trkpt>
      <trkpt lat="45.38295" lon="4.56821">
        <ele>1382</ele>
        <time>2011-02-10T10:52:46Z</time>
      </trkpt>
      <trkpt lat="45.38288" lon="4.56811">
        <ele>1382</ele>
        <time>2011-02-10T10:52:58Z</time>
      </trkpt>
      <trkpt lat="45.38279" lon="4.56803">
        <ele>1382</ele>
        <time>2011-02-10T10:53:07Z</time>
      </trkpt>
      <trkpt lat="45.38271" lon="4.56799">
        <ele>1382</ele>
        <time>2011-02-10T10:53:18Z</time>
      </trkpt>
      <trkpt lat="45.38261" lon="4.56798">
        <ele>1382</ele>
        <time>2011-02-10T10:53:39Z</time>
      </trkpt>
      <trkpt lat="45.38252" lon="4.56794">
        <ele>1382</ele>
        <time>2011-02-10T10:53:48Z</time>
      </trkpt>
      <trkpt lat="45.38242" lon="4.56794">
        <ele>1383</ele>
        <time>2011-02-10T10:53:59Z</time>
      </trkpt>
      <trkpt lat="45.38233" lon="4.56791">
        <ele>1383</ele>
        <time>2011-02-10T10:54:08Z</time>
      </trkpt>
      <trkpt lat="45.38224" lon="4.56787">
        <ele>1383</ele>
        <time>2011-02-10T10:54:19Z</time>
      </trkpt>
      <trkpt lat="45.38215" lon="4.56789">
        <ele>1383</ele>
        <time>2011-02-10T10:54:31Z</time>
      </trkpt>
      <trkpt lat="45.38205" lon="4.56787">
        <ele>1383</ele>
        <time>2011-02-10T10:54:43Z</time>
      </trkpt>
      <trkpt lat="45.38195" lon="4.56784">
        <ele>1383</ele>
        <time>2011-02-10T10:54:55Z</time>
      </trkpt>
      <trkpt lat="45.38186" lon="4.56781">
        <ele>1383</ele>
        <time>2011-02-10T10:55:07Z</time>
      </trkpt>
      <trkpt lat="45.38176" lon="4.56783">
        <ele>1383</ele>
        <time>2011-02-10T10:55:20Z</time>
      </trkpt>
      <trkpt lat="45.38167" lon="4.56786">
        <ele>1383</ele>
        <time>2011-02-10T10:55:33Z</time>
      </trkpt>
      <trkpt lat="45.38157" lon="4.56787">
        <ele>1383</ele>
        <time>2011-02-10T10:55:46Z</time>
      </trkpt>
      <trkpt lat="45.38148" lon="4.56787">
        <ele>1383</ele>
        <time>2011-02-10T10:55:59Z</time>
      </trkpt>
      <trkpt lat="45.38139" lon="4.56792">
        <ele>1383</ele>
        <time>2011-02-10T10:56:11Z</time>
      </trkpt>
      <trkpt lat="45.38129" lon="4.56794">
        <ele>1383</ele>
        <time>2011-02-10T10:56:25Z</time>
      </trkpt>
      <trkpt lat="45.3812" lon="4.56797">
        <ele>1383</ele>
        <time>2011-02-10T10:56:36Z</time>
      </trkpt>
      <trkpt lat="45.3811" lon="4.56796">
        <ele>1383</ele>
        <time>2011-02-10T10:56:47Z</time>
      </trkpt>
      <trkpt lat="45.38101" lon="4.56797">
        <ele>1383</ele>
        <time>2011-02-10T10:56:58Z</time>
      </trkpt>
      <trkpt lat="45.38091" lon="4.56797">
        <ele>1383</ele>
        <time>2011-02-10T10:57:09Z</time>
      </trkpt>
      <trkpt lat="45.38082" lon="4.56801">
        <ele>1382</ele>
        <time>2011-02-10T10:57:24Z</time>
      </trkpt>
      <trkpt lat="45.38072" lon="4.568">
        <ele>1382</ele>
        <time>2011-02-10T10:57:33Z</time>
      </trkpt>
      <trkpt lat="45.38063" lon="4.56801">
        <ele>1382</ele>
        <time>2011-02-10T10:57:50Z</time>
      </trkpt>
      <trkpt lat="45.38052" lon="4.56803">
        <ele>1382</ele>
        <time>2011-02-10T10:58:03Z</time>
      </trkpt>
      <trkpt lat="45.38041" lon="4.568">
        <ele>1382</ele>
        <time>2011-02-10T10:58:19Z</time>
      </trkpt>
      <trkpt lat="45.38036" lon="4.56788">
        <ele>1381</ele>
        <time>2011-02-10T10:58:28Z</time>
      </trkpt>
      <trkpt lat="45.38028" lon="4.56783">
        <ele>1381</ele>
        <time>2011-02-10T10:58:37Z</time>
      </trkpt>
      <trkpt lat="45.38019" lon="4.56777">
        <ele>1381</ele>
        <time>2011-02-10T10:58:51Z</time>
      </trkpt>
      <trkpt lat="45.3801" lon="4.56769">
        <ele>1380</ele>
        <time>2011-02-10T10:59:29Z</time>
      </trkpt>
      <trkpt lat="45.38014" lon="4.56757">
        <ele>1379</ele>
        <time>2011-02-10T11:01:34Z</time>
      </trkpt>
      <trkpt lat="45.38019" lon="4.56745">
        <ele>1377</ele>
        <time>2011-02-10T11:01:47Z</time>
      </trkpt>
      <trkpt lat="45.38017" lon="4.56731">
        <ele>1377</ele>
        <time>2011-02-10T11:02:13Z</time>
      </trkpt>
      <trkpt lat="45.3802" lon="4.56715">
        <ele>1376</ele>
        <time>2011-02-10T11:02:23Z</time>
      </trkpt>
      <trkpt lat="45.38021" lon="4.56702">
        <ele>1376</ele>
        <time>2011-02-10T11:02:38Z</time>
      </trkpt>
      <trkpt lat="45.38016" lon="4.56688">
        <ele>1375</ele>
        <time>2011-02-10T11:02:57Z</time>
      </trkpt>
      <trkpt lat="45.38017" lon="4.56674">
        <ele>1375</ele>
        <time>2011-02-10T11:03:17Z</time>
      </trkpt>
      <trkpt lat="45.38017" lon="4.5666">
        <ele>1372</ele>
        <time>2011-02-10T11:03:33Z</time>
      </trkpt>
      <trkpt lat="45.38014" lon="4.56647">
        <ele>1372</ele>
        <time>2011-02-10T11:03:46Z</time>
      </trkpt>
      <trkpt lat="45.38014" lon="4.56632">
        <ele>1371</ele>
        <time>2011-02-10T11:04:05Z</time>
      </trkpt>
      <trkpt lat="45.38016" lon="4.56618">
        <ele>1371</ele>
        <time>2011-02-10T11:04:09Z</time>
      </trkpt>
      <trkpt lat="45.38013" lon="4.56606">
        <ele>1370</ele>
        <time>2011-02-10T11:04:21Z</time>
      </trkpt>
      <trkpt lat="45.38007" lon="4.56593">
        <ele>1369</ele>
        <time>2011-02-10T11:04:36Z</time>
      </trkpt>
      <trkpt lat="45.38003" lon="4.56578">
        <ele>1368</ele>
        <time>2011-02-10T11:04:50Z</time>
      </trkpt>
      <trkpt lat="45.38003" lon="4.56563">
        <ele>1368</ele>
        <time>2011-02-10T11:05:00Z</time>
      </trkpt>
      <trkpt lat="45.38002" lon="4.56549">
        <ele>1368</ele>
        <time>2011-02-10T11:05:11Z</time>
      </trkpt>
      <trkpt lat="45.38001" lon="4.56534">
        <ele>1368</ele>
        <time>2011-02-10T11:05:22Z</time>
      </trkpt>
      <trkpt lat="45.38002" lon="4.56518">
        <ele>1367</ele>
        <time>2011-02-10T11:05:34Z</time>
      </trkpt>
      <trkpt lat="45.38004" lon="4.56505">
        <ele>1367</ele>
        <time>2011-02-10T11:05:45Z</time>
      </trkpt>
      <trkpt lat="45.38001" lon="4.56492">
        <ele>1366</ele>
        <time>2011-02-10T11:05:53Z</time>
      </trkpt>
      <trkpt lat="45.37997" lon="4.56478">
        <ele>1367</ele>
        <time>2011-02-10T11:06:04Z</time>
      </trkpt>
      <trkpt lat="45.37995" lon="4.56465">
        <ele>1367</ele>
        <time>2011-02-10T11:06:13Z</time>
      </trkpt>
      <trkpt lat="45.37997" lon="4.56449">
        <ele>1366</ele>
        <time>2011-02-10T11:06:22Z</time>
      </trkpt>
      <trkpt lat="45.37995" lon="4.56435">
        <ele>1366</ele>
        <time>2011-02-10T11:06:32Z</time>
      </trkpt>
      <trkpt lat="45.3799" lon="4.56422">
        <ele>1365</ele>
        <time>2011-02-10T11:06:40Z</time>
      </trkpt>
      <trkpt lat="45.3799" lon="4.56408">
        <ele>1364</ele>
        <time>2011-02-10T11:06:49Z</time>
      </trkpt>
      <trkpt lat="45.37995" lon="4.56396">
        <ele>1364</ele>
        <time>2011-02-10T11:06:52Z</time>
      </trkpt>
      <trkpt lat="45.37991" lon="4.56384">
        <ele>1364</ele>
        <time>2011-02-10T11:07:04Z</time>
      </trkpt>
      <trkpt lat="45.37987" lon="4.56372">
        <ele>1364</ele>
        <time>2011-02-10T11:07:15Z</time>
      </trkpt>
      <trkpt lat="45.37986" lon="4.56359">
        <ele>1363</ele>
        <time>2011-02-10T11:07:22Z</time>
      </trkpt>
      <trkpt lat="45.37986" lon="4.56345">
        <ele>1362</ele>
        <time>2011-02-10T11:07:31Z</time>
      </trkpt>
      <trkpt lat="45.37984" lon="4.56332">
        <ele>1357</ele>
        <time>2011-02-10T11:07:39Z</time>
      </trkpt>
      <trkpt lat="45.37979" lon="4.5632">
        <ele>1357</ele>
        <time>2011-02-10T11:07:46Z</time>
      </trkpt>
      <trkpt lat="45.37972" lon="4.5631">
        <ele>1356</ele>
        <time>2011-02-10T11:08:06Z</time>
      </trkpt>
      <trkpt lat="45.37964" lon="4.56306">
        <ele>1356</ele>
        <time>2011-02-10T11:08:12Z</time>
      </trkpt>
      <trkpt lat="45.3795" lon="4.56305">
        <ele>1357</ele>
        <time>2011-02-10T11:08:21Z</time>
      </trkpt>
      <trkpt lat="45.37942" lon="4.56293">
        <ele>1356</ele>
        <time>2011-02-10T11:08:28Z</time>
      </trkpt>
      <trkpt lat="45.37933" lon="4.5629">
        <ele>1356</ele>
        <time>2011-02-10T11:08:32Z</time>
      </trkpt>
      <trkpt lat="45.37922" lon="4.56285">
        <ele>1355</ele>
        <time>2011-02-10T11:08:38Z</time>
      </trkpt>
      <trkpt lat="45.37915" lon="4.56275">
        <ele>1356</ele>
        <time>2011-02-10T11:08:43Z</time>
      </trkpt>
      <trkpt lat="45.37909" lon="4.56264">
        <ele>1354</ele>
        <time>2011-02-10T11:08:51Z</time>
      </trkpt>
      <trkpt lat="45.37903" lon="4.56253">
        <ele>1354</ele>
        <time>2011-02-10T11:09:01Z</time>
      </trkpt>
      <trkpt lat="45.37895" lon="4.56243">
        <ele>1347</ele>
        <time>2011-02-10T11:09:17Z</time>
      </trkpt>
      <trkpt lat="45.37888" lon="4.56234">
        <ele>1346</ele>
        <time>2011-02-10T11:09:20Z</time>
      </trkpt>
      <trkpt lat="45.37878" lon="4.56235">
        <ele>1347</ele>
        <time>2011-02-10T11:09:28Z</time>
      </trkpt>
      <trkpt lat="45.37869" lon="4.56238">
        <ele>1347</ele>
        <time>2011-02-10T11:09:41Z</time>
      </trkpt>
      <trkpt lat="45.37858" lon="4.56244">
        <ele>1348</ele>
        <time>2011-02-10T11:09:48Z</time>
      </trkpt>
      <trkpt lat="45.37847" lon="4.56242">
        <ele>1350</ele>
        <time>2011-02-10T11:09:55Z</time>
      </trkpt>
      <trkpt lat="45.37838" lon="4.56247">
        <ele>1352</ele>
        <time>2011-02-10T11:10:03Z</time>
      </trkpt>
      <trkpt lat="45.37832" lon="4.56257">
        <ele>1353</ele>
        <time>2011-02-10T11:10:14Z</time>
      </trkpt>
      <trkpt lat="45.37827" lon="4.5627">
        <ele>1352</ele>
        <time>2011-02-10T11:10:21Z</time>
      </trkpt>
      <trkpt lat="45.37822" lon="4.56281">
        <ele>1352</ele>
        <time>2011-02-10T11:10:33Z</time>
      </trkpt>
      <trkpt lat="45.37815" lon="4.56291">
        <ele>1351</ele>
        <time>2011-02-10T11:10:42Z</time>
      </trkpt>
      <trkpt lat="45.37807" lon="4.56298">
        <ele>1351</ele>
        <time>2011-02-10T11:10:53Z</time>
      </trkpt>
      <trkpt lat="45.37803" lon="4.56313">
        <ele>1351</ele>
        <time>2011-02-10T11:11:04Z</time>
      </trkpt>
      <trkpt lat="45.37804" lon="4.56327">
        <ele>1352</ele>
        <time>2011-02-10T11:11:15Z</time>
      </trkpt>
      <trkpt lat="45.37805" lon="4.56342">
        <ele>1352</ele>
        <time>2011-02-10T11:11:23Z</time>
      </trkpt>
      <trkpt lat="45.37808" lon="4.56356">
        <ele>1352</ele>
        <time>2011-02-10T11:11:30Z</time>
      </trkpt>
      <trkpt lat="45.37802" lon="4.56366">
        <ele>1351</ele>
        <time>2011-02-10T11:11:36Z</time>
      </trkpt>
      <trkpt lat="45.37807" lon="4.56378">
        <ele>1352</ele>
        <time>2011-02-10T11:11:47Z</time>
      </trkpt>
      <trkpt lat="45.37808" lon="4.56394">
        <ele>1352</ele>
        <time>2011-02-10T11:12:03Z</time>
      </trkpt>
      <trkpt lat="45.37815" lon="4.56404">
        <ele>1353</ele>
        <time>2011-02-10T11:12:13Z</time>
      </trkpt>
      <trkpt lat="45.3782" lon="4.56417">
        <ele>1354</ele>
        <time>2011-02-10T11:12:21Z</time>
      </trkpt>
      <trkpt lat="45.37824" lon="4.5643">
        <ele>1354</ele>
        <time>2011-02-10T11:12:31Z</time>
      </trkpt>
      <trkpt lat="45.37823" lon="4.56444">
        <ele>1353</ele>
        <time>2011-02-10T11:12:40Z</time>
      </trkpt>
      <trkpt lat="45.37827" lon="4.56458">
        <ele>1352</ele>
        <time>2011-02-10T11:12:52Z</time>
      </trkpt>
      <trkpt lat="45.37834" lon="4.56471">
        <ele>1359</ele>
        <time>2011-02-10T11:13:00Z</time>
      </trkpt>
      <trkpt lat="45.37836" lon="4.56485">
        <ele>1357</ele>
        <time>2011-02-10T11:13:09Z</time>
      </trkpt>
      <trkpt lat="45.37835" lon="4.56499">
        <ele>1354</ele>
        <time>2011-02-10T11:13:19Z</time>
      </trkpt>
      <trkpt lat="45.37832" lon="4.56513">
        <ele>1354</ele>
        <time>2011-02-10T11:13:31Z</time>
      </trkpt>
      <trkpt lat="45.37821" lon="4.56514">
        <ele>1354</ele>
        <time>2011-02-10T11:13:38Z</time>
      </trkpt>
      <trkpt lat="45.37813" lon="4.56504">
        <ele>1354</ele>
        <time>2011-02-10T11:13:47Z</time>
      </trkpt>
      <trkpt lat="45.37803" lon="4.56501">
        <ele>1354</ele>
        <time>2011-02-10T11:13:57Z</time>
      </trkpt>
      <trkpt lat="45.37793" lon="4.56496">
        <ele>1350</ele>
        <time>2011-02-10T11:14:07Z</time>
      </trkpt>
      <trkpt lat="45.37783" lon="4.56492">
        <ele>1350</ele>
        <time>2011-02-10T11:14:13Z</time>
      </trkpt>
      <trkpt lat="45.37774" lon="4.56486">
        <ele>1349</ele>
        <time>2011-02-10T11:14:20Z</time>
      </trkpt>
      <trkpt lat="45.37762" lon="4.5648">
        <ele>1349</ele>
        <time>2011-02-10T11:14:29Z</time>
      </trkpt>
      <trkpt lat="45.37753" lon="4.56472">
        <ele>1348</ele>
        <time>2011-02-10T11:14:37Z</time>
      </trkpt>
      <trkpt lat="45.37742" lon="4.56473">
        <ele>1345</ele>
        <time>2011-02-10T11:14:47Z</time>
      </trkpt>
      <trkpt lat="45.37734" lon="4.56464">
        <ele>1345</ele>
        <time>2011-02-10T11:14:52Z</time>
      </trkpt>
      <trkpt lat="45.37724" lon="4.56459">
        <ele>1344</ele>
        <time>2011-02-10T11:14:59Z</time>
      </trkpt>
      <trkpt lat="45.37715" lon="4.56462">
        <ele>1344</ele>
        <time>2011-02-10T11:15:03Z</time>
      </trkpt>
      <trkpt lat="45.37705" lon="4.56457">
        <ele>1344</ele>
        <time>2011-02-10T11:15:09Z</time>
      </trkpt>
      <trkpt lat="45.37699" lon="4.56445">
        <ele>1343</ele>
        <time>2011-02-10T11:15:14Z</time>
      </trkpt>
      <trkpt lat="45.37693" lon="4.56435">
        <ele>1343</ele>
        <time>2011-02-10T11:15:20Z</time>
      </trkpt>
      <trkpt lat="45.37685" lon="4.56427">
        <ele>1342</ele>
        <time>2011-02-10T11:15:28Z</time>
      </trkpt>
      <trkpt lat="45.37676" lon="4.56417">
        <ele>1341</ele>
        <time>2011-02-10T11:15:41Z</time>
      </trkpt>
      <trkpt lat="45.37667" lon="4.5641">
        <ele>1337</ele>
        <time>2011-02-10T11:15:51Z</time>
      </trkpt>
      <trkpt lat="45.37657" lon="4.56407">
        <ele>1336</ele>
        <time>2011-02-10T11:15:55Z</time>
      </trkpt>
      <trkpt lat="45.37649" lon="4.56397">
        <ele>1335</ele>
        <time>2011-02-10T11:16:06Z</time>
      </trkpt>
      <trkpt lat="45.37641" lon="4.56389">
        <ele>1334</ele>
        <time>2011-02-10T11:16:14Z</time>
      </trkpt>
      <trkpt lat="45.37632" lon="4.56385">
        <ele>1333</ele>
        <time>2011-02-10T11:16:24Z</time>
      </trkpt>
      <trkpt lat="45.37631" lon="4.5637">
        <ele>1332</ele>
        <time>2011-02-10T11:16:33Z</time>
      </trkpt>
      <trkpt lat="45.37621" lon="4.56368">
        <ele>1332</ele>
        <time>2011-02-10T11:16:49Z</time>
      </trkpt>
      <trkpt lat="45.37612" lon="4.56364">
        <ele>1331</ele>
        <time>2011-02-10T11:16:54Z</time>
      </trkpt>
      <trkpt lat="45.37601" lon="4.56363">
        <ele>1331</ele>
        <time>2011-02-10T11:17:00Z</time>
      </trkpt>
      <trkpt lat="45.37593" lon="4.56355">
        <ele>1330</ele>
        <time>2011-02-10T11:17:08Z</time>
      </trkpt>
      <trkpt lat="45.37586" lon="4.56364">
        <ele>1331</ele>
        <time>2011-02-10T11:17:22Z</time>
      </trkpt>
      <trkpt lat="45.37577" lon="4.5636">
        <ele>1328</ele>
        <time>2011-02-10T11:17:32Z</time>
      </trkpt>
      <trkpt lat="45.37568" lon="4.56364">
        <ele>1329</ele>
        <time>2011-02-10T11:17:47Z</time>
      </trkpt>
      <trkpt lat="45.3756" lon="4.56358">
        <ele>1328</ele>
        <time>2011-02-10T11:17:51Z</time>
      </trkpt>
      <trkpt lat="45.37548" lon="4.56351">
        <ele>1328</ele>
        <time>2011-02-10T11:17:56Z</time>
      </trkpt>
      <trkpt lat="45.37538" lon="4.56341">
        <ele>1328</ele>
        <time>2011-02-10T11:18:04Z</time>
      </trkpt>
      <trkpt lat="45.37531" lon="4.56328">
        <ele>1322</ele>
        <time>2011-02-10T11:18:14Z</time>
      </trkpt>
      <trkpt lat="45.3752" lon="4.56324">
        <ele>1322</ele>
        <time>2011-02-10T11:18:20Z</time>
      </trkpt>
      <trkpt lat="45.37512" lon="4.5632">
        <ele>1322</ele>
        <time>2011-02-10T11:18:25Z</time>
      </trkpt>
      <trkpt lat="45.37503" lon="4.56313">
        <ele>1322</ele>
        <time>2011-02-10T11:18:33Z</time>
      </trkpt>
      <trkpt lat="45.37496" lon="4.56301">
        <ele>1318</ele>
        <time>2011-02-10T11:18:42Z</time>
      </trkpt>
      <trkpt lat="45.37487" lon="4.56296">
        <ele>1317</ele>
        <time>2011-02-10T11:18:48Z</time>
      </trkpt>
      <trkpt lat="45.37478" lon="4.56291">
        <ele>1316</ele>
        <time>2011-02-10T11:18:54Z</time>
      </trkpt>
      <trkpt lat="45.37468" lon="4.56284">
        <ele>1315</ele>
        <time>2011-02-10T11:18:59Z</time>
      </trkpt>
      <trkpt lat="45.37458" lon="4.56286">
        <ele>1315</ele>
        <time>2011-02-10T11:19:08Z</time>
      </trkpt>
      <trkpt lat="45.37449" lon="4.56287">
        <ele>1315</ele>
        <time>2011-02-10T11:19:19Z</time>
      </trkpt>
      <trkpt lat="45.37439" lon="4.56284">
        <ele>1314</ele>
        <time>2011-02-10T11:19:24Z</time>
      </trkpt>
      <trkpt lat="45.37431" lon="4.56289">
        <ele>1314</ele>
        <time>2011-02-10T11:19:31Z</time>
      </trkpt>
      <trkpt lat="45.37422" lon="4.56293">
        <ele>1314</ele>
        <time>2011-02-10T11:19:37Z</time>
      </trkpt>
      <trkpt lat="45.37412" lon="4.56283">
        <ele>1308</ele>
        <time>2011-02-10T11:19:52Z</time>
      </trkpt>
      <trkpt lat="45.37403" lon="4.56281">
        <ele>1308</ele>
        <time>2011-02-10T11:19:58Z</time>
      </trkpt>
      <trkpt lat="45.37393" lon="4.56275">
        <ele>1307</ele>
        <time>2011-02-10T11:20:03Z</time>
      </trkpt>
      <trkpt lat="45.37386" lon="4.56264">
        <ele>1307</ele>
        <time>2011-02-10T11:20:14Z</time>
      </trkpt>
      <trkpt lat="45.37382" lon="4.56253">
        <ele>1306</ele>
        <time>2011-02-10T11:20:26Z</time>
      </trkpt>
      <trkpt lat="45.37373" lon="4.56246">
        <ele>1302</ele>
        <time>2011-02-10T11:20:54Z</time>
      </trkpt>
      <trkpt lat="45.37365" lon="4.56237">
        <ele>1302</ele>
        <time>2011-02-10T11:21:13Z</time>
      </trkpt>
      <trkpt lat="45.37357" lon="4.56227">
        <ele>1301</ele>
        <time>2011-02-10T11:21:20Z</time>
      </trkpt>
      <trkpt lat="45.37349" lon="4.56218">
        <ele>1301</ele>
        <time>2011-02-10T11:21:29Z</time>
      </trkpt>
      <trkpt lat="45.3734" lon="4.56211">
        <ele>1301</ele>
        <time>2011-02-10T11:21:37Z</time>
      </trkpt>
      <trkpt lat="45.37333" lon="4.56202">
        <ele>1299</ele>
        <time>2011-02-10T11:21:46Z</time>
      </trkpt>
      <trkpt lat="45.37324" lon="4.56205">
        <ele>1299</ele>
        <time>2011-02-10T11:21:54Z</time>
      </trkpt>
      <trkpt lat="45.37317" lon="4.56196">
        <ele>1299</ele>
        <time>2011-02-10T11:22:06Z</time>
      </trkpt>
      <trkpt lat="45.37313" lon="4.56183">
        <ele>1299</ele>
        <time>2011-02-10T11:22:11Z</time>
      </trkpt>
      <trkpt lat="45.37307" lon="4.56172">
        <ele>1299</ele>
        <time>2011-02-10T11:22:19Z</time>
      </trkpt>
      <trkpt lat="45.37302" lon="4.56159">
        <ele>1300</ele>
        <time>2011-02-10T11:22:24Z</time>
      </trkpt>
      <trkpt lat="45.37297" lon="4.56147">
        <ele>1300</ele>
        <time>2011-02-10T11:22:32Z</time>
      </trkpt>
      <trkpt lat="45.37289" lon="4.56139">
        <ele>1300</ele>
        <time>2011-02-10T11:22:47Z</time>
      </trkpt>
      <trkpt lat="45.37283" lon="4.56128">
        <ele>1300</ele>
        <time>2011-02-10T11:22:59Z</time>
      </trkpt>
      <trkpt lat="45.37276" lon="4.56119">
        <ele>1300</ele>
        <time>2011-02-10T11:23:08Z</time>
      </trkpt>
      <trkpt lat="45.37267" lon="4.56115">
        <ele>1301</ele>
        <time>2011-02-10T11:23:19Z</time>
      </trkpt>
      <trkpt lat="45.37263" lon="4.56103">
        <ele>1302</ele>
        <time>2011-02-10T11:23:27Z</time>
      </trkpt>
      <trkpt lat="45.37261" lon="4.56086">
        <ele>1303</ele>
        <time>2011-02-10T11:23:36Z</time>
      </trkpt>
      <trkpt lat="45.37253" lon="4.56076">
        <ele>1303</ele>
        <time>2011-02-10T11:23:44Z</time>
      </trkpt>
      <trkpt lat="45.37248" lon="4.56063">
        <ele>1306</ele>
        <time>2011-02-10T11:23:51Z</time>
      </trkpt>
      <trkpt lat="45.37245" lon="4.5605">
        <ele>1306</ele>
        <time>2011-02-10T11:24:08Z</time>
      </trkpt>
      <trkpt lat="45.37239" lon="4.56041">
        <ele>1306</ele>
        <time>2011-02-10T11:24:22Z</time>
      </trkpt>
      <trkpt lat="45.37232" lon="4.5603">
        <ele>1306</ele>
        <time>2011-02-10T11:24:41Z</time>
      </trkpt>
      <trkpt lat="45.37222" lon="4.56028">
        <ele>1306</ele>
        <time>2011-02-10T11:24:58Z</time>
      </trkpt>
      <trkpt lat="45.37211" lon="4.56024">
        <ele>1307</ele>
        <time>2011-02-10T11:25:15Z</time>
      </trkpt>
      <trkpt lat="45.37213" lon="4.56011">
        <ele>1307</ele>
        <time>2011-02-10T11:25:23Z</time>
      </trkpt>
      <trkpt lat="45.37204" lon="4.56016">
        <ele>1307</ele>
        <time>2011-02-10T11:25:30Z</time>
      </trkpt>
      <trkpt lat="45.37193" lon="4.56014">
        <ele>1308</ele>
        <time>2011-02-10T11:25:42Z</time>
      </trkpt>
      <trkpt lat="45.37184" lon="4.56009">
        <ele>1309</ele>
        <time>2011-02-10T11:25:50Z</time>
      </trkpt>
      <trkpt lat="45.37177" lon="4.56">
        <ele>1311</ele>
        <time>2011-02-10T11:26:01Z</time>
      </trkpt>
      <trkpt lat="45.37168" lon="4.55992">
        <ele>1311</ele>
        <time>2011-02-10T11:26:11Z</time>
      </trkpt>
      <trkpt lat="45.37159" lon="4.55992">
        <ele>1312</ele>
        <time>2011-02-10T11:26:17Z</time>
      </trkpt>
      <trkpt lat="45.37147" lon="4.5599">
        <ele>1312</ele>
        <time>2011-02-10T11:26:27Z</time>
      </trkpt>
      <trkpt lat="45.37141" lon="4.55979">
        <ele>1312</ele>
        <time>2011-02-10T11:26:44Z</time>
      </trkpt>
      <trkpt lat="45.37132" lon="4.55976">
        <ele>1311</ele>
        <time>2011-02-10T11:26:54Z</time>
      </trkpt>
      <trkpt lat="45.37122" lon="4.55973">
        <ele>1311</ele>
        <time>2011-02-10T11:27:05Z</time>
      </trkpt>
      <trkpt lat="45.37113" lon="4.5597">
        <ele>1311</ele>
        <time>2011-02-10T11:27:10Z</time>
      </trkpt>
      <trkpt lat="45.37104" lon="4.55964">
        <ele>1311</ele>
        <time>2011-02-10T11:27:21Z</time>
      </trkpt>
      <trkpt lat="45.37094" lon="4.5596">
        <ele>1311</ele>
        <time>2011-02-10T11:27:25Z</time>
      </trkpt>
      <trkpt lat="45.37085" lon="4.55952">
        <ele>1311</ele>
        <time>2011-02-10T11:27:31Z</time>
      </trkpt>
      <trkpt lat="45.37077" lon="4.55939">
        <ele>1307</ele>
        <time>2011-02-10T11:27:40Z</time>
      </trkpt>
      <trkpt lat="45.3707" lon="4.55931">
        <ele>1308</ele>
        <time>2011-02-10T11:27:46Z</time>
      </trkpt>
      <trkpt lat="45.37059" lon="4.55931">
        <ele>1306</ele>
        <time>2011-02-10T11:27:58Z</time>
      </trkpt>
      <trkpt lat="45.37048" lon="4.55928">
        <ele>1305</ele>
        <time>2011-02-10T11:28:10Z</time>
      </trkpt>
      <trkpt lat="45.37039" lon="4.55924">
        <ele>1304</ele>
        <time>2011-02-10T11:28:15Z</time>
      </trkpt>
      <trkpt lat="45.37032" lon="4.55915">
        <ele>1306</ele>
        <time>2011-02-10T11:28:20Z</time>
      </trkpt>
      <trkpt lat="45.37025" lon="4.55904">
        <ele>1306</ele>
        <time>2011-02-10T11:28:28Z</time>
      </trkpt>
      <trkpt lat="45.37018" lon="4.55893">
        <ele>1306</ele>
        <time>2011-02-10T11:28:35Z</time>
      </trkpt>
      <trkpt lat="45.37012" lon="4.55882">
        <ele>1306</ele>
        <time>2011-02-10T11:28:41Z</time>
      </trkpt>
      <trkpt lat="45.37006" lon="4.55872">
        <ele>1307</ele>
        <time>2011-02-10T11:28:49Z</time>
      </trkpt>
      <trkpt lat="45.36999" lon="4.55859">
        <ele>1299</ele>
        <time>2011-02-10T11:28:55Z</time>
      </trkpt>
      <trkpt lat="45.36996" lon="4.55847">
        <ele>1301</ele>
        <time>2011-02-10T11:29:05Z</time>
      </trkpt>
      <trkpt lat="45.36984" lon="4.55842">
        <ele>1300</ele>
        <time>2011-02-10T11:29:12Z</time>
      </trkpt>
      <trkpt lat="45.36975" lon="4.55832">
        <ele>1305</ele>
        <time>2011-02-10T11:29:20Z</time>
      </trkpt>
      <trkpt lat="45.36968" lon="4.55823">
        <ele>1304</ele>
        <time>2011-02-10T11:29:25Z</time>
      </trkpt>
      <trkpt lat="45.36962" lon="4.55813">
        <ele>1304</ele>
        <time>2011-02-10T11:29:34Z</time>
      </trkpt>
      <trkpt lat="45.36954" lon="4.55805">
        <ele>1304</ele>
        <time>2011-02-10T11:29:46Z</time>
      </trkpt>
      <trkpt lat="45.36945" lon="4.55806">
        <ele>1303</ele>
        <time>2011-02-10T11:29:57Z</time>
      </trkpt>
      <trkpt lat="45.36943" lon="4.5582">
        <ele>1301</ele>
        <time>2011-02-10T11:30:38Z</time>
      </trkpt>
      <trkpt lat="45.36947" lon="4.55807">
        <ele>1303</ele>
        <time>2011-02-10T11:30:59Z</time>
      </trkpt>
      <trkpt lat="45.36944" lon="4.55794">
        <ele>1304</ele>
        <time>2011-02-10T11:31:05Z</time>
      </trkpt>
      <trkpt lat="45.36935" lon="4.55797">
        <ele>1303</ele>
        <time>2011-02-10T11:31:29Z</time>
      </trkpt>
      <trkpt lat="45.36925" lon="4.55795">
        <ele>1303</ele>
        <time>2011-02-10T11:31:39Z</time>
      </trkpt>
      <trkpt lat="45.36918" lon="4.55787">
        <ele>1304</ele>
        <time>2011-02-10T11:31:48Z</time>
      </trkpt>
      <trkpt lat="45.36911" lon="4.55778">
        <ele>1300</ele>
        <time>2011-02-10T11:31:55Z</time>
      </trkpt>
      <trkpt lat="45.369" lon="4.55786">
        <ele>1298</ele>
        <time>2011-02-10T11:32:00Z</time>
      </trkpt>
      <trkpt lat="45.36889" lon="4.55786">
        <ele>1298</ele>
        <time>2011-02-10T11:32:08Z</time>
      </trkpt>
      <trkpt lat="45.36879" lon="4.55786">
        <ele>1297</ele>
        <time>2011-02-10T11:32:21Z</time>
      </trkpt>
      <trkpt lat="45.36873" lon="4.55776">
        <ele>1298</ele>
        <time>2011-02-10T11:32:26Z</time>
      </trkpt>
      <trkpt lat="45.36863" lon="4.55776">
        <ele>1297</ele>
        <time>2011-02-10T11:32:32Z</time>
      </trkpt>
      <trkpt lat="45.36854" lon="4.55782">
        <ele>1297</ele>
        <time>2011-02-10T11:32:41Z</time>
      </trkpt>
      <trkpt lat="45.36848" lon="4.5577">
        <ele>1298</ele>
        <time>2011-02-10T11:32:56Z</time>
      </trkpt>
      <trkpt lat="45.36837" lon="4.55771">
        <ele>1298</ele>
        <time>2011-02-10T11:33:09Z</time>
      </trkpt>
      <trkpt lat="45.3683" lon="4.5578">
        <ele>1289</ele>
        <time>2011-02-10T11:33:18Z</time>
      </trkpt>
      <trkpt lat="45.36821" lon="4.55776">
        <ele>1289</ele>
        <time>2011-02-10T11:33:25Z</time>
      </trkpt>
      <trkpt lat="45.36812" lon="4.55783">
        <ele>1287</ele>
        <time>2011-02-10T11:33:38Z</time>
      </trkpt>
      <trkpt lat="45.36802" lon="4.55776">
        <ele>1287</ele>
        <time>2011-02-10T11:33:46Z</time>
      </trkpt>
      <trkpt lat="45.36792" lon="4.55776">
        <ele>1285</ele>
        <time>2011-02-10T11:33:53Z</time>
      </trkpt>
      <trkpt lat="45.36786" lon="4.55763">
        <ele>1286</ele>
        <time>2011-02-10T11:34:02Z</time>
      </trkpt>
      <trkpt lat="45.36775" lon="4.55764">
        <ele>1285</ele>
        <time>2011-02-10T11:34:11Z</time>
      </trkpt>
      <trkpt lat="45.36764" lon="4.55758">
        <ele>1285</ele>
        <time>2011-02-10T11:34:16Z</time>
      </trkpt>
      <trkpt lat="45.36757" lon="4.55748">
        <ele>1289</ele>
        <time>2011-02-10T11:34:23Z</time>
      </trkpt>
      <trkpt lat="45.36748" lon="4.55739">
        <ele>1285</ele>
        <time>2011-02-10T11:34:32Z</time>
      </trkpt>
      <trkpt lat="45.36739" lon="4.55732">
        <ele>1284</ele>
        <time>2011-02-10T11:34:40Z</time>
      </trkpt>
      <trkpt lat="45.36726" lon="4.5573">
        <ele>1283</ele>
        <time>2011-02-10T11:34:48Z</time>
      </trkpt>
      <trkpt lat="45.36717" lon="4.55732">
        <ele>1282</ele>
        <time>2011-02-10T11:34:56Z</time>
      </trkpt>
      <trkpt lat="45.3671" lon="4.55721">
        <ele>1282</ele>
        <time>2011-02-10T11:35:03Z</time>
      </trkpt>
      <trkpt lat="45.367" lon="4.55715">
        <ele>1281</ele>
        <time>2011-02-10T11:35:10Z</time>
      </trkpt>
      <trkpt lat="45.36711" lon="4.55713">
        <ele>1283</ele>
        <time>2011-02-10T11:35:23Z</time>
      </trkpt>
      <trkpt lat="45.367" lon="4.55707">
        <ele>1282</ele>
        <time>2011-02-10T11:35:35Z</time>
      </trkpt>
      <trkpt lat="45.36693" lon="4.55697">
        <ele>1283</ele>
        <time>2011-02-10T11:35:40Z</time>
      </trkpt>
      <trkpt lat="45.36684" lon="4.55705">
        <ele>1281</ele>
        <time>2011-02-10T11:35:47Z</time>
      </trkpt>
      <trkpt lat="45.36678" lon="4.55694">
        <ele>1282</ele>
        <time>2011-02-10T11:36:10Z</time>
      </trkpt>
      <trkpt lat="45.36668" lon="4.55697">
        <ele>1281</ele>
        <time>2011-02-10T11:36:17Z</time>
      </trkpt>
      <trkpt lat="45.36656" lon="4.55693">
        <ele>1268</ele>
        <time>2011-02-10T11:36:22Z</time>
      </trkpt>
      <trkpt lat="45.36649" lon="4.55681">
        <ele>1270</ele>
        <time>2011-02-10T11:36:29Z</time>
      </trkpt>
      <trkpt lat="45.36638" lon="4.55672">
        <ele>1268</ele>
        <time>2011-02-10T11:36:39Z</time>
      </trkpt>
      <trkpt lat="45.36629" lon="4.55679">
        <ele>1265</ele>
        <time>2011-02-10T11:36:46Z</time>
      </trkpt>
      <trkpt lat="45.36619" lon="4.55679">
        <ele>1263</ele>
        <time>2011-02-10T11:37:02Z</time>
      </trkpt>
      <trkpt lat="45.36611" lon="4.5567">
        <ele>1262</ele>
        <time>2011-02-10T11:37:10Z</time>
      </trkpt>
      <trkpt lat="45.36604" lon="4.55661">
        <ele>1268</ele>
        <time>2011-02-10T11:37:19Z</time>
      </trkpt>
      <trkpt lat="45.36592" lon="4.55653">
        <ele>1266</ele>
        <time>2011-02-10T11:37:28Z</time>
      </trkpt>
      <trkpt lat="45.36583" lon="4.55642">
        <ele>1257</ele>
        <time>2011-02-10T11:37:40Z</time>
      </trkpt>
      <trkpt lat="45.36575" lon="4.55633">
        <ele>1257</ele>
        <time>2011-02-10T11:37:51Z</time>
      </trkpt>
      <trkpt lat="45.36566" lon="4.55623">
        <ele>1257</ele>
        <time>2011-02-10T11:37:58Z</time>
      </trkpt>
      <trkpt lat="45.36556" lon="4.55617">
        <ele>1257</ele>
        <time>2011-02-10T11:38:08Z</time>
      </trkpt>
      <trkpt lat="45.36548" lon="4.55607">
        <ele>1257</ele>
        <time>2011-02-10T11:38:10Z</time>
      </trkpt>
      <trkpt lat="45.3654" lon="4.55599">
        <ele>1256</ele>
        <time>2011-02-10T11:38:18Z</time>
      </trkpt>
      <trkpt lat="45.3653" lon="4.55593">
        <ele>1255</ele>
        <time>2011-02-10T11:38:26Z</time>
      </trkpt>
      <trkpt lat="45.36524" lon="4.55582">
        <ele>1257</ele>
        <time>2011-02-10T11:38:42Z</time>
      </trkpt>
      <trkpt lat="45.36515" lon="4.55577">
        <ele>1256</ele>
        <time>2011-02-10T11:38:53Z</time>
      </trkpt>
      <trkpt lat="45.36504" lon="4.55572">
        <ele>1255</ele>
        <time>2011-02-10T11:39:01Z</time>
      </trkpt>
      <trkpt lat="45.36495" lon="4.55573">
        <ele>1247</ele>
        <time>2011-02-10T11:39:06Z</time>
      </trkpt>
      <trkpt lat="45.36497" lon="4.55559">
        <ele>1246</ele>
        <time>2011-02-10T11:39:15Z</time>
      </trkpt>
      <trkpt lat="45.3649" lon="4.55551">
        <ele>1245</ele>
        <time>2011-02-10T11:39:23Z</time>
      </trkpt>
      <trkpt lat="45.36481" lon="4.55544">
        <ele>1244</ele>
        <time>2011-02-10T11:39:28Z</time>
      </trkpt>
      <trkpt lat="45.36474" lon="4.55529">
        <ele>1243</ele>
        <time>2011-02-10T11:39:34Z</time>
      </trkpt>
      <trkpt lat="45.36471" lon="4.55513">
        <ele>1243</ele>
        <time>2011-02-10T11:39:43Z</time>
      </trkpt>
      <trkpt lat="45.36462" lon="4.55508">
        <ele>1242</ele>
        <time>2011-02-10T11:39:50Z</time>
      </trkpt>
      <trkpt lat="45.36453" lon="4.55499">
        <ele>1240</ele>
        <time>2011-02-10T11:40:00Z</time>
      </trkpt>
      <trkpt lat="45.36447" lon="4.55488">
        <ele>1239</ele>
        <time>2011-02-10T11:40:05Z</time>
      </trkpt>
      <trkpt lat="45.36444" lon="4.55474">
        <ele>1239</ele>
        <time>2011-02-10T11:40:09Z</time>
      </trkpt>
      <trkpt lat="45.3644" lon="4.55462">
        <ele>1239</ele>
        <time>2011-02-10T11:40:17Z</time>
      </trkpt>
      <trkpt lat="45.36435" lon="4.55447">
        <ele>1238</ele>
        <time>2011-02-10T11:40:28Z</time>
      </trkpt>
      <trkpt lat="45.36432" lon="4.55433">
        <ele>1236</ele>
        <time>2011-02-10T11:40:36Z</time>
      </trkpt>
      <trkpt lat="45.36423" lon="4.55425">
        <ele>1234</ele>
        <time>2011-02-10T11:40:47Z</time>
      </trkpt>
      <trkpt lat="45.36418" lon="4.55408">
        <ele>1233</ele>
        <time>2011-02-10T11:40:57Z</time>
      </trkpt>
      <trkpt lat="45.36414" lon="4.55394">
        <ele>1223</ele>
        <time>2011-02-10T11:41:09Z</time>
      </trkpt>
      <trkpt lat="45.36408" lon="4.55382">
        <ele>1222</ele>
        <time>2011-02-10T11:41:15Z</time>
      </trkpt>
      <trkpt lat="45.36405" lon="4.5537">
        <ele>1221</ele>
        <time>2011-02-10T11:41:30Z</time>
      </trkpt>
      <trkpt lat="45.36402" lon="4.55357">
        <ele>1221</ele>
        <time>2011-02-10T11:41:39Z</time>
      </trkpt>
      <trkpt lat="45.36395" lon="4.55346">
        <ele>1220</ele>
        <time>2011-02-10T11:41:47Z</time>
      </trkpt>
      <trkpt lat="45.36393" lon="4.55333">
        <ele>1219</ele>
        <time>2011-02-10T11:41:54Z</time>
      </trkpt>
      <trkpt lat="45.36388" lon="4.5532">
        <ele>1217</ele>
        <time>2011-02-10T11:42:00Z</time>
      </trkpt>
      <trkpt lat="45.36381" lon="4.55311">
        <ele>1216</ele>
        <time>2011-02-10T11:42:13Z</time>
      </trkpt>
      <trkpt lat="45.36381" lon="4.55298">
        <ele>1216</ele>
        <time>2011-02-10T11:42:20Z</time>
      </trkpt>
      <trkpt lat="45.36379" lon="4.55284">
        <ele>1215</ele>
        <time>2011-02-10T11:42:28Z</time>
      </trkpt>
      <trkpt lat="45.36375" lon="4.55272">
        <ele>1215</ele>
        <time>2011-02-10T11:42:37Z</time>
      </trkpt>
      <trkpt lat="45.36371" lon="4.55258">
        <ele>1214</ele>
        <time>2011-02-10T11:42:41Z</time>
      </trkpt>
      <trkpt lat="45.36372" lon="4.55245">
        <ele>1213</ele>
        <time>2011-02-10T11:42:51Z</time>
      </trkpt>
      <trkpt lat="45.36369" lon="4.55231">
        <ele>1213</ele>
        <time>2011-02-10T11:43:06Z</time>
      </trkpt>
      <trkpt lat="45.36377" lon="4.55224">
        <ele>1214</ele>
        <time>2011-02-10T11:43:20Z</time>
      </trkpt>
      <trkpt lat="45.36384" lon="4.55233">
        <ele>1216</ele>
        <time>2011-02-10T11:43:36Z</time>
      </trkpt>
      <trkpt lat="45.36377" lon="4.55224">
        <ele>1214</ele>
        <time>2011-02-10T11:44:20Z</time>
      </trkpt>
      <trkpt lat="45.36387" lon="4.55232">
        <ele>1216</ele>
        <time>2011-02-10T11:44:40Z</time>
      </trkpt>
      <trkpt lat="45.36394" lon="4.55242">
        <ele>1218</ele>
        <time>2011-02-10T11:44:49Z</time>
      </trkpt>
      <trkpt lat="45.36388" lon="4.55231">
        <ele>1216</ele>
        <time>2011-02-10T11:44:57Z</time>
      </trkpt>
      <trkpt lat="45.36381" lon="4.55223">
        <ele>1215</ele>
        <time>2011-02-10T11:45:09Z</time>
      </trkpt>
      <trkpt lat="45.36373" lon="4.55215">
        <ele>1214</ele>
        <time>2011-02-10T11:47:49Z</time>
      </trkpt>
      <trkpt lat="45.3638" lon="4.55204">
        <ele>1214</ele>
        <time>2011-02-10T11:49:11Z</time>
      </trkpt>
      <trkpt lat="45.36382" lon="4.55191">
        <ele>1215</ele>
        <time>2011-02-10T11:49:18Z</time>
      </trkpt>
      <trkpt lat="45.36387" lon="4.55179">
        <ele>1216</ele>
        <time>2011-02-10T11:49:26Z</time>
      </trkpt>
      <trkpt lat="45.36386" lon="4.55166">
        <ele>1215</ele>
        <time>2011-02-10T11:49:39Z</time>
      </trkpt>
      <trkpt lat="45.36388" lon="4.55151">
        <ele>1215</ele>
        <time>2011-02-10T11:49:49Z</time>
      </trkpt>
      <trkpt lat="45.36391" lon="4.55138">
        <ele>1215</ele>
        <time>2011-02-10T11:49:58Z</time>
      </trkpt>
      <trkpt lat="45.36394" lon="4.55124">
        <ele>1215</ele>
        <time>2011-02-10T11:50:08Z</time>
      </trkpt>
      <trkpt lat="45.36398" lon="4.55112">
        <ele>1216</ele>
        <time>2011-02-10T11:50:20Z</time>
      </trkpt>
      <trkpt lat="45.36404" lon="4.55102">
        <ele>1217</ele>
        <time>2011-02-10T11:50:28Z</time>
      </trkpt>
      <trkpt lat="45.36405" lon="4.55087">
        <ele>1220</ele>
        <time>2011-02-10T11:50:39Z</time>
      </trkpt>
      <trkpt lat="45.36407" lon="4.55073">
        <ele>1219</ele>
        <time>2011-02-10T11:50:48Z</time>
      </trkpt>
      <trkpt lat="45.3641" lon="4.5506">
        <ele>1217</ele>
        <time>2011-02-10T11:50:58Z</time>
      </trkpt>
      <trkpt lat="45.36411" lon="4.55045">
        <ele>1216</ele>
        <time>2011-02-10T11:51:09Z</time>
      </trkpt>
      <trkpt lat="45.36414" lon="4.55029">
        <ele>1216</ele>
        <time>2011-02-10T11:51:18Z</time>
      </trkpt>
      <trkpt lat="45.36417" lon="4.55017">
        <ele>1231</ele>
        <time>2011-02-10T11:51:28Z</time>
      </trkpt>
      <trkpt lat="45.36419" lon="4.55002">
        <ele>1226</ele>
        <time>2011-02-10T11:51:36Z</time>
      </trkpt>
      <trkpt lat="45.36424" lon="4.54989">
        <ele>1228</ele>
        <time>2011-02-10T11:51:45Z</time>
      </trkpt>
      <trkpt lat="45.36426" lon="4.54975">
        <ele>1230</ele>
        <time>2011-02-10T11:51:53Z</time>
      </trkpt>
      <trkpt lat="45.36431" lon="4.54962">
        <ele>1231</ele>
        <time>2011-02-10T11:52:03Z</time>
      </trkpt>
      <trkpt lat="45.36434" lon="4.54949">
        <ele>1231</ele>
        <time>2011-02-10T11:52:11Z</time>
      </trkpt>
      <trkpt lat="45.36437" lon="4.54937">
        <ele>1230</ele>
        <time>2011-02-10T11:52:22Z</time>
      </trkpt>
      <trkpt lat="45.36443" lon="4.54923">
        <ele>1231</ele>
        <time>2011-02-10T11:52:31Z</time>
      </trkpt>
      <trkpt lat="45.36448" lon="4.5491">
        <ele>1229</ele>
        <time>2011-02-10T11:52:38Z</time>
      </trkpt>
      <trkpt lat="45.36447" lon="4.54896">
        <ele>1229</ele>
        <time>2011-02-10T11:52:48Z</time>
      </trkpt>
      <trkpt lat="45.36448" lon="4.54882">
        <ele>1230</ele>
        <time>2011-02-10T11:52:56Z</time>
      </trkpt>
      <trkpt lat="45.36448" lon="4.54868">
        <ele>1229</ele>
        <time>2011-02-10T11:53:05Z</time>
      </trkpt>
      <trkpt lat="45.36453" lon="4.54857">
        <ele>1230</ele>
        <time>2011-02-10T11:53:13Z</time>
      </trkpt>
      <trkpt lat="45.3646" lon="4.54847">
        <ele>1231</ele>
        <time>2011-02-10T11:53:23Z</time>
      </trkpt>
      <trkpt lat="45.36464" lon="4.54834">
        <ele>1232</ele>
        <time>2011-02-10T11:53:30Z</time>
      </trkpt>
      <trkpt lat="45.36466" lon="4.54822">
        <ele>1229</ele>
        <time>2011-02-10T11:53:40Z</time>
      </trkpt>
      <trkpt lat="45.36471" lon="4.5481">
        <ele>1229</ele>
        <time>2011-02-10T11:53:49Z</time>
      </trkpt>
      <trkpt lat="45.36476" lon="4.54796">
        <ele>1229</ele>
        <time>2011-02-10T11:54:01Z</time>
      </trkpt>
      <trkpt lat="45.36479" lon="4.54783">
        <ele>1229</ele>
        <time>2011-02-10T11:54:12Z</time>
      </trkpt>
      <trkpt lat="45.36485" lon="4.54773">
        <ele>1230</ele>
        <time>2011-02-10T11:54:22Z</time>
      </trkpt>
      <trkpt lat="45.36489" lon="4.5476">
        <ele>1231</ele>
        <time>2011-02-10T11:54:30Z</time>
      </trkpt>
      <trkpt lat="45.36497" lon="4.54749">
        <ele>1234</ele>
        <time>2011-02-10T11:54:39Z</time>
      </trkpt>
      <trkpt lat="45.36505" lon="4.54742">
        <ele>1238</ele>
        <time>2011-02-10T11:54:49Z</time>
      </trkpt>
      <trkpt lat="45.3651" lon="4.5473">
        <ele>1239</ele>
        <time>2011-02-10T11:55:02Z</time>
      </trkpt>
      <trkpt lat="45.36516" lon="4.54717">
        <ele>1239</ele>
        <time>2011-02-10T11:55:13Z</time>
      </trkpt>
      <trkpt lat="45.36524" lon="4.54702">
        <ele>1238</ele>
        <time>2011-02-10T11:55:22Z</time>
      </trkpt>
      <trkpt lat="45.36528" lon="4.5469">
        <ele>1237</ele>
        <time>2011-02-10T11:55:33Z</time>
      </trkpt>
      <trkpt lat="45.36532" lon="4.54678">
        <ele>1237</ele>
        <time>2011-02-10T11:55:42Z</time>
      </trkpt>
      <trkpt lat="45.36538" lon="4.54668">
        <ele>1238</ele>
        <time>2011-02-10T11:55:52Z</time>
      </trkpt>
      <trkpt lat="45.36543" lon="4.54655">
        <ele>1231</ele>
        <time>2011-02-10T11:56:03Z</time>
      </trkpt>
      <trkpt lat="45.36552" lon="4.54649">
        <ele>1232</ele>
        <time>2011-02-10T11:56:10Z</time>
      </trkpt>
      <trkpt lat="45.36559" lon="4.54639">
        <ele>1233</ele>
        <time>2011-02-10T11:56:20Z</time>
      </trkpt>
      <trkpt lat="45.36567" lon="4.54631">
        <ele>1233</ele>
        <time>2011-02-10T11:56:31Z</time>
      </trkpt>
      <trkpt lat="45.36574" lon="4.5462">
        <ele>1232</ele>
        <time>2011-02-10T11:56:40Z</time>
      </trkpt>
      <trkpt lat="45.36583" lon="4.54616">
        <ele>1232</ele>
        <time>2011-02-10T11:56:50Z</time>
      </trkpt>
      <trkpt lat="45.36588" lon="4.54605">
        <ele>1240</ele>
        <time>2011-02-10T11:56:58Z</time>
      </trkpt>
      <trkpt lat="45.36597" lon="4.54596">
        <ele>1239</ele>
        <time>2011-02-10T11:57:08Z</time>
      </trkpt>
      <trkpt lat="45.36605" lon="4.5459">
        <ele>1240</ele>
        <time>2011-02-10T11:57:16Z</time>
      </trkpt>
      <trkpt lat="45.36611" lon="4.54578">
        <ele>1230</ele>
        <time>2011-02-10T11:57:23Z</time>
      </trkpt>
      <trkpt lat="45.3662" lon="4.54576">
        <ele>1230</ele>
        <time>2011-02-10T11:57:33Z</time>
      </trkpt>
      <trkpt lat="45.3663" lon="4.54573">
        <ele>1231</ele>
        <time>2011-02-10T11:57:42Z</time>
      </trkpt>
      <trkpt lat="45.36638" lon="4.54564">
        <ele>1231</ele>
        <time>2011-02-10T11:57:52Z</time>
      </trkpt>
      <trkpt lat="45.36646" lon="4.54557">
        <ele>1231</ele>
        <time>2011-02-10T11:58:03Z</time>
      </trkpt>
      <trkpt lat="45.36655" lon="4.54553">
        <ele>1231</ele>
        <time>2011-02-10T11:58:14Z</time>
      </trkpt>
      <trkpt lat="45.36664" lon="4.54549">
        <ele>1230</ele>
        <time>2011-02-10T11:58:23Z</time>
      </trkpt>
      <trkpt lat="45.36673" lon="4.5454">
        <ele>1233</ele>
        <time>2011-02-10T11:58:36Z</time>
      </trkpt>
      <trkpt lat="45.36681" lon="4.54531">
        <ele>1232</ele>
        <time>2011-02-10T11:58:45Z</time>
      </trkpt>
      <trkpt lat="45.3669" lon="4.54525">
        <ele>1231</ele>
        <time>2011-02-10T11:58:56Z</time>
      </trkpt>
      <trkpt lat="45.367" lon="4.5452">
        <ele>1231</ele>
        <time>2011-02-10T11:59:04Z</time>
      </trkpt>
      <trkpt lat="45.36709" lon="4.54512">
        <ele>1231</ele>
        <time>2011-02-10T11:59:13Z</time>
      </trkpt>
      <trkpt lat="45.36718" lon="4.54506">
        <ele>1231</ele>
        <time>2011-02-10T11:59:21Z</time>
      </trkpt>
      <trkpt lat="45.36726" lon="4.54497">
        <ele>1221</ele>
        <time>2011-02-10T11:59:29Z</time>
      </trkpt>
      <trkpt lat="45.36735" lon="4.54492">
        <ele>1223</ele>
        <time>2011-02-10T11:59:39Z</time>
      </trkpt>
      <trkpt lat="45.36744" lon="4.54488">
        <ele>1224</ele>
        <time>2011-02-10T11:59:48Z</time>
      </trkpt>
      <trkpt lat="45.36753" lon="4.54484">
        <ele>1227</ele>
        <time>2011-02-10T11:59:55Z</time>
      </trkpt>
      <trkpt lat="45.36763" lon="4.54486">
        <ele>1227</ele>
        <time>2011-02-10T12:00:03Z</time>
      </trkpt>
      <trkpt lat="45.36773" lon="4.54492">
        <ele>1227</ele>
        <time>2011-02-10T12:00:09Z</time>
      </trkpt>
      <trkpt lat="45.36782" lon="4.54486">
        <ele>1227</ele>
        <time>2011-02-10T12:00:20Z</time>
      </trkpt>
      <trkpt lat="45.36792" lon="4.54483">
        <ele>1227</ele>
        <time>2011-02-10T12:00:31Z</time>
      </trkpt>
      <trkpt lat="45.368" lon="4.54477">
        <ele>1227</ele>
        <time>2011-02-10T12:00:41Z</time>
      </trkpt>
      <trkpt lat="45.36807" lon="4.54467">
        <ele>1227</ele>
        <time>2011-02-10T12:00:53Z</time>
      </trkpt>
      <trkpt lat="45.36816" lon="4.54457">
        <ele>1226</ele>
        <time>2011-02-10T12:01:01Z</time>
      </trkpt>
      <trkpt lat="45.36826" lon="4.54457">
        <ele>1227</ele>
        <time>2011-02-10T12:01:08Z</time>
      </trkpt>
      <trkpt lat="45.36833" lon="4.54447">
        <ele>1226</ele>
        <time>2011-02-10T12:01:16Z</time>
      </trkpt>
      <trkpt lat="45.36843" lon="4.54443">
        <ele>1229</ele>
        <time>2011-02-10T12:01:24Z</time>
      </trkpt>
      <trkpt lat="45.36854" lon="4.54442">
        <ele>1230</ele>
        <time>2011-02-10T12:01:33Z</time>
      </trkpt>
      <trkpt lat="45.36864" lon="4.54438">
        <ele>1230</ele>
        <time>2011-02-10T12:01:50Z</time>
      </trkpt>
      <trkpt lat="45.36875" lon="4.54435">
        <ele>1230</ele>
        <time>2011-02-10T12:02:00Z</time>
      </trkpt>
      <trkpt lat="45.36884" lon="4.54434">
        <ele>1231</ele>
        <time>2011-02-10T12:02:06Z</time>
      </trkpt>
      <trkpt lat="45.36894" lon="4.54433">
        <ele>1231</ele>
        <time>2011-02-10T12:02:15Z</time>
      </trkpt>
      <trkpt lat="45.36904" lon="4.54429">
        <ele>1230</ele>
        <time>2011-02-10T12:02:27Z</time>
      </trkpt>
      <trkpt lat="45.36912" lon="4.54421">
        <ele>1229</ele>
        <time>2011-02-10T12:02:37Z</time>
      </trkpt>
      <trkpt lat="45.36919" lon="4.54412">
        <ele>1227</ele>
        <time>2011-02-10T12:02:43Z</time>
      </trkpt>
      <trkpt lat="45.36925" lon="4.54397">
        <ele>1226</ele>
        <time>2011-02-10T12:02:53Z</time>
      </trkpt>
      <trkpt lat="45.36934" lon="4.54391">
        <ele>1225</ele>
        <time>2011-02-10T12:02:59Z</time>
      </trkpt>
      <trkpt lat="45.36924" lon="4.54392">
        <ele>1225</ele>
        <time>2011-02-10T12:03:16Z</time>
      </trkpt>
      <trkpt lat="45.36928" lon="4.5438">
        <ele>1224</ele>
        <time>2011-02-10T12:03:50Z</time>
      </trkpt>
      <trkpt lat="45.36935" lon="4.54369">
        <ele>1223</ele>
        <time>2011-02-10T12:04:01Z</time>
      </trkpt>
      <trkpt lat="45.36945" lon="4.54363">
        <ele>1223</ele>
        <time>2011-02-10T12:04:07Z</time>
      </trkpt>
      <trkpt lat="45.3695" lon="4.5435">
        <ele>1223</ele>
        <time>2011-02-10T12:04:16Z</time>
      </trkpt>
      <trkpt lat="45.36954" lon="4.54337">
        <ele>1222</ele>
        <time>2011-02-10T12:04:25Z</time>
      </trkpt>
      <trkpt lat="45.36959" lon="4.54322">
        <ele>1220</ele>
        <time>2011-02-10T12:04:37Z</time>
      </trkpt>
      <trkpt lat="45.36966" lon="4.54314">
        <ele>1220</ele>
        <time>2011-02-10T12:04:42Z</time>
      </trkpt>
      <trkpt lat="45.36971" lon="4.54301">
        <ele>1220</ele>
        <time>2011-02-10T12:04:48Z</time>
      </trkpt>
      <trkpt lat="45.36976" lon="4.5429">
        <ele>1220</ele>
        <time>2011-02-10T12:04:57Z</time>
      </trkpt>
      <trkpt lat="45.3698" lon="4.54276">
        <ele>1220</ele>
        <time>2011-02-10T12:05:04Z</time>
      </trkpt>
      <trkpt lat="45.3699" lon="4.54274">
        <ele>1221</ele>
        <time>2011-02-10T12:05:15Z</time>
      </trkpt>
      <trkpt lat="45.36997" lon="4.54263">
        <ele>1222</ele>
        <time>2011-02-10T12:05:25Z</time>
      </trkpt>
      <trkpt lat="45.37002" lon="4.54248">
        <ele>1223</ele>
        <time>2011-02-10T12:05:36Z</time>
      </trkpt>
      <trkpt lat="45.37002" lon="4.54235">
        <ele>1222</ele>
        <time>2011-02-10T12:05:48Z</time>
      </trkpt>
      <trkpt lat="45.37005" lon="4.54221">
        <ele>1222</ele>
        <time>2011-02-10T12:06:05Z</time>
      </trkpt>
      <trkpt lat="45.37002" lon="4.54208">
        <ele>1222</ele>
        <time>2011-02-10T12:06:18Z</time>
      </trkpt>
      <trkpt lat="45.37001" lon="4.54195">
        <ele>1223</ele>
        <time>2011-02-10T12:06:27Z</time>
      </trkpt>
      <trkpt lat="45.36997" lon="4.54182">
        <ele>1223</ele>
        <time>2011-02-10T12:06:38Z</time>
      </trkpt>
      <trkpt lat="45.36996" lon="4.54168">
        <ele>1224</ele>
        <time>2011-02-10T12:06:49Z</time>
      </trkpt>
      <trkpt lat="45.36991" lon="4.54156">
        <ele>1224</ele>
        <time>2011-02-10T12:06:58Z</time>
      </trkpt>
      <trkpt lat="45.3699" lon="4.54142">
        <ele>1224</ele>
        <time>2011-02-10T12:07:05Z</time>
      </trkpt>
      <trkpt lat="45.36989" lon="4.54128">
        <ele>1224</ele>
        <time>2011-02-10T12:07:14Z</time>
      </trkpt>
      <trkpt lat="45.36987" lon="4.54114">
        <ele>1224</ele>
        <time>2011-02-10T12:07:24Z</time>
      </trkpt>
      <trkpt lat="45.36987" lon="4.541">
        <ele>1224</ele>
        <time>2011-02-10T12:07:30Z</time>
      </trkpt>
      <trkpt lat="45.36986" lon="4.54086">
        <ele>1225</ele>
        <time>2011-02-10T12:07:39Z</time>
      </trkpt>
      <trkpt lat="45.36987" lon="4.54071">
        <ele>1226</ele>
        <time>2011-02-10T12:07:46Z</time>
      </trkpt>
      <trkpt lat="45.36989" lon="4.54058">
        <ele>1227</ele>
        <time>2011-02-10T12:07:52Z</time>
      </trkpt>
      <trkpt lat="45.36989" lon="4.54045">
        <ele>1227</ele>
        <time>2011-02-10T12:08:03Z</time>
      </trkpt>
      <trkpt lat="45.3699" lon="4.5403">
        <ele>1228</ele>
        <time>2011-02-10T12:08:26Z</time>
      </trkpt>
      <trkpt lat="45.3699" lon="4.54016">
        <ele>1228</ele>
        <time>2011-02-10T12:08:35Z</time>
      </trkpt>
      <trkpt lat="45.36994" lon="4.54002">
        <ele>1229</ele>
        <time>2011-02-10T12:08:44Z</time>
      </trkpt>
      <trkpt lat="45.36999" lon="4.5399">
        <ele>1231</ele>
        <time>2011-02-10T12:08:52Z</time>
      </trkpt>
      <trkpt lat="45.37001" lon="4.53975">
        <ele>1230</ele>
        <time>2011-02-10T12:09:02Z</time>
      </trkpt>
      <trkpt lat="45.37004" lon="4.53963">
        <ele>1231</ele>
        <time>2011-02-10T12:09:14Z</time>
      </trkpt>
      <trkpt lat="45.37002" lon="4.53948">
        <ele>1232</ele>
        <time>2011-02-10T12:09:33Z</time>
      </trkpt>
      <trkpt lat="45.37006" lon="4.53935">
        <ele>1233</ele>
        <time>2011-02-10T12:09:46Z</time>
      </trkpt>
      <trkpt lat="45.37" lon="4.53924">
        <ele>1237</ele>
        <time>2011-02-10T12:09:59Z</time>
      </trkpt>
      <trkpt lat="45.37001" lon="4.53911">
        <ele>1237</ele>
        <time>2011-02-10T12:10:09Z</time>
      </trkpt>
      <trkpt lat="45.37" lon="4.53897">
        <ele>1239</ele>
        <time>2011-02-10T12:10:19Z</time>
      </trkpt>
      <trkpt lat="45.36999" lon="4.53884">
        <ele>1239</ele>
        <time>2011-02-10T12:10:33Z</time>
      </trkpt>
      <trkpt lat="45.36996" lon="4.53869">
        <ele>1240</ele>
        <time>2011-02-10T12:10:47Z</time>
      </trkpt>
      <trkpt lat="45.36994" lon="4.53856">
        <ele>1240</ele>
        <time>2011-02-10T12:10:55Z</time>
      </trkpt>
      <trkpt lat="45.36994" lon="4.53842">
        <ele>1241</ele>
        <time>2011-02-10T12:11:00Z</time>
      </trkpt>
      <trkpt lat="45.36992" lon="4.53829">
        <ele>1243</ele>
        <time>2011-02-10T12:11:07Z</time>
      </trkpt>
      <trkpt lat="45.36993" lon="4.53815">
        <ele>1243</ele>
        <time>2011-02-10T12:11:14Z</time>
      </trkpt>
      <trkpt lat="45.36992" lon="4.53802">
        <ele>1244</ele>
        <time>2011-02-10T12:11:22Z</time>
      </trkpt>
      <trkpt lat="45.36993" lon="4.53788">
        <ele>1244</ele>
        <time>2011-02-10T12:11:28Z</time>
      </trkpt>
      <trkpt lat="45.36994" lon="4.53772">
        <ele>1244</ele>
        <time>2011-02-10T12:11:36Z</time>
      </trkpt>
      <trkpt lat="45.36994" lon="4.53759">
        <ele>1244</ele>
        <time>2011-02-10T12:11:44Z</time>
      </trkpt>
      <trkpt lat="45.36996" lon="4.53745">
        <ele>1245</ele>
        <time>2011-02-10T12:11:50Z</time>
      </trkpt>
      <trkpt lat="45.36996" lon="4.53732">
        <ele>1246</ele>
        <time>2011-02-10T12:11:58Z</time>
      </trkpt>
      <trkpt lat="45.36997" lon="4.53717">
        <ele>1247</ele>
        <time>2011-02-10T12:12:09Z</time>
      </trkpt>
      <trkpt lat="45.36999" lon="4.53703">
        <ele>1247</ele>
        <time>2011-02-10T12:12:15Z</time>
      </trkpt>
      <trkpt lat="45.37003" lon="4.5369">
        <ele>1242</ele>
        <time>2011-02-10T12:12:23Z</time>
      </trkpt>
      <trkpt lat="45.37002" lon="4.53676">
        <ele>1244</ele>
        <time>2011-02-10T12:12:35Z</time>
      </trkpt>
      <trkpt lat="45.37005" lon="4.53664">
        <ele>1245</ele>
        <time>2011-02-10T12:12:40Z</time>
      </trkpt>
      <trkpt lat="45.37006" lon="4.5365">
        <ele>1244</ele>
        <time>2011-02-10T12:12:55Z</time>
      </trkpt>
      <trkpt lat="45.37011" lon="4.53634">
        <ele>1244</ele>
        <time>2011-02-10T12:13:05Z</time>
      </trkpt>
      <trkpt lat="45.37017" lon="4.53621">
        <ele>1244</ele>
        <time>2011-02-10T12:13:12Z</time>
      </trkpt>
      <trkpt lat="45.37016" lon="4.53607">
        <ele>1245</ele>
        <time>2011-02-10T12:13:21Z</time>
      </trkpt>
      <trkpt lat="45.37016" lon="4.53593">
        <ele>1246</ele>
        <time>2011-02-10T12:13:37Z</time>
      </trkpt>
      <trkpt lat="45.37018" lon="4.53578">
        <ele>1247</ele>
        <time>2011-02-10T12:13:44Z</time>
      </trkpt>
      <trkpt lat="45.3702" lon="4.53563">
        <ele>1246</ele>
        <time>2011-02-10T12:13:54Z</time>
      </trkpt>
      <trkpt lat="45.37022" lon="4.5355">
        <ele>1246</ele>
        <time>2011-02-10T12:14:12Z</time>
      </trkpt>
      <trkpt lat="45.37023" lon="4.53537">
        <ele>1246</ele>
        <time>2011-02-10T12:14:31Z</time>
      </trkpt>
      <trkpt lat="45.37027" lon="4.53524">
        <ele>1246</ele>
        <time>2011-02-10T12:14:43Z</time>
      </trkpt>
      <trkpt lat="45.37028" lon="4.53509">
        <ele>1246</ele>
        <time>2011-02-10T12:14:51Z</time>
      </trkpt>
      <trkpt lat="45.3703" lon="4.53495">
        <ele>1247</ele>
        <time>2011-02-10T12:14:58Z</time>
      </trkpt>
      <trkpt lat="45.37034" lon="4.53482">
        <ele>1247</ele>
        <time>2011-02-10T12:15:10Z</time>
      </trkpt>
      <trkpt lat="45.37039" lon="4.53467">
        <ele>1247</ele>
        <time>2011-02-10T12:15:21Z</time>
      </trkpt>
      <trkpt lat="45.37039" lon="4.53453">
        <ele>1247</ele>
        <time>2011-02-10T12:15:29Z</time>
      </trkpt>
      <trkpt lat="45.37037" lon="4.5344">
        <ele>1247</ele>
        <time>2011-02-10T12:15:50Z</time>
      </trkpt>
      <trkpt lat="45.37034" lon="4.53426">
        <ele>1248</ele>
        <time>2011-02-10T12:16:00Z</time>
      </trkpt>
      <trkpt lat="45.37025" lon="4.53419">
        <ele>1248</ele>
        <time>2011-02-10T12:16:24Z</time>
      </trkpt>
      <trkpt lat="45.37021" lon="4.53407">
        <ele>1249</ele>
        <time>2011-02-10T12:16:33Z</time>
      </trkpt>
      <trkpt lat="45.37013" lon="4.53402">
        <ele>1250</ele>
        <time>2011-02-10T12:16:49Z</time>
      </trkpt>
      <trkpt lat="45.37002" lon="4.53399">
        <ele>1250</ele>
        <time>2011-02-10T12:17:00Z</time>
      </trkpt>
      <trkpt lat="45.36994" lon="4.53392">
        <ele>1249</ele>
        <time>2011-02-10T12:17:14Z</time>
      </trkpt>
      <trkpt lat="45.36987" lon="4.53382">
        <ele>1248</ele>
        <time>2011-02-10T12:17:22Z</time>
      </trkpt>
      <trkpt lat="45.3698" lon="4.53373">
        <ele>1248</ele>
        <time>2011-02-10T12:17:36Z</time>
      </trkpt>
      <trkpt lat="45.36973" lon="4.53364">
        <ele>1248</ele>
        <time>2011-02-10T12:17:47Z</time>
      </trkpt>
      <trkpt lat="45.36967" lon="4.53353">
        <ele>1248</ele>
        <time>2011-02-10T12:17:55Z</time>
      </trkpt>
      <trkpt lat="45.36964" lon="4.53337">
        <ele>1248</ele>
        <time>2011-02-10T12:18:05Z</time>
      </trkpt>
      <trkpt lat="45.36958" lon="4.53326">
        <ele>1245</ele>
        <time>2011-02-10T12:18:13Z</time>
      </trkpt>
      <trkpt lat="45.36952" lon="4.53313">
        <ele>1245</ele>
        <time>2011-02-10T12:18:21Z</time>
      </trkpt>
      <trkpt lat="45.36947" lon="4.533">
        <ele>1244</ele>
        <time>2011-02-10T12:18:34Z</time>
      </trkpt>
      <trkpt lat="45.36944" lon="4.53286">
        <ele>1244</ele>
        <time>2011-02-10T12:18:45Z</time>
      </trkpt>
      <trkpt lat="45.36938" lon="4.53275">
        <ele>1242</ele>
        <time>2011-02-10T12:18:54Z</time>
      </trkpt>
      <trkpt lat="45.36933" lon="4.53262">
        <ele>1241</ele>
        <time>2011-02-10T12:19:03Z</time>
      </trkpt>
      <trkpt lat="45.3693" lon="4.5325">
        <ele>1238</ele>
        <time>2011-02-10T12:19:13Z</time>
      </trkpt>
      <trkpt lat="45.36929" lon="4.53236">
        <ele>1239</ele>
        <time>2011-02-10T12:19:21Z</time>
      </trkpt>
      <trkpt lat="45.3693" lon="4.53221">
        <ele>1239</ele>
        <time>2011-02-10T12:19:29Z</time>
      </trkpt>
      <trkpt lat="45.3693" lon="4.53206">
        <ele>1239</ele>
        <time>2011-02-10T12:19:42Z</time>
      </trkpt>
      <trkpt lat="45.36925" lon="4.53195">
        <ele>1239</ele>
        <time>2011-02-10T12:19:56Z</time>
      </trkpt>
      <trkpt lat="45.36922" lon="4.53182">
        <ele>1238</ele>
        <time>2011-02-10T12:20:07Z</time>
      </trkpt>
      <trkpt lat="45.36921" lon="4.53167">
        <ele>1236</ele>
        <time>2011-02-10T12:20:22Z</time>
      </trkpt>
      <trkpt lat="45.36918" lon="4.53154">
        <ele>1235</ele>
        <time>2011-02-10T12:20:30Z</time>
      </trkpt>
      <trkpt lat="45.36918" lon="4.53141">
        <ele>1235</ele>
        <time>2011-02-10T12:20:38Z</time>
      </trkpt>
      <trkpt lat="45.36915" lon="4.53128">
        <ele>1230</ele>
        <time>2011-02-10T12:20:49Z</time>
      </trkpt>
      <trkpt lat="45.36913" lon="4.53115">
        <ele>1229</ele>
        <time>2011-02-10T12:21:10Z</time>
      </trkpt>
      <trkpt lat="45.36908" lon="4.53102">
        <ele>1228</ele>
        <time>2011-02-10T12:21:20Z</time>
      </trkpt>
      <trkpt lat="45.36903" lon="4.53091">
        <ele>1228</ele>
        <time>2011-02-10T12:21:33Z</time>
      </trkpt>
      <trkpt lat="45.36904" lon="4.53076">
        <ele>1225</ele>
        <time>2011-02-10T12:21:42Z</time>
      </trkpt>
      <trkpt lat="45.36905" lon="4.53062">
        <ele>1223</ele>
        <time>2011-02-10T12:21:50Z</time>
      </trkpt>
      <trkpt lat="45.36907" lon="4.53048">
        <ele>1222</ele>
        <time>2011-02-10T12:22:02Z</time>
      </trkpt>
      <trkpt lat="45.36904" lon="4.53036">
        <ele>1221</ele>
        <time>2011-02-10T12:22:18Z</time>
      </trkpt>
      <trkpt lat="45.36903" lon="4.53021">
        <ele>1220</ele>
        <time>2011-02-10T12:22:32Z</time>
      </trkpt>
      <trkpt lat="45.36897" lon="4.53011">
        <ele>1220</ele>
        <time>2011-02-10T12:22:40Z</time>
      </trkpt>
      <trkpt lat="45.36892" lon="4.52999">
        <ele>1215</ele>
        <time>2011-02-10T12:22:49Z</time>
      </trkpt>
      <trkpt lat="45.36887" lon="4.52987">
        <ele>1214</ele>
        <time>2011-02-10T12:23:01Z</time>
      </trkpt>
      <trkpt lat="45.36889" lon="4.52975">
        <ele>1213</ele>
        <time>2011-02-10T12:23:07Z</time>
      </trkpt>
      <trkpt lat="45.36892" lon="4.52962">
        <ele>1213</ele>
        <time>2011-02-10T12:23:15Z</time>
      </trkpt>
      <trkpt lat="45.36892" lon="4.52949">
        <ele>1212</ele>
        <time>2011-02-10T12:23:25Z</time>
      </trkpt>
      <trkpt lat="45.36894" lon="4.52936">
        <ele>1211</ele>
        <time>2011-02-10T12:23:35Z</time>
      </trkpt>
      <trkpt lat="45.36897" lon="4.52923">
        <ele>1211</ele>
        <time>2011-02-10T12:23:45Z</time>
      </trkpt>
      <trkpt lat="45.36892" lon="4.52911">
        <ele>1207</ele>
        <time>2011-02-10T12:24:02Z</time>
      </trkpt>
      <trkpt lat="45.36888" lon="4.52899">
        <ele>1206</ele>
        <time>2011-02-10T12:24:10Z</time>
      </trkpt>
      <trkpt lat="45.36881" lon="4.52889">
        <ele>1206</ele>
        <time>2011-02-10T12:24:20Z</time>
      </trkpt>
      <trkpt lat="45.36878" lon="4.52876">
        <ele>1206</ele>
        <time>2011-02-10T12:24:28Z</time>
      </trkpt>
      <trkpt lat="45.36874" lon="4.52862">
        <ele>1205</ele>
        <time>2011-02-10T12:24:39Z</time>
      </trkpt>
      <trkpt lat="45.36867" lon="4.52852">
        <ele>1205</ele>
        <time>2011-02-10T12:24:47Z</time>
      </trkpt>
      <trkpt lat="45.36859" lon="4.52843">
        <ele>1205</ele>
        <time>2011-02-10T12:24:54Z</time>
      </trkpt>
      <trkpt lat="45.36852" lon="4.52834">
        <ele>1205</ele>
        <time>2011-02-10T12:25:03Z</time>
      </trkpt>
      <trkpt lat="45.36844" lon="4.52825">
        <ele>1203</ele>
        <time>2011-02-10T12:25:14Z</time>
      </trkpt>
      <trkpt lat="45.36837" lon="4.52815">
        <ele>1202</ele>
        <time>2011-02-10T12:25:24Z</time>
      </trkpt>
      <trkpt lat="45.36833" lon="4.52802">
        <ele>1205</ele>
        <time>2011-02-10T12:26:35Z</time>
      </trkpt>
      <trkpt lat="45.36828" lon="4.5279">
        <ele>1205</ele>
        <time>2011-02-10T12:27:20Z</time>
      </trkpt>
    </trkseg>
  </trk>
</gpx>